<?xml version="1.0" encoding="UTF-8" standalone="no" ?>
<gpx xmlns="http://www.topografix.com/GPX/1/1" xmlns:xsi="http://www.w3.org/2001/XMLSchema-instance" xsi:schemaLocation="http://www.topografix.com/GPX/1/1 http://www.topografix.com/GPX/1/1/gpx.xsd" version="1.1" creator="VisuGPX - https://www.visugpx.com">
  <metadata>
    <name>Sortie VTT des Papas</name>
    <desc><![CDATA[Sortie dominicale avec Matthieu et Jérôme]]></desc>
  </metadata>
  <trk>
    <name><![CDATA[5ab85010 on GPSies.com]]></name>
    <trkseg>
      <trkpt lat="43.60199" lon="6.95077">
        <ele>146</ele>
        <time>2010-01-01T00:00:00Z</time>
      </trkpt>
      <trkpt lat="43.60201" lon="6.95081">
        <ele>146</ele>
        <time>2010-01-01T00:00:01Z</time>
      </trkpt>
      <trkpt lat="43.60185" lon="6.95099">
        <ele>145</ele>
        <time>2010-01-01T00:00:09Z</time>
      </trkpt>
      <trkpt lat="43.60188" lon="6.95123">
        <ele>145</ele>
        <time>2010-01-01T00:00:16Z</time>
      </trkpt>
      <trkpt lat="43.60194" lon="6.95135">
        <ele>145</ele>
        <time>2010-01-01T00:00:21Z</time>
      </trkpt>
      <trkpt lat="43.60207" lon="6.95159">
        <ele>145</ele>
        <time>2010-01-01T00:00:29Z</time>
      </trkpt>
      <trkpt lat="43.6022" lon="6.95184">
        <ele>145</ele>
        <time>2010-01-01T00:00:38Z</time>
      </trkpt>
      <trkpt lat="43.6023" lon="6.95205">
        <ele>145</ele>
        <time>2010-01-01T00:00:45Z</time>
      </trkpt>
      <trkpt lat="43.60241" lon="6.95225">
        <ele>145</ele>
        <time>2010-01-01T00:00:53Z</time>
      </trkpt>
      <trkpt lat="43.60256" lon="6.9525">
        <ele>145</ele>
        <time>2010-01-01T00:01:02Z</time>
      </trkpt>
      <trkpt lat="43.6027" lon="6.95276">
        <ele>145</ele>
        <time>2010-01-01T00:01:12Z</time>
      </trkpt>
      <trkpt lat="43.60281" lon="6.95296">
        <ele>145</ele>
        <time>2010-01-01T00:01:19Z</time>
      </trkpt>
      <trkpt lat="43.60286" lon="6.95302">
        <ele>145</ele>
        <time>2010-01-01T00:01:21Z</time>
      </trkpt>
      <trkpt lat="43.603" lon="6.95317">
        <ele>145</ele>
        <time>2010-01-01T00:01:29Z</time>
      </trkpt>
      <trkpt lat="43.60315" lon="6.95331">
        <ele>145</ele>
        <time>2010-01-01T00:01:36Z</time>
      </trkpt>
      <trkpt lat="43.6033" lon="6.95344">
        <ele>146</ele>
        <time>2010-01-01T00:01:43Z</time>
      </trkpt>
      <trkpt lat="43.60346" lon="6.95358">
        <ele>147</ele>
        <time>2010-01-01T00:01:51Z</time>
      </trkpt>
      <trkpt lat="43.60362" lon="6.95371">
        <ele>147</ele>
        <time>2010-01-01T00:01:58Z</time>
      </trkpt>
      <trkpt lat="43.60377" lon="6.95385">
        <ele>148</ele>
        <time>2010-01-01T00:02:05Z</time>
      </trkpt>
      <trkpt lat="43.60393" lon="6.95398">
        <ele>149</ele>
        <time>2010-01-01T00:02:13Z</time>
      </trkpt>
      <trkpt lat="43.6041" lon="6.95413">
        <ele>149</ele>
        <time>2010-01-01T00:02:21Z</time>
      </trkpt>
      <trkpt lat="43.60427" lon="6.95425">
        <ele>149</ele>
        <time>2010-01-01T00:02:28Z</time>
      </trkpt>
      <trkpt lat="43.60443" lon="6.95438">
        <ele>149</ele>
        <time>2010-01-01T00:02:36Z</time>
      </trkpt>
      <trkpt lat="43.60458" lon="6.95453">
        <ele>149</ele>
        <time>2010-01-01T00:02:43Z</time>
      </trkpt>
      <trkpt lat="43.60474" lon="6.95468">
        <ele>150</ele>
        <time>2010-01-01T00:02:51Z</time>
      </trkpt>
      <trkpt lat="43.6049" lon="6.95481">
        <ele>151</ele>
        <time>2010-01-01T00:02:58Z</time>
      </trkpt>
      <trkpt lat="43.60505" lon="6.95495">
        <ele>152</ele>
        <time>2010-01-01T00:03:06Z</time>
      </trkpt>
      <trkpt lat="43.60521" lon="6.9551">
        <ele>153</ele>
        <time>2010-01-01T00:03:13Z</time>
      </trkpt>
      <trkpt lat="43.60536" lon="6.95524">
        <ele>154</ele>
        <time>2010-01-01T00:03:21Z</time>
      </trkpt>
      <trkpt lat="43.60552" lon="6.95537">
        <ele>155</ele>
        <time>2010-01-01T00:03:28Z</time>
      </trkpt>
      <trkpt lat="43.60573" lon="6.95549">
        <ele>158</ele>
        <time>2010-01-01T00:03:37Z</time>
      </trkpt>
      <trkpt lat="43.60591" lon="6.95557">
        <ele>159</ele>
        <time>2010-01-01T00:03:45Z</time>
      </trkpt>
      <trkpt lat="43.60609" lon="6.95565">
        <ele>159</ele>
        <time>2010-01-01T00:03:52Z</time>
      </trkpt>
      <trkpt lat="43.60627" lon="6.95572">
        <ele>160</ele>
        <time>2010-01-01T00:04:00Z</time>
      </trkpt>
      <trkpt lat="43.60648" lon="6.95581">
        <ele>161</ele>
        <time>2010-01-01T00:04:08Z</time>
      </trkpt>
      <trkpt lat="43.60668" lon="6.95588">
        <ele>161</ele>
        <time>2010-01-01T00:04:17Z</time>
      </trkpt>
      <trkpt lat="43.60674" lon="6.95615">
        <ele>161</ele>
        <time>2010-01-01T00:04:25Z</time>
      </trkpt>
      <trkpt lat="43.60666" lon="6.95638">
        <ele>161</ele>
        <time>2010-01-01T00:04:32Z</time>
      </trkpt>
      <trkpt lat="43.60655" lon="6.95663">
        <ele>160</ele>
        <time>2010-01-01T00:04:41Z</time>
      </trkpt>
      <trkpt lat="43.60641" lon="6.95686">
        <ele>159</ele>
        <time>2010-01-01T00:04:50Z</time>
      </trkpt>
      <trkpt lat="43.60628" lon="6.95709">
        <ele>158</ele>
        <time>2010-01-01T00:04:58Z</time>
      </trkpt>
      <trkpt lat="43.60615" lon="6.95731">
        <ele>158</ele>
        <time>2010-01-01T00:05:06Z</time>
      </trkpt>
      <trkpt lat="43.60604" lon="6.95753">
        <ele>157</ele>
        <time>2010-01-01T00:05:14Z</time>
      </trkpt>
      <trkpt lat="43.60593" lon="6.95775">
        <ele>156</ele>
        <time>2010-01-01T00:05:22Z</time>
      </trkpt>
      <trkpt lat="43.60582" lon="6.95795">
        <ele>155</ele>
        <time>2010-01-01T00:05:29Z</time>
      </trkpt>
      <trkpt lat="43.60568" lon="6.95822">
        <ele>153</ele>
        <time>2010-01-01T00:05:39Z</time>
      </trkpt>
      <trkpt lat="43.60554" lon="6.95848">
        <ele>152</ele>
        <time>2010-01-01T00:05:48Z</time>
      </trkpt>
      <trkpt lat="43.60545" lon="6.95867">
        <ele>151</ele>
        <time>2010-01-01T00:05:55Z</time>
      </trkpt>
      <trkpt lat="43.60543" lon="6.95893">
        <ele>150</ele>
        <time>2010-01-01T00:06:02Z</time>
      </trkpt>
      <trkpt lat="43.60554" lon="6.95912">
        <ele>150</ele>
        <time>2010-01-01T00:06:09Z</time>
      </trkpt>
      <trkpt lat="43.60568" lon="6.95938">
        <ele>151</ele>
        <time>2010-01-01T00:06:18Z</time>
      </trkpt>
      <trkpt lat="43.60579" lon="6.95957">
        <ele>152</ele>
        <time>2010-01-01T00:06:26Z</time>
      </trkpt>
      <trkpt lat="43.60594" lon="6.95983">
        <ele>153</ele>
        <time>2010-01-01T00:06:35Z</time>
      </trkpt>
      <trkpt lat="43.60607" lon="6.96004">
        <ele>153</ele>
        <time>2010-01-01T00:06:43Z</time>
      </trkpt>
      <trkpt lat="43.60619" lon="6.96026">
        <ele>154</ele>
        <time>2010-01-01T00:06:51Z</time>
      </trkpt>
      <trkpt lat="43.60631" lon="6.96054">
        <ele>153</ele>
        <time>2010-01-01T00:07:01Z</time>
      </trkpt>
      <trkpt lat="43.60641" lon="6.96083">
        <ele>153</ele>
        <time>2010-01-01T00:07:10Z</time>
      </trkpt>
      <trkpt lat="43.60651" lon="6.96111">
        <ele>153</ele>
        <time>2010-01-01T00:07:19Z</time>
      </trkpt>
      <trkpt lat="43.6066" lon="6.96138">
        <ele>152</ele>
        <time>2010-01-01T00:07:28Z</time>
      </trkpt>
      <trkpt lat="43.60664" lon="6.96157">
        <ele>151</ele>
        <time>2010-01-01T00:07:33Z</time>
      </trkpt>
      <trkpt lat="43.60667" lon="6.9619">
        <ele>151</ele>
        <time>2010-01-01T00:07:43Z</time>
      </trkpt>
      <trkpt lat="43.6067" lon="6.96224">
        <ele>150</ele>
        <time>2010-01-01T00:07:53Z</time>
      </trkpt>
      <trkpt lat="43.60675" lon="6.96253">
        <ele>149</ele>
        <time>2010-01-01T00:08:02Z</time>
      </trkpt>
      <trkpt lat="43.60684" lon="6.96276">
        <ele>147</ele>
        <time>2010-01-01T00:08:09Z</time>
      </trkpt>
      <trkpt lat="43.60695" lon="6.96301">
        <ele>146</ele>
        <time>2010-01-01T00:08:18Z</time>
      </trkpt>
      <trkpt lat="43.60697" lon="6.96306">
        <ele>146</ele>
        <time>2010-01-01T00:08:19Z</time>
      </trkpt>
      <trkpt lat="43.60714" lon="6.96321">
        <ele>147</ele>
        <time>2010-01-01T00:08:27Z</time>
      </trkpt>
      <trkpt lat="43.60724" lon="6.96328">
        <ele>147</ele>
        <time>2010-01-01T00:08:32Z</time>
      </trkpt>
      <trkpt lat="43.60739" lon="6.96343">
        <ele>148</ele>
        <time>2010-01-01T00:08:39Z</time>
      </trkpt>
      <trkpt lat="43.60758" lon="6.9636">
        <ele>149</ele>
        <time>2010-01-01T00:08:48Z</time>
      </trkpt>
      <trkpt lat="43.60777" lon="6.96379">
        <ele>150</ele>
        <time>2010-01-01T00:08:58Z</time>
      </trkpt>
      <trkpt lat="43.60797" lon="6.96399">
        <ele>151</ele>
        <time>2010-01-01T00:09:08Z</time>
      </trkpt>
      <trkpt lat="43.60818" lon="6.96419">
        <ele>151</ele>
        <time>2010-01-01T00:09:18Z</time>
      </trkpt>
      <trkpt lat="43.60838" lon="6.96438">
        <ele>152</ele>
        <time>2010-01-01T00:09:27Z</time>
      </trkpt>
      <trkpt lat="43.60857" lon="6.96457">
        <ele>152</ele>
        <time>2010-01-01T00:09:37Z</time>
      </trkpt>
      <trkpt lat="43.60875" lon="6.96475">
        <ele>151</ele>
        <time>2010-01-01T00:09:46Z</time>
      </trkpt>
      <trkpt lat="43.60893" lon="6.96493">
        <ele>151</ele>
        <time>2010-01-01T00:09:55Z</time>
      </trkpt>
      <trkpt lat="43.60911" lon="6.96512">
        <ele>151</ele>
        <time>2010-01-01T00:10:03Z</time>
      </trkpt>
      <trkpt lat="43.60927" lon="6.9653">
        <ele>151</ele>
        <time>2010-01-01T00:10:12Z</time>
      </trkpt>
      <trkpt lat="43.60945" lon="6.96548">
        <ele>151</ele>
        <time>2010-01-01T00:10:21Z</time>
      </trkpt>
      <trkpt lat="43.60963" lon="6.96567">
        <ele>150</ele>
        <time>2010-01-01T00:10:30Z</time>
      </trkpt>
      <trkpt lat="43.6098" lon="6.96584">
        <ele>150</ele>
        <time>2010-01-01T00:10:38Z</time>
      </trkpt>
      <trkpt lat="43.60998" lon="6.96602">
        <ele>150</ele>
        <time>2010-01-01T00:10:47Z</time>
      </trkpt>
      <trkpt lat="43.61014" lon="6.96618">
        <ele>150</ele>
        <time>2010-01-01T00:10:55Z</time>
      </trkpt>
      <trkpt lat="43.6103" lon="6.96634">
        <ele>150</ele>
        <time>2010-01-01T00:11:03Z</time>
      </trkpt>
      <trkpt lat="43.61046" lon="6.96649">
        <ele>149</ele>
        <time>2010-01-01T00:11:11Z</time>
      </trkpt>
      <trkpt lat="43.61062" lon="6.96666">
        <ele>149</ele>
        <time>2010-01-01T00:11:19Z</time>
      </trkpt>
      <trkpt lat="43.6108" lon="6.96684">
        <ele>147</ele>
        <time>2010-01-01T00:11:28Z</time>
      </trkpt>
      <trkpt lat="43.611" lon="6.96705">
        <ele>145</ele>
        <time>2010-01-01T00:11:38Z</time>
      </trkpt>
      <trkpt lat="43.6112" lon="6.96728">
        <ele>143</ele>
        <time>2010-01-01T00:11:48Z</time>
      </trkpt>
      <trkpt lat="43.61127" lon="6.96737">
        <ele>142</ele>
        <time>2010-01-01T00:11:52Z</time>
      </trkpt>
      <trkpt lat="43.61133" lon="6.9676">
        <ele>140</ele>
        <time>2010-01-01T00:11:59Z</time>
      </trkpt>
      <trkpt lat="43.61133" lon="6.96786">
        <ele>139</ele>
        <time>2010-01-01T00:12:07Z</time>
      </trkpt>
      <trkpt lat="43.61138" lon="6.96821">
        <ele>137</ele>
        <time>2010-01-01T00:12:17Z</time>
      </trkpt>
      <trkpt lat="43.61152" lon="6.96847">
        <ele>135</ele>
        <time>2010-01-01T00:12:26Z</time>
      </trkpt>
      <trkpt lat="43.61172" lon="6.96862">
        <ele>134</ele>
        <time>2010-01-01T00:12:35Z</time>
      </trkpt>
      <trkpt lat="43.61193" lon="6.96864">
        <ele>133</ele>
        <time>2010-01-01T00:12:44Z</time>
      </trkpt>
      <trkpt lat="43.61212" lon="6.96856">
        <ele>132</ele>
        <time>2010-01-01T00:12:52Z</time>
      </trkpt>
      <trkpt lat="43.61231" lon="6.96857">
        <ele>131</ele>
        <time>2010-01-01T00:12:59Z</time>
      </trkpt>
      <trkpt lat="43.6125" lon="6.96872">
        <ele>129</ele>
        <time>2010-01-01T00:13:08Z</time>
      </trkpt>
      <trkpt lat="43.61256" lon="6.96879">
        <ele>129</ele>
        <time>2010-01-01T00:13:11Z</time>
      </trkpt>
      <trkpt lat="43.61277" lon="6.96903">
        <ele>128</ele>
        <time>2010-01-01T00:13:22Z</time>
      </trkpt>
      <trkpt lat="43.61293" lon="6.96919">
        <ele>127</ele>
        <time>2010-01-01T00:13:30Z</time>
      </trkpt>
      <trkpt lat="43.6131" lon="6.96934">
        <ele>126</ele>
        <time>2010-01-01T00:13:38Z</time>
      </trkpt>
      <trkpt lat="43.61326" lon="6.96948">
        <ele>125</ele>
        <time>2010-01-01T00:13:46Z</time>
      </trkpt>
      <trkpt lat="43.61349" lon="6.96968">
        <ele>125</ele>
        <time>2010-01-01T00:13:57Z</time>
      </trkpt>
      <trkpt lat="43.6137" lon="6.96988">
        <ele>124</ele>
        <time>2010-01-01T00:14:07Z</time>
      </trkpt>
      <trkpt lat="43.61389" lon="6.97009">
        <ele>124</ele>
        <time>2010-01-01T00:14:17Z</time>
      </trkpt>
      <trkpt lat="43.61405" lon="6.97026">
        <ele>124</ele>
        <time>2010-01-01T00:14:25Z</time>
      </trkpt>
      <trkpt lat="43.61407" lon="6.9703">
        <ele>123</ele>
        <time>2010-01-01T00:14:26Z</time>
      </trkpt>
      <trkpt lat="43.61408" lon="6.97038">
        <ele>123</ele>
        <time>2010-01-01T00:14:29Z</time>
      </trkpt>
      <trkpt lat="43.61407" lon="6.97038">
        <ele>121</ele>
        <time>2010-01-01T00:14:29Z</time>
      </trkpt>
      <trkpt lat="43.61406" lon="6.97049">
        <ele>122</ele>
        <time>2010-01-01T00:14:33Z</time>
      </trkpt>
      <trkpt lat="43.61408" lon="6.97043">
        <ele>122</ele>
        <time>2010-01-01T00:14:35Z</time>
      </trkpt>
      <trkpt lat="43.6142" lon="6.97047">
        <ele>123</ele>
        <time>2010-01-01T00:14:40Z</time>
      </trkpt>
      <trkpt lat="43.61437" lon="6.97063">
        <ele>124</ele>
        <time>2010-01-01T00:14:48Z</time>
      </trkpt>
      <trkpt lat="43.61453" lon="6.97079">
        <ele>124</ele>
        <time>2010-01-01T00:14:56Z</time>
      </trkpt>
      <trkpt lat="43.61468" lon="6.97095">
        <ele>125</ele>
        <time>2010-01-01T00:15:03Z</time>
      </trkpt>
      <trkpt lat="43.61484" lon="6.97114">
        <ele>126</ele>
        <time>2010-01-01T00:15:12Z</time>
      </trkpt>
      <trkpt lat="43.615" lon="6.97131">
        <ele>128</ele>
        <time>2010-01-01T00:15:20Z</time>
      </trkpt>
      <trkpt lat="43.61515" lon="6.97148">
        <ele>131</ele>
        <time>2010-01-01T00:15:28Z</time>
      </trkpt>
      <trkpt lat="43.61529" lon="6.97167">
        <ele>133</ele>
        <time>2010-01-01T00:15:35Z</time>
      </trkpt>
      <trkpt lat="43.61542" lon="6.9718">
        <ele>134</ele>
        <time>2010-01-01T00:15:42Z</time>
      </trkpt>
      <trkpt lat="43.61555" lon="6.97201">
        <ele>136</ele>
        <time>2010-01-01T00:15:50Z</time>
      </trkpt>
      <trkpt lat="43.61568" lon="6.97221">
        <ele>137</ele>
        <time>2010-01-01T00:15:58Z</time>
      </trkpt>
      <trkpt lat="43.61581" lon="6.97241">
        <ele>138</ele>
        <time>2010-01-01T00:16:06Z</time>
      </trkpt>
      <trkpt lat="43.61595" lon="6.97262">
        <ele>138</ele>
        <time>2010-01-01T00:16:14Z</time>
      </trkpt>
      <trkpt lat="43.61609" lon="6.97278">
        <ele>140</ele>
        <time>2010-01-01T00:16:21Z</time>
      </trkpt>
      <trkpt lat="43.61621" lon="6.97298">
        <ele>139</ele>
        <time>2010-01-01T00:16:29Z</time>
      </trkpt>
      <trkpt lat="43.61632" lon="6.97318">
        <ele>136</ele>
        <time>2010-01-01T00:16:36Z</time>
      </trkpt>
      <trkpt lat="43.61642" lon="6.9734">
        <ele>137</ele>
        <time>2010-01-01T00:16:43Z</time>
      </trkpt>
      <trkpt lat="43.61641" lon="6.9736">
        <ele>138</ele>
        <time>2010-01-01T00:16:49Z</time>
      </trkpt>
      <trkpt lat="43.61624" lon="6.97377">
        <ele>138</ele>
        <time>2010-01-01T00:16:58Z</time>
      </trkpt>
      <trkpt lat="43.61611" lon="6.97399">
        <ele>136</ele>
        <time>2010-01-01T00:17:06Z</time>
      </trkpt>
      <trkpt lat="43.61593" lon="6.97416">
        <ele>135</ele>
        <time>2010-01-01T00:17:14Z</time>
      </trkpt>
      <trkpt lat="43.61575" lon="6.9743">
        <ele>134</ele>
        <time>2010-01-01T00:17:23Z</time>
      </trkpt>
      <trkpt lat="43.61555" lon="6.97444">
        <ele>133</ele>
        <time>2010-01-01T00:17:32Z</time>
      </trkpt>
      <trkpt lat="43.61539" lon="6.97458">
        <ele>133</ele>
        <time>2010-01-01T00:17:39Z</time>
      </trkpt>
      <trkpt lat="43.6152" lon="6.97471">
        <ele>130</ele>
        <time>2010-01-01T00:17:47Z</time>
      </trkpt>
      <trkpt lat="43.61502" lon="6.97486">
        <ele>129</ele>
        <time>2010-01-01T00:17:56Z</time>
      </trkpt>
      <trkpt lat="43.61483" lon="6.97499">
        <ele>128</ele>
        <time>2010-01-01T00:18:04Z</time>
      </trkpt>
      <trkpt lat="43.61466" lon="6.97512">
        <ele>128</ele>
        <time>2010-01-01T00:18:12Z</time>
      </trkpt>
      <trkpt lat="43.61448" lon="6.97525">
        <ele>127</ele>
        <time>2010-01-01T00:18:20Z</time>
      </trkpt>
      <trkpt lat="43.61428" lon="6.97538">
        <ele>126</ele>
        <time>2010-01-01T00:18:29Z</time>
      </trkpt>
      <trkpt lat="43.61412" lon="6.9755">
        <ele>126</ele>
        <time>2010-01-01T00:18:37Z</time>
      </trkpt>
      <trkpt lat="43.61394" lon="6.97562">
        <ele>124</ele>
        <time>2010-01-01T00:18:44Z</time>
      </trkpt>
      <trkpt lat="43.61375" lon="6.97574">
        <ele>123</ele>
        <time>2010-01-01T00:18:53Z</time>
      </trkpt>
      <trkpt lat="43.61355" lon="6.97585">
        <ele>123</ele>
        <time>2010-01-01T00:19:02Z</time>
      </trkpt>
      <trkpt lat="43.61335" lon="6.97591">
        <ele>122</ele>
        <time>2010-01-01T00:19:10Z</time>
      </trkpt>
      <trkpt lat="43.6133" lon="6.97594">
        <ele>122</ele>
        <time>2010-01-01T00:19:12Z</time>
      </trkpt>
      <trkpt lat="43.61321" lon="6.97622">
        <ele>121</ele>
        <time>2010-01-01T00:19:21Z</time>
      </trkpt>
      <trkpt lat="43.61323" lon="6.97637">
        <ele>120</ele>
        <time>2010-01-01T00:19:25Z</time>
      </trkpt>
      <trkpt lat="43.61323" lon="6.97645">
        <ele>120</ele>
        <time>2010-01-01T00:19:28Z</time>
      </trkpt>
      <trkpt lat="43.61311" lon="6.97662">
        <ele>119</ele>
        <time>2010-01-01T00:19:35Z</time>
      </trkpt>
      <trkpt lat="43.61289" lon="6.97661">
        <ele>117</ele>
        <time>2010-01-01T00:19:43Z</time>
      </trkpt>
      <trkpt lat="43.61269" lon="6.97671">
        <ele>116</ele>
        <time>2010-01-01T00:19:52Z</time>
      </trkpt>
      <trkpt lat="43.61263" lon="6.97677">
        <ele>116</ele>
        <time>2010-01-01T00:19:55Z</time>
      </trkpt>
      <trkpt lat="43.61256" lon="6.97705">
        <ele>115</ele>
        <time>2010-01-01T00:20:03Z</time>
      </trkpt>
      <trkpt lat="43.61254" lon="6.97723">
        <ele>114</ele>
        <time>2010-01-01T00:20:09Z</time>
      </trkpt>
      <trkpt lat="43.61252" lon="6.97749">
        <ele>114</ele>
        <time>2010-01-01T00:20:16Z</time>
      </trkpt>
      <trkpt lat="43.61247" lon="6.9778">
        <ele>114</ele>
        <time>2010-01-01T00:20:25Z</time>
      </trkpt>
      <trkpt lat="43.61244" lon="6.97805">
        <ele>113</ele>
        <time>2010-01-01T00:20:33Z</time>
      </trkpt>
      <trkpt lat="43.61241" lon="6.97831">
        <ele>114</ele>
        <time>2010-01-01T00:20:40Z</time>
      </trkpt>
      <trkpt lat="43.61239" lon="6.97858">
        <ele>115</ele>
        <time>2010-01-01T00:20:48Z</time>
      </trkpt>
      <trkpt lat="43.61234" lon="6.97882">
        <ele>117</ele>
        <time>2010-01-01T00:20:55Z</time>
      </trkpt>
      <trkpt lat="43.61238" lon="6.97906">
        <ele>120</ele>
        <time>2010-01-01T00:21:03Z</time>
      </trkpt>
      <trkpt lat="43.61242" lon="6.97934">
        <ele>122</ele>
        <time>2010-01-01T00:21:11Z</time>
      </trkpt>
      <trkpt lat="43.61246" lon="6.9796">
        <ele>124</ele>
        <time>2010-01-01T00:21:18Z</time>
      </trkpt>
      <trkpt lat="43.6125" lon="6.97986">
        <ele>125</ele>
        <time>2010-01-01T00:21:26Z</time>
      </trkpt>
      <trkpt lat="43.61254" lon="6.98013">
        <ele>128</ele>
        <time>2010-01-01T00:21:34Z</time>
      </trkpt>
      <trkpt lat="43.61259" lon="6.98038">
        <ele>130</ele>
        <time>2010-01-01T00:21:42Z</time>
      </trkpt>
      <trkpt lat="43.61264" lon="6.98064">
        <ele>133</ele>
        <time>2010-01-01T00:21:50Z</time>
      </trkpt>
      <trkpt lat="43.61269" lon="6.98088">
        <ele>136</ele>
        <time>2010-01-01T00:21:57Z</time>
      </trkpt>
      <trkpt lat="43.61273" lon="6.98114">
        <ele>138</ele>
        <time>2010-01-01T00:22:04Z</time>
      </trkpt>
      <trkpt lat="43.6128" lon="6.98138">
        <ele>140</ele>
        <time>2010-01-01T00:22:12Z</time>
      </trkpt>
      <trkpt lat="43.61285" lon="6.98163">
        <ele>142</ele>
        <time>2010-01-01T00:22:19Z</time>
      </trkpt>
      <trkpt lat="43.6129" lon="6.98187">
        <ele>144</ele>
        <time>2010-01-01T00:22:27Z</time>
      </trkpt>
      <trkpt lat="43.61294" lon="6.98212">
        <ele>146</ele>
        <time>2010-01-01T00:22:34Z</time>
      </trkpt>
      <trkpt lat="43.61298" lon="6.98237">
        <ele>150</ele>
        <time>2010-01-01T00:22:42Z</time>
      </trkpt>
      <trkpt lat="43.61302" lon="6.98262">
        <ele>155</ele>
        <time>2010-01-01T00:22:49Z</time>
      </trkpt>
      <trkpt lat="43.61308" lon="6.98287">
        <ele>160</ele>
        <time>2010-01-01T00:22:56Z</time>
      </trkpt>
      <trkpt lat="43.61313" lon="6.98311">
        <ele>166</ele>
        <time>2010-01-01T00:23:04Z</time>
      </trkpt>
      <trkpt lat="43.61318" lon="6.98336">
        <ele>171</ele>
        <time>2010-01-01T00:23:11Z</time>
      </trkpt>
      <trkpt lat="43.61329" lon="6.98357">
        <ele>176</ele>
        <time>2010-01-01T00:23:19Z</time>
      </trkpt>
      <trkpt lat="43.6133" lon="6.98382">
        <ele>180</ele>
        <time>2010-01-01T00:23:26Z</time>
      </trkpt>
      <trkpt lat="43.61332" lon="6.98408">
        <ele>180</ele>
        <time>2010-01-01T00:23:34Z</time>
      </trkpt>
      <trkpt lat="43.61335" lon="6.98434">
        <ele>180</ele>
        <time>2010-01-01T00:23:41Z</time>
      </trkpt>
      <trkpt lat="43.61333" lon="6.98439">
        <ele>180</ele>
        <time>2010-01-01T00:23:43Z</time>
      </trkpt>
      <trkpt lat="43.61335" lon="6.98461">
        <ele>180</ele>
        <time>2010-01-01T00:23:49Z</time>
      </trkpt>
      <trkpt lat="43.61336" lon="6.98488">
        <ele>181</ele>
        <time>2010-01-01T00:23:57Z</time>
      </trkpt>
      <trkpt lat="43.61334" lon="6.98513">
        <ele>182</ele>
        <time>2010-01-01T00:24:04Z</time>
      </trkpt>
      <trkpt lat="43.61335" lon="6.98541">
        <ele>183</ele>
        <time>2010-01-01T00:24:13Z</time>
      </trkpt>
      <trkpt lat="43.61339" lon="6.98566">
        <ele>184</ele>
        <time>2010-01-01T00:24:20Z</time>
      </trkpt>
      <trkpt lat="43.61347" lon="6.98594">
        <ele>185</ele>
        <time>2010-01-01T00:24:29Z</time>
      </trkpt>
      <trkpt lat="43.61351" lon="6.98606">
        <ele>186</ele>
        <time>2010-01-01T00:24:32Z</time>
      </trkpt>
      <trkpt lat="43.61351" lon="6.98633">
        <ele>187</ele>
        <time>2010-01-01T00:24:40Z</time>
      </trkpt>
      <trkpt lat="43.61355" lon="6.98659">
        <ele>188</ele>
        <time>2010-01-01T00:24:48Z</time>
      </trkpt>
      <trkpt lat="43.61357" lon="6.9869">
        <ele>189</ele>
        <time>2010-01-01T00:24:57Z</time>
      </trkpt>
      <trkpt lat="43.61358" lon="6.98709">
        <ele>190</ele>
        <time>2010-01-01T00:25:02Z</time>
      </trkpt>
      <trkpt lat="43.61356" lon="6.98734">
        <ele>190</ele>
        <time>2010-01-01T00:25:10Z</time>
      </trkpt>
      <trkpt lat="43.61355" lon="6.9874">
        <ele>190</ele>
        <time>2010-01-01T00:25:12Z</time>
      </trkpt>
      <trkpt lat="43.61351" lon="6.98769">
        <ele>191</ele>
        <time>2010-01-01T00:25:20Z</time>
      </trkpt>
      <trkpt lat="43.61344" lon="6.98796">
        <ele>190</ele>
        <time>2010-01-01T00:25:28Z</time>
      </trkpt>
      <trkpt lat="43.6133" lon="6.98814">
        <ele>190</ele>
        <time>2010-01-01T00:25:36Z</time>
      </trkpt>
      <trkpt lat="43.61317" lon="6.98831">
        <ele>190</ele>
        <time>2010-01-01T00:25:43Z</time>
      </trkpt>
      <trkpt lat="43.6131" lon="6.98859">
        <ele>190</ele>
        <time>2010-01-01T00:25:52Z</time>
      </trkpt>
      <trkpt lat="43.61297" lon="6.98878">
        <ele>189</ele>
        <time>2010-01-01T00:25:59Z</time>
      </trkpt>
      <trkpt lat="43.61276" lon="6.98881">
        <ele>188</ele>
        <time>2010-01-01T00:26:08Z</time>
      </trkpt>
      <trkpt lat="43.61256" lon="6.98882">
        <ele>187</ele>
        <time>2010-01-01T00:26:16Z</time>
      </trkpt>
      <trkpt lat="43.61239" lon="6.98892">
        <ele>187</ele>
        <time>2010-01-01T00:26:23Z</time>
      </trkpt>
      <trkpt lat="43.61233" lon="6.98897">
        <ele>187</ele>
        <time>2010-01-01T00:26:26Z</time>
      </trkpt>
      <trkpt lat="43.6122" lon="6.98893">
        <ele>186</ele>
        <time>2010-01-01T00:26:32Z</time>
      </trkpt>
      <trkpt lat="43.61216" lon="6.98866">
        <ele>186</ele>
        <time>2010-01-01T00:26:40Z</time>
      </trkpt>
      <trkpt lat="43.61212" lon="6.98838">
        <ele>185</ele>
        <time>2010-01-01T00:26:48Z</time>
      </trkpt>
      <trkpt lat="43.61204" lon="6.98815">
        <ele>185</ele>
        <time>2010-01-01T00:26:55Z</time>
      </trkpt>
      <trkpt lat="43.61191" lon="6.98797">
        <ele>184</ele>
        <time>2010-01-01T00:27:02Z</time>
      </trkpt>
      <trkpt lat="43.6118" lon="6.98776">
        <ele>184</ele>
        <time>2010-01-01T00:27:10Z</time>
      </trkpt>
      <trkpt lat="43.61163" lon="6.98757">
        <ele>182</ele>
        <time>2010-01-01T00:27:19Z</time>
      </trkpt>
      <trkpt lat="43.61149" lon="6.9874">
        <ele>181</ele>
        <time>2010-01-01T00:27:26Z</time>
      </trkpt>
      <trkpt lat="43.61134" lon="6.98723">
        <ele>179</ele>
        <time>2010-01-01T00:27:34Z</time>
      </trkpt>
      <trkpt lat="43.61119" lon="6.98708">
        <ele>179</ele>
        <time>2010-01-01T00:27:41Z</time>
      </trkpt>
      <trkpt lat="43.61103" lon="6.98694">
        <ele>178</ele>
        <time>2010-01-01T00:27:49Z</time>
      </trkpt>
      <trkpt lat="43.61085" lon="6.98682">
        <ele>178</ele>
        <time>2010-01-01T00:27:57Z</time>
      </trkpt>
      <trkpt lat="43.61067" lon="6.98689">
        <ele>177</ele>
        <time>2010-01-01T00:28:04Z</time>
      </trkpt>
      <trkpt lat="43.61059" lon="6.98698">
        <ele>177</ele>
        <time>2010-01-01T00:28:09Z</time>
      </trkpt>
      <trkpt lat="43.61042" lon="6.98688">
        <ele>177</ele>
        <time>2010-01-01T00:28:16Z</time>
      </trkpt>
      <trkpt lat="43.61033" lon="6.98683">
        <ele>176</ele>
        <time>2010-01-01T00:28:20Z</time>
      </trkpt>
      <trkpt lat="43.61013" lon="6.98672">
        <ele>176</ele>
        <time>2010-01-01T00:28:28Z</time>
      </trkpt>
      <trkpt lat="43.60993" lon="6.98665">
        <ele>176</ele>
        <time>2010-01-01T00:28:37Z</time>
      </trkpt>
      <trkpt lat="43.60977" lon="6.98662">
        <ele>176</ele>
        <time>2010-01-01T00:28:43Z</time>
      </trkpt>
      <trkpt lat="43.60957" lon="6.98668">
        <ele>175</ele>
        <time>2010-01-01T00:28:51Z</time>
      </trkpt>
      <trkpt lat="43.60945" lon="6.98675">
        <ele>175</ele>
        <time>2010-01-01T00:28:57Z</time>
      </trkpt>
      <trkpt lat="43.60928" lon="6.98684">
        <ele>176</ele>
        <time>2010-01-01T00:29:04Z</time>
      </trkpt>
      <trkpt lat="43.6091" lon="6.98692">
        <ele>176</ele>
        <time>2010-01-01T00:29:12Z</time>
      </trkpt>
      <trkpt lat="43.60892" lon="6.98701">
        <ele>176</ele>
        <time>2010-01-01T00:29:19Z</time>
      </trkpt>
      <trkpt lat="43.60873" lon="6.9871">
        <ele>177</ele>
        <time>2010-01-01T00:29:27Z</time>
      </trkpt>
      <trkpt lat="43.60854" lon="6.9872">
        <ele>177</ele>
        <time>2010-01-01T00:29:35Z</time>
      </trkpt>
      <trkpt lat="43.60841" lon="6.98736">
        <ele>177</ele>
        <time>2010-01-01T00:29:42Z</time>
      </trkpt>
      <trkpt lat="43.6084" lon="6.98745">
        <ele>177</ele>
        <time>2010-01-01T00:29:45Z</time>
      </trkpt>
      <trkpt lat="43.60849" lon="6.98767">
        <ele>178</ele>
        <time>2010-01-01T00:29:52Z</time>
      </trkpt>
      <trkpt lat="43.60853" lon="6.98771">
        <ele>178</ele>
        <time>2010-01-01T00:29:54Z</time>
      </trkpt>
      <trkpt lat="43.60867" lon="6.9879">
        <ele>180</ele>
        <time>2010-01-01T00:30:02Z</time>
      </trkpt>
      <trkpt lat="43.60871" lon="6.98796">
        <ele>180</ele>
        <time>2010-01-01T00:30:04Z</time>
      </trkpt>
      <trkpt lat="43.60882" lon="6.98821">
        <ele>180</ele>
        <time>2010-01-01T00:30:13Z</time>
      </trkpt>
      <trkpt lat="43.60884" lon="6.98847">
        <ele>182</ele>
        <time>2010-01-01T00:30:21Z</time>
      </trkpt>
      <trkpt lat="43.60883" lon="6.98854">
        <ele>182</ele>
        <time>2010-01-01T00:30:23Z</time>
      </trkpt>
      <trkpt lat="43.6088" lon="6.98883">
        <ele>182</ele>
        <time>2010-01-01T00:30:31Z</time>
      </trkpt>
      <trkpt lat="43.60874" lon="6.98911">
        <ele>182</ele>
        <time>2010-01-01T00:30:40Z</time>
      </trkpt>
      <trkpt lat="43.60868" lon="6.98936">
        <ele>182</ele>
        <time>2010-01-01T00:30:47Z</time>
      </trkpt>
      <trkpt lat="43.6086" lon="6.98959">
        <ele>182</ele>
        <time>2010-01-01T00:30:55Z</time>
      </trkpt>
      <trkpt lat="43.60851" lon="6.98986">
        <ele>182</ele>
        <time>2010-01-01T00:31:03Z</time>
      </trkpt>
      <trkpt lat="43.60843" lon="6.99013">
        <ele>182</ele>
        <time>2010-01-01T00:31:11Z</time>
      </trkpt>
      <trkpt lat="43.60833" lon="6.99036">
        <ele>182</ele>
        <time>2010-01-01T00:31:19Z</time>
      </trkpt>
      <trkpt lat="43.60821" lon="6.99056">
        <ele>182</ele>
        <time>2010-01-01T00:31:27Z</time>
      </trkpt>
      <trkpt lat="43.60807" lon="6.99072">
        <ele>182</ele>
        <time>2010-01-01T00:31:34Z</time>
      </trkpt>
      <trkpt lat="43.60791" lon="6.99091">
        <ele>183</ele>
        <time>2010-01-01T00:31:43Z</time>
      </trkpt>
      <trkpt lat="43.60786" lon="6.99102">
        <ele>183</ele>
        <time>2010-01-01T00:31:47Z</time>
      </trkpt>
      <trkpt lat="43.6079" lon="6.99108">
        <ele>183</ele>
        <time>2010-01-01T00:31:49Z</time>
      </trkpt>
      <trkpt lat="43.60796" lon="6.99116">
        <ele>184</ele>
        <time>2010-01-01T00:31:52Z</time>
      </trkpt>
      <trkpt lat="43.60808" lon="6.9913">
        <ele>186</ele>
        <time>2010-01-01T00:31:59Z</time>
      </trkpt>
      <trkpt lat="43.60816" lon="6.99138">
        <ele>186</ele>
        <time>2010-01-01T00:32:03Z</time>
      </trkpt>
      <trkpt lat="43.60815" lon="6.99156">
        <ele>187</ele>
        <time>2010-01-01T00:32:08Z</time>
      </trkpt>
      <trkpt lat="43.60814" lon="6.99163">
        <ele>187</ele>
        <time>2010-01-01T00:32:10Z</time>
      </trkpt>
      <trkpt lat="43.60815" lon="6.99188">
        <ele>188</ele>
        <time>2010-01-01T00:32:17Z</time>
      </trkpt>
      <trkpt lat="43.6082" lon="6.99213">
        <ele>188</ele>
        <time>2010-01-01T00:32:25Z</time>
      </trkpt>
      <trkpt lat="43.60803" lon="6.99217">
        <ele>187</ele>
        <time>2010-01-01T00:32:32Z</time>
      </trkpt>
      <trkpt lat="43.60794" lon="6.99245">
        <ele>186</ele>
        <time>2010-01-01T00:32:41Z</time>
      </trkpt>
      <trkpt lat="43.60777" lon="6.99266">
        <ele>185</ele>
        <time>2010-01-01T00:32:50Z</time>
      </trkpt>
      <trkpt lat="43.60771" lon="6.99271">
        <ele>185</ele>
        <time>2010-01-01T00:32:52Z</time>
      </trkpt>
      <trkpt lat="43.60752" lon="6.99287">
        <ele>184</ele>
        <time>2010-01-01T00:33:01Z</time>
      </trkpt>
      <trkpt lat="43.60735" lon="6.99299">
        <ele>183</ele>
        <time>2010-01-01T00:33:09Z</time>
      </trkpt>
      <trkpt lat="43.60718" lon="6.9931">
        <ele>181</ele>
        <time>2010-01-01T00:33:17Z</time>
      </trkpt>
      <trkpt lat="43.607" lon="6.99319">
        <ele>180</ele>
        <time>2010-01-01T00:33:24Z</time>
      </trkpt>
      <trkpt lat="43.60683" lon="6.99332">
        <ele>179</ele>
        <time>2010-01-01T00:33:32Z</time>
      </trkpt>
      <trkpt lat="43.60667" lon="6.99345">
        <ele>178</ele>
        <time>2010-01-01T00:33:39Z</time>
      </trkpt>
      <trkpt lat="43.6065" lon="6.99359">
        <ele>177</ele>
        <time>2010-01-01T00:33:47Z</time>
      </trkpt>
      <trkpt lat="43.60634" lon="6.99375">
        <ele>177</ele>
        <time>2010-01-01T00:33:55Z</time>
      </trkpt>
      <trkpt lat="43.60619" lon="6.99392">
        <ele>176</ele>
        <time>2010-01-01T00:34:03Z</time>
      </trkpt>
      <trkpt lat="43.60603" lon="6.99412">
        <ele>175</ele>
        <time>2010-01-01T00:34:12Z</time>
      </trkpt>
      <trkpt lat="43.60591" lon="6.99431">
        <ele>174</ele>
        <time>2010-01-01T00:34:19Z</time>
      </trkpt>
      <trkpt lat="43.60585" lon="6.99445">
        <ele>172</ele>
        <time>2010-01-01T00:34:24Z</time>
      </trkpt>
      <trkpt lat="43.60586" lon="6.9947">
        <ele>170</ele>
        <time>2010-01-01T00:34:31Z</time>
      </trkpt>
      <trkpt lat="43.60588" lon="6.9948">
        <ele>170</ele>
        <time>2010-01-01T00:34:34Z</time>
      </trkpt>
      <trkpt lat="43.6059" lon="6.99506">
        <ele>168</ele>
        <time>2010-01-01T00:34:41Z</time>
      </trkpt>
      <trkpt lat="43.6059" lon="6.99531">
        <ele>168</ele>
        <time>2010-01-01T00:34:49Z</time>
      </trkpt>
      <trkpt lat="43.60593" lon="6.99557">
        <ele>168</ele>
        <time>2010-01-01T00:34:56Z</time>
      </trkpt>
      <trkpt lat="43.60598" lon="6.99585">
        <ele>169</ele>
        <time>2010-01-01T00:35:05Z</time>
      </trkpt>
      <trkpt lat="43.60604" lon="6.99611">
        <ele>171</ele>
        <time>2010-01-01T00:35:13Z</time>
      </trkpt>
      <trkpt lat="43.60608" lon="6.99637">
        <ele>172</ele>
        <time>2010-01-01T00:35:20Z</time>
      </trkpt>
      <trkpt lat="43.60614" lon="6.99661">
        <ele>174</ele>
        <time>2010-01-01T00:35:28Z</time>
      </trkpt>
      <trkpt lat="43.60619" lon="6.99686">
        <ele>176</ele>
        <time>2010-01-01T00:35:35Z</time>
      </trkpt>
      <trkpt lat="43.60622" lon="6.99717">
        <ele>178</ele>
        <time>2010-01-01T00:35:44Z</time>
      </trkpt>
      <trkpt lat="43.60622" lon="6.99732">
        <ele>179</ele>
        <time>2010-01-01T00:35:49Z</time>
      </trkpt>
      <trkpt lat="43.60622" lon="6.99761">
        <ele>180</ele>
        <time>2010-01-01T00:35:57Z</time>
      </trkpt>
      <trkpt lat="43.60622" lon="6.99787">
        <ele>180</ele>
        <time>2010-01-01T00:36:05Z</time>
      </trkpt>
      <trkpt lat="43.6062" lon="6.99817">
        <ele>182</ele>
        <time>2010-01-01T00:36:13Z</time>
      </trkpt>
      <trkpt lat="43.60616" lon="6.99842">
        <ele>183</ele>
        <time>2010-01-01T00:36:21Z</time>
      </trkpt>
      <trkpt lat="43.60608" lon="6.99864">
        <ele>185</ele>
        <time>2010-01-01T00:36:28Z</time>
      </trkpt>
      <trkpt lat="43.60592" lon="6.99878">
        <ele>188</ele>
        <time>2010-01-01T00:36:36Z</time>
      </trkpt>
      <trkpt lat="43.60575" lon="6.9989">
        <ele>192</ele>
        <time>2010-01-01T00:36:43Z</time>
      </trkpt>
      <trkpt lat="43.60557" lon="6.99903">
        <ele>194</ele>
        <time>2010-01-01T00:36:51Z</time>
      </trkpt>
      <trkpt lat="43.60544" lon="6.99922">
        <ele>194</ele>
        <time>2010-01-01T00:36:59Z</time>
      </trkpt>
      <trkpt lat="43.60534" lon="6.99944">
        <ele>193</ele>
        <time>2010-01-01T00:37:06Z</time>
      </trkpt>
      <trkpt lat="43.60523" lon="6.99965">
        <ele>192</ele>
        <time>2010-01-01T00:37:14Z</time>
      </trkpt>
      <trkpt lat="43.60512" lon="6.99989">
        <ele>192</ele>
        <time>2010-01-01T00:37:22Z</time>
      </trkpt>
      <trkpt lat="43.60499" lon="7.00009">
        <ele>192</ele>
        <time>2010-01-01T00:37:30Z</time>
      </trkpt>
      <trkpt lat="43.60481" lon="7.00028">
        <ele>192</ele>
        <time>2010-01-01T00:37:39Z</time>
      </trkpt>
      <trkpt lat="43.60477" lon="7.00035">
        <ele>191</ele>
        <time>2010-01-01T00:37:42Z</time>
      </trkpt>
      <trkpt lat="43.60465" lon="7.00064">
        <ele>190</ele>
        <time>2010-01-01T00:37:51Z</time>
      </trkpt>
      <trkpt lat="43.60459" lon="7.00088">
        <ele>188</ele>
        <time>2010-01-01T00:37:59Z</time>
      </trkpt>
      <trkpt lat="43.60455" lon="7.00112">
        <ele>187</ele>
        <time>2010-01-01T00:38:06Z</time>
      </trkpt>
      <trkpt lat="43.60461" lon="7.00147">
        <ele>186</ele>
        <time>2010-01-01T00:38:16Z</time>
      </trkpt>
      <trkpt lat="43.6047" lon="7.00168">
        <ele>185</ele>
        <time>2010-01-01T00:38:23Z</time>
      </trkpt>
      <trkpt lat="43.6049" lon="7.00187">
        <ele>184</ele>
        <time>2010-01-01T00:38:33Z</time>
      </trkpt>
      <trkpt lat="43.60508" lon="7.00203">
        <ele>183</ele>
        <time>2010-01-01T00:38:41Z</time>
      </trkpt>
      <trkpt lat="43.6051" lon="7.00228">
        <ele>181</ele>
        <time>2010-01-01T00:38:49Z</time>
      </trkpt>
      <trkpt lat="43.60503" lon="7.00248">
        <ele>180</ele>
        <time>2010-01-01T00:38:55Z</time>
      </trkpt>
      <trkpt lat="43.60489" lon="7.00268">
        <ele>178</ele>
        <time>2010-01-01T00:39:03Z</time>
      </trkpt>
      <trkpt lat="43.60477" lon="7.00289">
        <ele>177</ele>
        <time>2010-01-01T00:39:11Z</time>
      </trkpt>
      <trkpt lat="43.60465" lon="7.00309">
        <ele>175</ele>
        <time>2010-01-01T00:39:18Z</time>
      </trkpt>
      <trkpt lat="43.60457" lon="7.00334">
        <ele>174</ele>
        <time>2010-01-01T00:39:26Z</time>
      </trkpt>
      <trkpt lat="43.60457" lon="7.00343">
        <ele>171</ele>
        <time>2010-01-01T00:39:29Z</time>
      </trkpt>
      <trkpt lat="43.60452" lon="7.00339">
        <ele>170</ele>
        <time>2010-01-01T00:39:31Z</time>
      </trkpt>
      <trkpt lat="43.60431" lon="7.00347">
        <ele>169</ele>
        <time>2010-01-01T00:39:40Z</time>
      </trkpt>
      <trkpt lat="43.60423" lon="7.00369">
        <ele>168</ele>
        <time>2010-01-01T00:39:47Z</time>
      </trkpt>
      <trkpt lat="43.60421" lon="7.00401">
        <ele>169</ele>
        <time>2010-01-01T00:39:56Z</time>
      </trkpt>
      <trkpt lat="43.60406" lon="7.00415">
        <ele>169</ele>
        <time>2010-01-01T00:40:04Z</time>
      </trkpt>
      <trkpt lat="43.60396" lon="7.00417">
        <ele>168</ele>
        <time>2010-01-01T00:40:07Z</time>
      </trkpt>
      <trkpt lat="43.60376" lon="7.00422">
        <ele>167</ele>
        <time>2010-01-01T00:40:16Z</time>
      </trkpt>
      <trkpt lat="43.60358" lon="7.00434">
        <ele>167</ele>
        <time>2010-01-01T00:40:24Z</time>
      </trkpt>
      <trkpt lat="43.60336" lon="7.00444">
        <ele>167</ele>
        <time>2010-01-01T00:40:33Z</time>
      </trkpt>
      <trkpt lat="43.60316" lon="7.00453">
        <ele>168</ele>
        <time>2010-01-01T00:40:42Z</time>
      </trkpt>
      <trkpt lat="43.60302" lon="7.00458">
        <ele>168</ele>
        <time>2010-01-01T00:40:47Z</time>
      </trkpt>
      <trkpt lat="43.60293" lon="7.00482">
        <ele>168</ele>
        <time>2010-01-01T00:40:55Z</time>
      </trkpt>
      <trkpt lat="43.60288" lon="7.00507">
        <ele>169</ele>
        <time>2010-01-01T00:41:02Z</time>
      </trkpt>
      <trkpt lat="43.6028" lon="7.00531">
        <ele>168</ele>
        <time>2010-01-01T00:41:10Z</time>
      </trkpt>
      <trkpt lat="43.60273" lon="7.00536">
        <ele>168</ele>
        <time>2010-01-01T00:41:13Z</time>
      </trkpt>
      <trkpt lat="43.60252" lon="7.00524">
        <ele>168</ele>
        <time>2010-01-01T00:41:22Z</time>
      </trkpt>
      <trkpt lat="43.60239" lon="7.0052">
        <ele>168</ele>
        <time>2010-01-01T00:41:28Z</time>
      </trkpt>
      <trkpt lat="43.60234" lon="7.00527">
        <ele>168</ele>
        <time>2010-01-01T00:41:31Z</time>
      </trkpt>
      <trkpt lat="43.60222" lon="7.0054">
        <ele>167</ele>
        <time>2010-01-01T00:41:37Z</time>
      </trkpt>
      <trkpt lat="43.60204" lon="7.00544">
        <ele>167</ele>
        <time>2010-01-01T00:41:44Z</time>
      </trkpt>
      <trkpt lat="43.60187" lon="7.00559">
        <ele>166</ele>
        <time>2010-01-01T00:41:52Z</time>
      </trkpt>
      <trkpt lat="43.60181" lon="7.00565">
        <ele>167</ele>
        <time>2010-01-01T00:41:55Z</time>
      </trkpt>
      <trkpt lat="43.60171" lon="7.00588">
        <ele>167</ele>
        <time>2010-01-01T00:42:03Z</time>
      </trkpt>
      <trkpt lat="43.60161" lon="7.0061">
        <ele>167</ele>
        <time>2010-01-01T00:42:11Z</time>
      </trkpt>
      <trkpt lat="43.60144" lon="7.00625">
        <ele>166</ele>
        <time>2010-01-01T00:42:19Z</time>
      </trkpt>
      <trkpt lat="43.60124" lon="7.0064">
        <ele>166</ele>
        <time>2010-01-01T00:42:28Z</time>
      </trkpt>
      <trkpt lat="43.60105" lon="7.00651">
        <ele>166</ele>
        <time>2010-01-01T00:42:36Z</time>
      </trkpt>
      <trkpt lat="43.60084" lon="7.00657">
        <ele>166</ele>
        <time>2010-01-01T00:42:45Z</time>
      </trkpt>
      <trkpt lat="43.60065" lon="7.0066">
        <ele>167</ele>
        <time>2010-01-01T00:42:52Z</time>
      </trkpt>
      <trkpt lat="43.60053" lon="7.00658">
        <ele>166</ele>
        <time>2010-01-01T00:42:57Z</time>
      </trkpt>
      <trkpt lat="43.60042" lon="7.00636">
        <ele>165</ele>
        <time>2010-01-01T00:43:05Z</time>
      </trkpt>
      <trkpt lat="43.6003" lon="7.00617">
        <ele>164</ele>
        <time>2010-01-01T00:43:12Z</time>
      </trkpt>
      <trkpt lat="43.60022" lon="7.00609">
        <ele>163</ele>
        <time>2010-01-01T00:43:16Z</time>
      </trkpt>
      <trkpt lat="43.60021" lon="7.00611">
        <ele>163</ele>
        <time>2010-01-01T00:43:17Z</time>
      </trkpt>
      <trkpt lat="43.60029" lon="7.0062">
        <ele>163</ele>
        <time>2010-01-01T00:43:21Z</time>
      </trkpt>
      <trkpt lat="43.60039" lon="7.00643">
        <ele>164</ele>
        <time>2010-01-01T00:43:29Z</time>
      </trkpt>
      <trkpt lat="43.60041" lon="7.00663">
        <ele>165</ele>
        <time>2010-01-01T00:43:35Z</time>
      </trkpt>
      <trkpt lat="43.60033" lon="7.00686">
        <ele>168</ele>
        <time>2010-01-01T00:43:42Z</time>
      </trkpt>
      <trkpt lat="43.60024" lon="7.00708">
        <ele>170</ele>
        <time>2010-01-01T00:43:49Z</time>
      </trkpt>
      <trkpt lat="43.60012" lon="7.00728">
        <ele>173</ele>
        <time>2010-01-01T00:43:57Z</time>
      </trkpt>
      <trkpt lat="43.59999" lon="7.00749">
        <ele>178</ele>
        <time>2010-01-01T00:44:05Z</time>
      </trkpt>
      <trkpt lat="43.59983" lon="7.00764">
        <ele>181</ele>
        <time>2010-01-01T00:44:12Z</time>
      </trkpt>
      <trkpt lat="43.59968" lon="7.00779">
        <ele>183</ele>
        <time>2010-01-01T00:44:20Z</time>
      </trkpt>
      <trkpt lat="43.59952" lon="7.00794">
        <ele>186</ele>
        <time>2010-01-01T00:44:28Z</time>
      </trkpt>
      <trkpt lat="43.59937" lon="7.00812">
        <ele>187</ele>
        <time>2010-01-01T00:44:36Z</time>
      </trkpt>
      <trkpt lat="43.59924" lon="7.00832">
        <ele>189</ele>
        <time>2010-01-01T00:44:43Z</time>
      </trkpt>
      <trkpt lat="43.59913" lon="7.00852">
        <ele>190</ele>
        <time>2010-01-01T00:44:51Z</time>
      </trkpt>
      <trkpt lat="43.59903" lon="7.00875">
        <ele>192</ele>
        <time>2010-01-01T00:44:59Z</time>
      </trkpt>
      <trkpt lat="43.59895" lon="7.009">
        <ele>193</ele>
        <time>2010-01-01T00:45:07Z</time>
      </trkpt>
      <trkpt lat="43.59888" lon="7.00927">
        <ele>193</ele>
        <time>2010-01-01T00:45:15Z</time>
      </trkpt>
      <trkpt lat="43.59885" lon="7.00955">
        <ele>193</ele>
        <time>2010-01-01T00:45:23Z</time>
      </trkpt>
      <trkpt lat="43.59885" lon="7.0098">
        <ele>194</ele>
        <time>2010-01-01T00:45:30Z</time>
      </trkpt>
      <trkpt lat="43.59886" lon="7.01008">
        <ele>194</ele>
        <time>2010-01-01T00:45:38Z</time>
      </trkpt>
      <trkpt lat="43.59888" lon="7.01038">
        <ele>194</ele>
        <time>2010-01-01T00:45:47Z</time>
      </trkpt>
      <trkpt lat="43.59889" lon="7.01071">
        <ele>194</ele>
        <time>2010-01-01T00:45:57Z</time>
      </trkpt>
      <trkpt lat="43.5989" lon="7.01103">
        <ele>194</ele>
        <time>2010-01-01T00:46:06Z</time>
      </trkpt>
      <trkpt lat="43.59892" lon="7.01134">
        <ele>194</ele>
        <time>2010-01-01T00:46:15Z</time>
      </trkpt>
      <trkpt lat="43.59898" lon="7.01161">
        <ele>195</ele>
        <time>2010-01-01T00:46:23Z</time>
      </trkpt>
      <trkpt lat="43.599" lon="7.01176">
        <ele>195</ele>
        <time>2010-01-01T00:46:28Z</time>
      </trkpt>
      <trkpt lat="43.59899" lon="7.01201">
        <ele>195</ele>
        <time>2010-01-01T00:46:35Z</time>
      </trkpt>
      <trkpt lat="43.599" lon="7.01233">
        <ele>195</ele>
        <time>2010-01-01T00:46:44Z</time>
      </trkpt>
      <trkpt lat="43.59899" lon="7.01263">
        <ele>194</ele>
        <time>2010-01-01T00:46:53Z</time>
      </trkpt>
      <trkpt lat="43.59898" lon="7.01293">
        <ele>195</ele>
        <time>2010-01-01T00:47:02Z</time>
      </trkpt>
      <trkpt lat="43.59899" lon="7.01306">
        <ele>195</ele>
        <time>2010-01-01T00:47:06Z</time>
      </trkpt>
      <trkpt lat="43.59898" lon="7.01336">
        <ele>196</ele>
        <time>2010-01-01T00:47:14Z</time>
      </trkpt>
      <trkpt lat="43.59899" lon="7.01367">
        <ele>197</ele>
        <time>2010-01-01T00:47:23Z</time>
      </trkpt>
      <trkpt lat="43.59898" lon="7.01393">
        <ele>198</ele>
        <time>2010-01-01T00:47:31Z</time>
      </trkpt>
      <trkpt lat="43.59897" lon="7.01419">
        <ele>198</ele>
        <time>2010-01-01T00:47:38Z</time>
      </trkpt>
      <trkpt lat="43.59896" lon="7.01444">
        <ele>198</ele>
        <time>2010-01-01T00:47:45Z</time>
      </trkpt>
      <trkpt lat="43.59896" lon="7.01469">
        <ele>199</ele>
        <time>2010-01-01T00:47:53Z</time>
      </trkpt>
      <trkpt lat="43.59897" lon="7.01498">
        <ele>199</ele>
        <time>2010-01-01T00:48:01Z</time>
      </trkpt>
      <trkpt lat="43.59899" lon="7.01525">
        <ele>199</ele>
        <time>2010-01-01T00:48:09Z</time>
      </trkpt>
      <trkpt lat="43.59904" lon="7.01542">
        <ele>199</ele>
        <time>2010-01-01T00:48:14Z</time>
      </trkpt>
      <trkpt lat="43.59899" lon="7.01544">
        <ele>198</ele>
        <time>2010-01-01T00:48:16Z</time>
      </trkpt>
      <trkpt lat="43.59886" lon="7.01562">
        <ele>195</ele>
        <time>2010-01-01T00:48:24Z</time>
      </trkpt>
      <trkpt lat="43.59872" lon="7.01578">
        <ele>194</ele>
        <time>2010-01-01T00:48:31Z</time>
      </trkpt>
      <trkpt lat="43.59857" lon="7.01593">
        <ele>192</ele>
        <time>2010-01-01T00:48:38Z</time>
      </trkpt>
      <trkpt lat="43.59842" lon="7.01609">
        <ele>190</ele>
        <time>2010-01-01T00:48:46Z</time>
      </trkpt>
      <trkpt lat="43.59828" lon="7.01626">
        <ele>190</ele>
        <time>2010-01-01T00:48:53Z</time>
      </trkpt>
      <trkpt lat="43.59822" lon="7.01632">
        <ele>190</ele>
        <time>2010-01-01T00:48:56Z</time>
      </trkpt>
      <trkpt lat="43.59812" lon="7.01652">
        <ele>192</ele>
        <time>2010-01-01T00:49:03Z</time>
      </trkpt>
      <trkpt lat="43.59798" lon="7.01668">
        <ele>194</ele>
        <time>2010-01-01T00:49:11Z</time>
      </trkpt>
      <trkpt lat="43.59782" lon="7.01678">
        <ele>195</ele>
        <time>2010-01-01T00:49:17Z</time>
      </trkpt>
      <trkpt lat="43.59777" lon="7.01683">
        <ele>196</ele>
        <time>2010-01-01T00:49:20Z</time>
      </trkpt>
      <trkpt lat="43.59771" lon="7.01701">
        <ele>198</ele>
        <time>2010-01-01T00:49:26Z</time>
      </trkpt>
      <trkpt lat="43.59763" lon="7.01728">
        <ele>198</ele>
        <time>2010-01-01T00:49:34Z</time>
      </trkpt>
      <trkpt lat="43.59765" lon="7.01743">
        <ele>199</ele>
        <time>2010-01-01T00:49:39Z</time>
      </trkpt>
      <trkpt lat="43.59768" lon="7.01772">
        <ele>199</ele>
        <time>2010-01-01T00:49:47Z</time>
      </trkpt>
      <trkpt lat="43.59763" lon="7.01796">
        <ele>199</ele>
        <time>2010-01-01T00:49:54Z</time>
      </trkpt>
      <trkpt lat="43.59756" lon="7.01815">
        <ele>200</ele>
        <time>2010-01-01T00:50:00Z</time>
      </trkpt>
      <trkpt lat="43.59743" lon="7.01834">
        <ele>200</ele>
        <time>2010-01-01T00:50:08Z</time>
      </trkpt>
      <trkpt lat="43.59727" lon="7.0185">
        <ele>201</ele>
        <time>2010-01-01T00:50:16Z</time>
      </trkpt>
      <trkpt lat="43.59714" lon="7.01869">
        <ele>202</ele>
        <time>2010-01-01T00:50:24Z</time>
      </trkpt>
      <trkpt lat="43.59706" lon="7.01891">
        <ele>203</ele>
        <time>2010-01-01T00:50:31Z</time>
      </trkpt>
      <trkpt lat="43.59697" lon="7.01916">
        <ele>205</ele>
        <time>2010-01-01T00:50:39Z</time>
      </trkpt>
      <trkpt lat="43.59685" lon="7.01938">
        <ele>206</ele>
        <time>2010-01-01T00:50:47Z</time>
      </trkpt>
      <trkpt lat="43.59672" lon="7.01957">
        <ele>206</ele>
        <time>2010-01-01T00:50:55Z</time>
      </trkpt>
      <trkpt lat="43.59658" lon="7.01974">
        <ele>207</ele>
        <time>2010-01-01T00:51:02Z</time>
      </trkpt>
      <trkpt lat="43.59643" lon="7.01989">
        <ele>206</ele>
        <time>2010-01-01T00:51:10Z</time>
      </trkpt>
      <trkpt lat="43.59627" lon="7.02005">
        <ele>207</ele>
        <time>2010-01-01T00:51:17Z</time>
      </trkpt>
      <trkpt lat="43.5961" lon="7.0202">
        <ele>206</ele>
        <time>2010-01-01T00:51:25Z</time>
      </trkpt>
      <trkpt lat="43.59591" lon="7.02032">
        <ele>206</ele>
        <time>2010-01-01T00:51:34Z</time>
      </trkpt>
      <trkpt lat="43.59573" lon="7.02038">
        <ele>206</ele>
        <time>2010-01-01T00:51:41Z</time>
      </trkpt>
      <trkpt lat="43.59556" lon="7.02049">
        <ele>206</ele>
        <time>2010-01-01T00:51:49Z</time>
      </trkpt>
      <trkpt lat="43.59538" lon="7.02061">
        <ele>206</ele>
        <time>2010-01-01T00:51:57Z</time>
      </trkpt>
      <trkpt lat="43.5953" lon="7.02067">
        <ele>205</ele>
        <time>2010-01-01T00:52:00Z</time>
      </trkpt>
      <trkpt lat="43.59512" lon="7.02075">
        <ele>205</ele>
        <time>2010-01-01T00:52:08Z</time>
      </trkpt>
      <trkpt lat="43.59492" lon="7.02084">
        <ele>204</ele>
        <time>2010-01-01T00:52:16Z</time>
      </trkpt>
      <trkpt lat="43.59483" lon="7.02107">
        <ele>205</ele>
        <time>2010-01-01T00:52:24Z</time>
      </trkpt>
      <trkpt lat="43.59486" lon="7.02132">
        <ele>206</ele>
        <time>2010-01-01T00:52:31Z</time>
      </trkpt>
      <trkpt lat="43.59496" lon="7.02154">
        <ele>208</ele>
        <time>2010-01-01T00:52:39Z</time>
      </trkpt>
      <trkpt lat="43.59508" lon="7.02169">
        <ele>210</ele>
        <time>2010-01-01T00:52:45Z</time>
      </trkpt>
      <trkpt lat="43.59526" lon="7.02173">
        <ele>212</ele>
        <time>2010-01-01T00:52:52Z</time>
      </trkpt>
      <trkpt lat="43.59544" lon="7.02181">
        <ele>216</ele>
        <time>2010-01-01T00:53:00Z</time>
      </trkpt>
      <trkpt lat="43.59563" lon="7.02184">
        <ele>218</ele>
        <time>2010-01-01T00:53:08Z</time>
      </trkpt>
      <trkpt lat="43.59583" lon="7.02187">
        <ele>225</ele>
        <time>2010-01-01T00:53:16Z</time>
      </trkpt>
      <trkpt lat="43.59602" lon="7.02189">
        <ele>221</ele>
        <time>2010-01-01T00:53:23Z</time>
      </trkpt>
      <trkpt lat="43.59619" lon="7.02203">
        <ele>221</ele>
        <time>2010-01-01T00:53:31Z</time>
      </trkpt>
      <trkpt lat="43.59638" lon="7.0221">
        <ele>222</ele>
        <time>2010-01-01T00:53:39Z</time>
      </trkpt>
      <trkpt lat="43.59659" lon="7.02218">
        <ele>222</ele>
        <time>2010-01-01T00:53:48Z</time>
      </trkpt>
      <trkpt lat="43.59667" lon="7.0222">
        <ele>222</ele>
        <time>2010-01-01T00:53:51Z</time>
      </trkpt>
      <trkpt lat="43.59675" lon="7.02225">
        <ele>222</ele>
        <time>2010-01-01T00:53:55Z</time>
      </trkpt>
      <trkpt lat="43.59694" lon="7.02231">
        <ele>224</ele>
        <time>2010-01-01T00:54:02Z</time>
      </trkpt>
      <trkpt lat="43.59712" lon="7.02235">
        <ele>224</ele>
        <time>2010-01-01T00:54:10Z</time>
      </trkpt>
      <trkpt lat="43.59732" lon="7.02232">
        <ele>226</ele>
        <time>2010-01-01T00:54:18Z</time>
      </trkpt>
      <trkpt lat="43.59747" lon="7.02219">
        <ele>229</ele>
        <time>2010-01-01T00:54:25Z</time>
      </trkpt>
      <trkpt lat="43.59766" lon="7.02209">
        <ele>231</ele>
        <time>2010-01-01T00:54:33Z</time>
      </trkpt>
      <trkpt lat="43.59786" lon="7.02212">
        <ele>231</ele>
        <time>2010-01-01T00:54:41Z</time>
      </trkpt>
      <trkpt lat="43.59804" lon="7.02217">
        <ele>229</ele>
        <time>2010-01-01T00:54:48Z</time>
      </trkpt>
      <trkpt lat="43.59824" lon="7.02221">
        <ele>231</ele>
        <time>2010-01-01T00:54:56Z</time>
      </trkpt>
      <trkpt lat="43.59841" lon="7.02232">
        <ele>232</ele>
        <time>2010-01-01T00:55:04Z</time>
      </trkpt>
      <trkpt lat="43.5986" lon="7.02242">
        <ele>232</ele>
        <time>2010-01-01T00:55:12Z</time>
      </trkpt>
      <trkpt lat="43.5988" lon="7.02246">
        <ele>232</ele>
        <time>2010-01-01T00:55:20Z</time>
      </trkpt>
      <trkpt lat="43.59898" lon="7.02236">
        <ele>234</ele>
        <time>2010-01-01T00:55:28Z</time>
      </trkpt>
      <trkpt lat="43.59916" lon="7.0223">
        <ele>237</ele>
        <time>2010-01-01T00:55:35Z</time>
      </trkpt>
      <trkpt lat="43.59931" lon="7.02216">
        <ele>237</ele>
        <time>2010-01-01T00:55:43Z</time>
      </trkpt>
      <trkpt lat="43.59944" lon="7.02197">
        <ele>238</ele>
        <time>2010-01-01T00:55:50Z</time>
      </trkpt>
      <trkpt lat="43.59957" lon="7.02179">
        <ele>241</ele>
        <time>2010-01-01T00:55:58Z</time>
      </trkpt>
      <trkpt lat="43.59964" lon="7.02169">
        <ele>242</ele>
        <time>2010-01-01T00:56:01Z</time>
      </trkpt>
      <trkpt lat="43.5997" lon="7.02162">
        <ele>242</ele>
        <time>2010-01-01T00:56:05Z</time>
      </trkpt>
      <trkpt lat="43.59988" lon="7.02157">
        <ele>240</ele>
        <time>2010-01-01T00:56:12Z</time>
      </trkpt>
      <trkpt lat="43.60001" lon="7.02165">
        <ele>240</ele>
        <time>2010-01-01T00:56:18Z</time>
      </trkpt>
      <trkpt lat="43.60012" lon="7.02185">
        <ele>240</ele>
        <time>2010-01-01T00:56:25Z</time>
      </trkpt>
      <trkpt lat="43.60024" lon="7.0221">
        <ele>241</ele>
        <time>2010-01-01T00:56:34Z</time>
      </trkpt>
      <trkpt lat="43.60033" lon="7.02237">
        <ele>241</ele>
        <time>2010-01-01T00:56:42Z</time>
      </trkpt>
      <trkpt lat="43.60044" lon="7.02262">
        <ele>241</ele>
        <time>2010-01-01T00:56:51Z</time>
      </trkpt>
      <trkpt lat="43.60047" lon="7.02269">
        <ele>242</ele>
        <time>2010-01-01T00:56:53Z</time>
      </trkpt>
      <trkpt lat="43.60058" lon="7.02288">
        <ele>242</ele>
        <time>2010-01-01T00:57:00Z</time>
      </trkpt>
      <trkpt lat="43.6007" lon="7.02309">
        <ele>242</ele>
        <time>2010-01-01T00:57:08Z</time>
      </trkpt>
      <trkpt lat="43.60081" lon="7.02336">
        <ele>243</ele>
        <time>2010-01-01T00:57:17Z</time>
      </trkpt>
      <trkpt lat="43.60087" lon="7.02345">
        <ele>243</ele>
        <time>2010-01-01T00:57:20Z</time>
      </trkpt>
      <trkpt lat="43.60093" lon="7.02356">
        <ele>243</ele>
        <time>2010-01-01T00:57:25Z</time>
      </trkpt>
      <trkpt lat="43.60103" lon="7.02385">
        <ele>243</ele>
        <time>2010-01-01T00:57:34Z</time>
      </trkpt>
      <trkpt lat="43.60105" lon="7.02393">
        <ele>243</ele>
        <time>2010-01-01T00:57:36Z</time>
      </trkpt>
      <trkpt lat="43.60101" lon="7.02422">
        <ele>242</ele>
        <time>2010-01-01T00:57:45Z</time>
      </trkpt>
      <trkpt lat="43.60081" lon="7.02437">
        <ele>242</ele>
        <time>2010-01-01T00:57:54Z</time>
      </trkpt>
      <trkpt lat="43.6007" lon="7.02439">
        <ele>241</ele>
        <time>2010-01-01T00:57:58Z</time>
      </trkpt>
      <trkpt lat="43.60064" lon="7.02439">
        <ele>241</ele>
        <time>2010-01-01T00:58:01Z</time>
      </trkpt>
      <trkpt lat="43.60046" lon="7.02432">
        <ele>240</ele>
        <time>2010-01-01T00:58:08Z</time>
      </trkpt>
      <trkpt lat="43.60028" lon="7.0242">
        <ele>239</ele>
        <time>2010-01-01T00:58:16Z</time>
      </trkpt>
      <trkpt lat="43.60013" lon="7.024">
        <ele>238</ele>
        <time>2010-01-01T00:58:25Z</time>
      </trkpt>
      <trkpt lat="43.59993" lon="7.02397">
        <ele>237</ele>
        <time>2010-01-01T00:58:33Z</time>
      </trkpt>
      <trkpt lat="43.59972" lon="7.02395">
        <ele>236</ele>
        <time>2010-01-01T00:58:41Z</time>
      </trkpt>
      <trkpt lat="43.59952" lon="7.02396">
        <ele>234</ele>
        <time>2010-01-01T00:58:49Z</time>
      </trkpt>
      <trkpt lat="43.59941" lon="7.02398">
        <ele>234</ele>
        <time>2010-01-01T00:58:54Z</time>
      </trkpt>
      <trkpt lat="43.59927" lon="7.02399">
        <ele>232</ele>
        <time>2010-01-01T00:58:59Z</time>
      </trkpt>
      <trkpt lat="43.59907" lon="7.02395">
        <ele>231</ele>
        <time>2010-01-01T00:59:07Z</time>
      </trkpt>
      <trkpt lat="43.59901" lon="7.02395">
        <ele>231</ele>
        <time>2010-01-01T00:59:10Z</time>
      </trkpt>
      <trkpt lat="43.59883" lon="7.02405">
        <ele>229</ele>
        <time>2010-01-01T00:59:17Z</time>
      </trkpt>
      <trkpt lat="43.5987" lon="7.02422">
        <ele>228</ele>
        <time>2010-01-01T00:59:25Z</time>
      </trkpt>
      <trkpt lat="43.59871" lon="7.02437">
        <ele>227</ele>
        <time>2010-01-01T00:59:29Z</time>
      </trkpt>
      <trkpt lat="43.59878" lon="7.02463">
        <ele>223</ele>
        <time>2010-01-01T00:59:37Z</time>
      </trkpt>
      <trkpt lat="43.59887" lon="7.02486">
        <ele>221</ele>
        <time>2010-01-01T00:59:45Z</time>
      </trkpt>
      <trkpt lat="43.59897" lon="7.02509">
        <ele>219</ele>
        <time>2010-01-01T00:59:53Z</time>
      </trkpt>
      <trkpt lat="43.59906" lon="7.02532">
        <ele>218</ele>
        <time>2010-01-01T01:00:00Z</time>
      </trkpt>
      <trkpt lat="43.59911" lon="7.0256">
        <ele>218</ele>
        <time>2010-01-01T01:00:08Z</time>
      </trkpt>
      <trkpt lat="43.59911" lon="7.02587">
        <ele>218</ele>
        <time>2010-01-01T01:00:16Z</time>
      </trkpt>
      <trkpt lat="43.59906" lon="7.02613">
        <ele>218</ele>
        <time>2010-01-01T01:00:24Z</time>
      </trkpt>
      <trkpt lat="43.59894" lon="7.02643">
        <ele>217</ele>
        <time>2010-01-01T01:00:34Z</time>
      </trkpt>
      <trkpt lat="43.59876" lon="7.02665">
        <ele>217</ele>
        <time>2010-01-01T01:00:43Z</time>
      </trkpt>
      <trkpt lat="43.59857" lon="7.02677">
        <ele>216</ele>
        <time>2010-01-01T01:00:52Z</time>
      </trkpt>
      <trkpt lat="43.59836" lon="7.02678">
        <ele>216</ele>
        <time>2010-01-01T01:01:00Z</time>
      </trkpt>
      <trkpt lat="43.59814" lon="7.02674">
        <ele>215</ele>
        <time>2010-01-01T01:01:09Z</time>
      </trkpt>
      <trkpt lat="43.59799" lon="7.02669">
        <ele>214</ele>
        <time>2010-01-01T01:01:15Z</time>
      </trkpt>
      <trkpt lat="43.5978" lon="7.02659">
        <ele>213</ele>
        <time>2010-01-01T01:01:23Z</time>
      </trkpt>
      <trkpt lat="43.59765" lon="7.0265">
        <ele>211</ele>
        <time>2010-01-01T01:01:30Z</time>
      </trkpt>
      <trkpt lat="43.59751" lon="7.02633">
        <ele>210</ele>
        <time>2010-01-01T01:01:37Z</time>
      </trkpt>
      <trkpt lat="43.59734" lon="7.02634">
        <ele>210</ele>
        <time>2010-01-01T01:01:44Z</time>
      </trkpt>
      <trkpt lat="43.59715" lon="7.02644">
        <ele>209</ele>
        <time>2010-01-01T01:01:52Z</time>
      </trkpt>
      <trkpt lat="43.59696" lon="7.02655">
        <ele>209</ele>
        <time>2010-01-01T01:02:01Z</time>
      </trkpt>
      <trkpt lat="43.5969" lon="7.02665">
        <ele>208</ele>
        <time>2010-01-01T01:02:04Z</time>
      </trkpt>
      <trkpt lat="43.59688" lon="7.02691">
        <ele>208</ele>
        <time>2010-01-01T01:02:12Z</time>
      </trkpt>
      <trkpt lat="43.59694" lon="7.02717">
        <ele>208</ele>
        <time>2010-01-01T01:02:20Z</time>
      </trkpt>
      <trkpt lat="43.59703" lon="7.02742">
        <ele>209</ele>
        <time>2010-01-01T01:02:28Z</time>
      </trkpt>
      <trkpt lat="43.59709" lon="7.02769">
        <ele>210</ele>
        <time>2010-01-01T01:02:36Z</time>
      </trkpt>
      <trkpt lat="43.59717" lon="7.02796">
        <ele>211</ele>
        <time>2010-01-01T01:02:44Z</time>
      </trkpt>
      <trkpt lat="43.59725" lon="7.02824">
        <ele>212</ele>
        <time>2010-01-01T01:02:53Z</time>
      </trkpt>
      <trkpt lat="43.59724" lon="7.02845">
        <ele>212</ele>
        <time>2010-01-01T01:02:59Z</time>
      </trkpt>
      <trkpt lat="43.59722" lon="7.02876">
        <ele>211</ele>
        <time>2010-01-01T01:03:08Z</time>
      </trkpt>
      <trkpt lat="43.5972" lon="7.02884">
        <ele>212</ele>
        <time>2010-01-01T01:03:10Z</time>
      </trkpt>
      <trkpt lat="43.59709" lon="7.02911">
        <ele>210</ele>
        <time>2010-01-01T01:03:20Z</time>
      </trkpt>
      <trkpt lat="43.59702" lon="7.02924">
        <ele>209</ele>
        <time>2010-01-01T01:03:25Z</time>
      </trkpt>
      <trkpt lat="43.59699" lon="7.02931">
        <ele>209</ele>
        <time>2010-01-01T01:03:27Z</time>
      </trkpt>
      <trkpt lat="43.59695" lon="7.02945">
        <ele>208</ele>
        <time>2010-01-01T01:03:31Z</time>
      </trkpt>
      <trkpt lat="43.59695" lon="7.0297">
        <ele>207</ele>
        <time>2010-01-01T01:03:38Z</time>
      </trkpt>
      <trkpt lat="43.59704" lon="7.02995">
        <ele>207</ele>
        <time>2010-01-01T01:03:46Z</time>
      </trkpt>
      <trkpt lat="43.5971" lon="7.0302">
        <ele>207</ele>
        <time>2010-01-01T01:03:54Z</time>
      </trkpt>
      <trkpt lat="43.59711" lon="7.03045">
        <ele>206</ele>
        <time>2010-01-01T01:04:01Z</time>
      </trkpt>
      <trkpt lat="43.59716" lon="7.03071">
        <ele>206</ele>
        <time>2010-01-01T01:04:09Z</time>
      </trkpt>
      <trkpt lat="43.59714" lon="7.03097">
        <ele>205</ele>
        <time>2010-01-01T01:04:17Z</time>
      </trkpt>
      <trkpt lat="43.59712" lon="7.03122">
        <ele>205</ele>
        <time>2010-01-01T01:04:24Z</time>
      </trkpt>
      <trkpt lat="43.59712" lon="7.03126">
        <ele>205</ele>
        <time>2010-01-01T01:04:25Z</time>
      </trkpt>
      <trkpt lat="43.59722" lon="7.0315">
        <ele>205</ele>
        <time>2010-01-01T01:04:33Z</time>
      </trkpt>
      <trkpt lat="43.59727" lon="7.03163">
        <ele>205</ele>
        <time>2010-01-01T01:04:37Z</time>
      </trkpt>
      <trkpt lat="43.59732" lon="7.03183">
        <ele>205</ele>
        <time>2010-01-01T01:04:44Z</time>
      </trkpt>
      <trkpt lat="43.59739" lon="7.03208">
        <ele>205</ele>
        <time>2010-01-01T01:04:52Z</time>
      </trkpt>
      <trkpt lat="43.59748" lon="7.03231">
        <ele>206</ele>
        <time>2010-01-01T01:04:59Z</time>
      </trkpt>
      <trkpt lat="43.59754" lon="7.03248">
        <ele>207</ele>
        <time>2010-01-01T01:05:04Z</time>
      </trkpt>
      <trkpt lat="43.59766" lon="7.03273">
        <ele>208</ele>
        <time>2010-01-01T01:05:13Z</time>
      </trkpt>
      <trkpt lat="43.59781" lon="7.03296">
        <ele>208</ele>
        <time>2010-01-01T01:05:22Z</time>
      </trkpt>
      <trkpt lat="43.59785" lon="7.03301">
        <ele>207</ele>
        <time>2010-01-01T01:05:24Z</time>
      </trkpt>
      <trkpt lat="43.59803" lon="7.03322">
        <ele>207</ele>
        <time>2010-01-01T01:05:34Z</time>
      </trkpt>
      <trkpt lat="43.59815" lon="7.03338">
        <ele>207</ele>
        <time>2010-01-01T01:05:40Z</time>
      </trkpt>
      <trkpt lat="43.59823" lon="7.0335">
        <ele>207</ele>
        <time>2010-01-01T01:05:45Z</time>
      </trkpt>
      <trkpt lat="43.59831" lon="7.03376">
        <ele>207</ele>
        <time>2010-01-01T01:05:53Z</time>
      </trkpt>
      <trkpt lat="43.59835" lon="7.03386">
        <ele>207</ele>
        <time>2010-01-01T01:05:57Z</time>
      </trkpt>
      <trkpt lat="43.59839" lon="7.03412">
        <ele>208</ele>
        <time>2010-01-01T01:06:04Z</time>
      </trkpt>
      <trkpt lat="43.59835" lon="7.03439">
        <ele>208</ele>
        <time>2010-01-01T01:06:12Z</time>
      </trkpt>
      <trkpt lat="43.5983" lon="7.03466">
        <ele>209</ele>
        <time>2010-01-01T01:06:20Z</time>
      </trkpt>
      <trkpt lat="43.59824" lon="7.03492">
        <ele>209</ele>
        <time>2010-01-01T01:06:28Z</time>
      </trkpt>
      <trkpt lat="43.59821" lon="7.03517">
        <ele>209</ele>
        <time>2010-01-01T01:06:36Z</time>
      </trkpt>
      <trkpt lat="43.59813" lon="7.0354">
        <ele>209</ele>
        <time>2010-01-01T01:06:43Z</time>
      </trkpt>
      <trkpt lat="43.59807" lon="7.03565">
        <ele>210</ele>
        <time>2010-01-01T01:06:51Z</time>
      </trkpt>
      <trkpt lat="43.59798" lon="7.03588">
        <ele>210</ele>
        <time>2010-01-01T01:06:58Z</time>
      </trkpt>
      <trkpt lat="43.59789" lon="7.03602">
        <ele>210</ele>
        <time>2010-01-01T01:07:04Z</time>
      </trkpt>
      <trkpt lat="43.5978" lon="7.03626">
        <ele>209</ele>
        <time>2010-01-01T01:07:11Z</time>
      </trkpt>
      <trkpt lat="43.59779" lon="7.03629">
        <ele>209</ele>
        <time>2010-01-01T01:07:12Z</time>
      </trkpt>
      <trkpt lat="43.59775" lon="7.03641">
        <ele>209</ele>
        <time>2010-01-01T01:07:16Z</time>
      </trkpt>
      <trkpt lat="43.59774" lon="7.03668">
        <ele>210</ele>
        <time>2010-01-01T01:07:24Z</time>
      </trkpt>
      <trkpt lat="43.59774" lon="7.03686">
        <ele>210</ele>
        <time>2010-01-01T01:07:29Z</time>
      </trkpt>
      <trkpt lat="43.59778" lon="7.03687">
        <ele>209</ele>
        <time>2010-01-01T01:07:31Z</time>
      </trkpt>
      <trkpt lat="43.59796" lon="7.03682">
        <ele>208</ele>
        <time>2010-01-01T01:07:38Z</time>
      </trkpt>
      <trkpt lat="43.59815" lon="7.03679">
        <ele>208</ele>
        <time>2010-01-01T01:07:46Z</time>
      </trkpt>
      <trkpt lat="43.59819" lon="7.03678">
        <ele>208</ele>
        <time>2010-01-01T01:07:48Z</time>
      </trkpt>
      <trkpt lat="43.59838" lon="7.03679">
        <ele>207</ele>
        <time>2010-01-01T01:07:55Z</time>
      </trkpt>
      <trkpt lat="43.59858" lon="7.03677">
        <ele>210</ele>
        <time>2010-01-01T01:08:03Z</time>
      </trkpt>
      <trkpt lat="43.59878" lon="7.03671">
        <ele>212</ele>
        <time>2010-01-01T01:08:11Z</time>
      </trkpt>
      <trkpt lat="43.59897" lon="7.03665">
        <ele>211</ele>
        <time>2010-01-01T01:08:19Z</time>
      </trkpt>
      <trkpt lat="43.59917" lon="7.0367">
        <ele>211</ele>
        <time>2010-01-01T01:08:27Z</time>
      </trkpt>
      <trkpt lat="43.59935" lon="7.03681">
        <ele>210</ele>
        <time>2010-01-01T01:08:35Z</time>
      </trkpt>
      <trkpt lat="43.59951" lon="7.03695">
        <ele>210</ele>
        <time>2010-01-01T01:08:43Z</time>
      </trkpt>
      <trkpt lat="43.59958" lon="7.03707">
        <ele>211</ele>
        <time>2010-01-01T01:08:47Z</time>
      </trkpt>
      <trkpt lat="43.5997" lon="7.03725">
        <ele>210</ele>
        <time>2010-01-01T01:08:55Z</time>
      </trkpt>
      <trkpt lat="43.59988" lon="7.03734">
        <ele>210</ele>
        <time>2010-01-01T01:09:02Z</time>
      </trkpt>
      <trkpt lat="43.60006" lon="7.03733">
        <ele>209</ele>
        <time>2010-01-01T01:09:09Z</time>
      </trkpt>
      <trkpt lat="43.60017" lon="7.03731">
        <ele>209</ele>
        <time>2010-01-01T01:09:14Z</time>
      </trkpt>
      <trkpt lat="43.60031" lon="7.03728">
        <ele>208</ele>
        <time>2010-01-01T01:09:20Z</time>
      </trkpt>
      <trkpt lat="43.6004" lon="7.03726">
        <ele>207</ele>
        <time>2010-01-01T01:09:23Z</time>
      </trkpt>
      <trkpt lat="43.60059" lon="7.0371">
        <ele>207</ele>
        <time>2010-01-01T01:09:32Z</time>
      </trkpt>
      <trkpt lat="43.60074" lon="7.03699">
        <ele>206</ele>
        <time>2010-01-01T01:09:39Z</time>
      </trkpt>
      <trkpt lat="43.60084" lon="7.03722">
        <ele>204</ele>
        <time>2010-01-01T01:09:47Z</time>
      </trkpt>
      <trkpt lat="43.60104" lon="7.03723">
        <ele>201</ele>
        <time>2010-01-01T01:09:55Z</time>
      </trkpt>
      <trkpt lat="43.60117" lon="7.03733">
        <ele>198</ele>
        <time>2010-01-01T01:10:01Z</time>
      </trkpt>
      <trkpt lat="43.60115" lon="7.03755">
        <ele>196</ele>
        <time>2010-01-01T01:10:07Z</time>
      </trkpt>
      <trkpt lat="43.60112" lon="7.03774">
        <ele>194</ele>
        <time>2010-01-01T01:10:13Z</time>
      </trkpt>
      <trkpt lat="43.60125" lon="7.03781">
        <ele>191</ele>
        <time>2010-01-01T01:10:18Z</time>
      </trkpt>
      <trkpt lat="43.60143" lon="7.03787">
        <ele>184</ele>
        <time>2010-01-01T01:10:26Z</time>
      </trkpt>
      <trkpt lat="43.60161" lon="7.03795">
        <ele>184</ele>
        <time>2010-01-01T01:10:33Z</time>
      </trkpt>
      <trkpt lat="43.60166" lon="7.0382">
        <ele>184</ele>
        <time>2010-01-01T01:10:41Z</time>
      </trkpt>
      <trkpt lat="43.60163" lon="7.03845">
        <ele>185</ele>
        <time>2010-01-01T01:10:48Z</time>
      </trkpt>
      <trkpt lat="43.60157" lon="7.0387">
        <ele>184</ele>
        <time>2010-01-01T01:10:56Z</time>
      </trkpt>
      <trkpt lat="43.60151" lon="7.03896">
        <ele>184</ele>
        <time>2010-01-01T01:11:04Z</time>
      </trkpt>
      <trkpt lat="43.60146" lon="7.03923">
        <ele>183</ele>
        <time>2010-01-01T01:11:12Z</time>
      </trkpt>
      <trkpt lat="43.60145" lon="7.0393">
        <ele>183</ele>
        <time>2010-01-01T01:11:14Z</time>
      </trkpt>
      <trkpt lat="43.60149" lon="7.03961">
        <ele>182</ele>
        <time>2010-01-01T01:11:23Z</time>
      </trkpt>
      <trkpt lat="43.60149" lon="7.03965">
        <ele>182</ele>
        <time>2010-01-01T01:11:24Z</time>
      </trkpt>
      <trkpt lat="43.60148" lon="7.03971">
        <ele>182</ele>
        <time>2010-01-01T01:11:26Z</time>
      </trkpt>
      <trkpt lat="43.60144" lon="7.03997">
        <ele>181</ele>
        <time>2010-01-01T01:11:34Z</time>
      </trkpt>
      <trkpt lat="43.60142" lon="7.04005">
        <ele>181</ele>
        <time>2010-01-01T01:11:36Z</time>
      </trkpt>
      <trkpt lat="43.60138" lon="7.04023">
        <ele>180</ele>
        <time>2010-01-01T01:11:41Z</time>
      </trkpt>
      <trkpt lat="43.6014" lon="7.04032">
        <ele>180</ele>
        <time>2010-01-01T01:11:44Z</time>
      </trkpt>
      <trkpt lat="43.60144" lon="7.04058">
        <ele>179</ele>
        <time>2010-01-01T01:11:52Z</time>
      </trkpt>
      <trkpt lat="43.60139" lon="7.04071">
        <ele>178</ele>
        <time>2010-01-01T01:11:56Z</time>
      </trkpt>
      <trkpt lat="43.60133" lon="7.04082">
        <ele>177</ele>
        <time>2010-01-01T01:12:00Z</time>
      </trkpt>
      <trkpt lat="43.6012" lon="7.041">
        <ele>177</ele>
        <time>2010-01-01T01:12:07Z</time>
      </trkpt>
      <trkpt lat="43.60116" lon="7.04107">
        <ele>176</ele>
        <time>2010-01-01T01:12:10Z</time>
      </trkpt>
      <trkpt lat="43.60115" lon="7.04115">
        <ele>176</ele>
        <time>2010-01-01T01:12:12Z</time>
      </trkpt>
      <trkpt lat="43.60117" lon="7.04141">
        <ele>177</ele>
        <time>2010-01-01T01:12:20Z</time>
      </trkpt>
      <trkpt lat="43.60111" lon="7.04167">
        <ele>179</ele>
        <time>2010-01-01T01:12:28Z</time>
      </trkpt>
      <trkpt lat="43.601" lon="7.04189">
        <ele>181</ele>
        <time>2010-01-01T01:12:36Z</time>
      </trkpt>
      <trkpt lat="43.60091" lon="7.04214">
        <ele>183</ele>
        <time>2010-01-01T01:12:43Z</time>
      </trkpt>
      <trkpt lat="43.60091" lon="7.04239">
        <ele>185</ele>
        <time>2010-01-01T01:12:51Z</time>
      </trkpt>
      <trkpt lat="43.60088" lon="7.04263">
        <ele>184</ele>
        <time>2010-01-01T01:12:58Z</time>
      </trkpt>
      <trkpt lat="43.60088" lon="7.04271">
        <ele>184</ele>
        <time>2010-01-01T01:13:00Z</time>
      </trkpt>
      <trkpt lat="43.6009" lon="7.04304">
        <ele>183</ele>
        <time>2010-01-01T01:13:10Z</time>
      </trkpt>
      <trkpt lat="43.60098" lon="7.04331">
        <ele>183</ele>
        <time>2010-01-01T01:13:18Z</time>
      </trkpt>
      <trkpt lat="43.60104" lon="7.04359">
        <ele>183</ele>
        <time>2010-01-01T01:13:27Z</time>
      </trkpt>
      <trkpt lat="43.60112" lon="7.04385">
        <ele>182</ele>
        <time>2010-01-01T01:13:35Z</time>
      </trkpt>
      <trkpt lat="43.60094" lon="7.04395">
        <ele>180</ele>
        <time>2010-01-01T01:13:43Z</time>
      </trkpt>
      <trkpt lat="43.6009" lon="7.04411">
        <ele>179</ele>
        <time>2010-01-01T01:13:48Z</time>
      </trkpt>
      <trkpt lat="43.60081" lon="7.04433">
        <ele>177</ele>
        <time>2010-01-01T01:13:55Z</time>
      </trkpt>
      <trkpt lat="43.60086" lon="7.04449">
        <ele>175</ele>
        <time>2010-01-01T01:14:00Z</time>
      </trkpt>
      <trkpt lat="43.60084" lon="7.04469">
        <ele>173</ele>
        <time>2010-01-01T01:14:06Z</time>
      </trkpt>
      <trkpt lat="43.60065" lon="7.04477">
        <ele>171</ele>
        <time>2010-01-01T01:14:14Z</time>
      </trkpt>
      <trkpt lat="43.60058" lon="7.04486">
        <ele>170</ele>
        <time>2010-01-01T01:14:18Z</time>
      </trkpt>
      <trkpt lat="43.60043" lon="7.04504">
        <ele>167</ele>
        <time>2010-01-01T01:14:26Z</time>
      </trkpt>
      <trkpt lat="43.60029" lon="7.0452">
        <ele>165</ele>
        <time>2010-01-01T01:14:33Z</time>
      </trkpt>
      <trkpt lat="43.60022" lon="7.04532">
        <ele>162</ele>
        <time>2010-01-01T01:14:38Z</time>
      </trkpt>
      <trkpt lat="43.60011" lon="7.04558">
        <ele>162</ele>
        <time>2010-01-01T01:14:46Z</time>
      </trkpt>
      <trkpt lat="43.60009" lon="7.04571">
        <ele>162</ele>
        <time>2010-01-01T01:14:50Z</time>
      </trkpt>
      <trkpt lat="43.60006" lon="7.04584">
        <ele>161</ele>
        <time>2010-01-01T01:14:54Z</time>
      </trkpt>
      <trkpt lat="43.60007" lon="7.04611">
        <ele>161</ele>
        <time>2010-01-01T01:15:02Z</time>
      </trkpt>
      <trkpt lat="43.60017" lon="7.04634">
        <ele>160</ele>
        <time>2010-01-01T01:15:09Z</time>
      </trkpt>
      <trkpt lat="43.6002" lon="7.0466">
        <ele>159</ele>
        <time>2010-01-01T01:15:17Z</time>
      </trkpt>
      <trkpt lat="43.60024" lon="7.04687">
        <ele>159</ele>
        <time>2010-01-01T01:15:25Z</time>
      </trkpt>
      <trkpt lat="43.60027" lon="7.04706">
        <ele>158</ele>
        <time>2010-01-01T01:15:31Z</time>
      </trkpt>
      <trkpt lat="43.60034" lon="7.04734">
        <ele>157</ele>
        <time>2010-01-01T01:15:39Z</time>
      </trkpt>
      <trkpt lat="43.60041" lon="7.04761">
        <ele>156</ele>
        <time>2010-01-01T01:15:48Z</time>
      </trkpt>
      <trkpt lat="43.60046" lon="7.04777">
        <ele>155</ele>
        <time>2010-01-01T01:15:53Z</time>
      </trkpt>
      <trkpt lat="43.60049" lon="7.04803">
        <ele>153</ele>
        <time>2010-01-01T01:16:00Z</time>
      </trkpt>
      <trkpt lat="43.60055" lon="7.0483">
        <ele>152</ele>
        <time>2010-01-01T01:16:09Z</time>
      </trkpt>
      <trkpt lat="43.60062" lon="7.04858">
        <ele>150</ele>
        <time>2010-01-01T01:16:17Z</time>
      </trkpt>
      <trkpt lat="43.60067" lon="7.04882">
        <ele>149</ele>
        <time>2010-01-01T01:16:24Z</time>
      </trkpt>
      <trkpt lat="43.60067" lon="7.04891">
        <ele>149</ele>
        <time>2010-01-01T01:16:27Z</time>
      </trkpt>
      <trkpt lat="43.60064" lon="7.04919">
        <ele>148</ele>
        <time>2010-01-01T01:16:35Z</time>
      </trkpt>
      <trkpt lat="43.60059" lon="7.04943">
        <ele>146</ele>
        <time>2010-01-01T01:16:43Z</time>
      </trkpt>
      <trkpt lat="43.6005" lon="7.04966">
        <ele>144</ele>
        <time>2010-01-01T01:16:50Z</time>
      </trkpt>
      <trkpt lat="43.60049" lon="7.0497">
        <ele>144</ele>
        <time>2010-01-01T01:16:51Z</time>
      </trkpt>
      <trkpt lat="43.60041" lon="7.04997">
        <ele>142</ele>
        <time>2010-01-01T01:17:00Z</time>
      </trkpt>
      <trkpt lat="43.6003" lon="7.05018">
        <ele>141</ele>
        <time>2010-01-01T01:17:07Z</time>
      </trkpt>
      <trkpt lat="43.60019" lon="7.0504">
        <ele>142</ele>
        <time>2010-01-01T01:17:15Z</time>
      </trkpt>
      <trkpt lat="43.60005" lon="7.05059">
        <ele>141</ele>
        <time>2010-01-01T01:17:23Z</time>
      </trkpt>
      <trkpt lat="43.59999" lon="7.05083">
        <ele>141</ele>
        <time>2010-01-01T01:17:30Z</time>
      </trkpt>
      <trkpt lat="43.59994" lon="7.05112">
        <ele>141</ele>
        <time>2010-01-01T01:17:39Z</time>
      </trkpt>
      <trkpt lat="43.59994" lon="7.05119">
        <ele>141</ele>
        <time>2010-01-01T01:17:41Z</time>
      </trkpt>
      <trkpt lat="43.60007" lon="7.05139">
        <ele>141</ele>
        <time>2010-01-01T01:17:49Z</time>
      </trkpt>
      <trkpt lat="43.60024" lon="7.05157">
        <ele>141</ele>
        <time>2010-01-01T01:17:57Z</time>
      </trkpt>
      <trkpt lat="43.60039" lon="7.05179">
        <ele>140</ele>
        <time>2010-01-01T01:18:06Z</time>
      </trkpt>
      <trkpt lat="43.60043" lon="7.05183">
        <ele>140</ele>
        <time>2010-01-01T01:18:08Z</time>
      </trkpt>
      <trkpt lat="43.60052" lon="7.0519">
        <ele>140</ele>
        <time>2010-01-01T01:18:12Z</time>
      </trkpt>
      <trkpt lat="43.60072" lon="7.05197">
        <ele>140</ele>
        <time>2010-01-01T01:18:20Z</time>
      </trkpt>
      <trkpt lat="43.60086" lon="7.05217">
        <ele>139</ele>
        <time>2010-01-01T01:18:28Z</time>
      </trkpt>
      <trkpt lat="43.60093" lon="7.05245">
        <ele>138</ele>
        <time>2010-01-01T01:18:37Z</time>
      </trkpt>
      <trkpt lat="43.60091" lon="7.05273">
        <ele>137</ele>
        <time>2010-01-01T01:18:45Z</time>
      </trkpt>
      <trkpt lat="43.60096" lon="7.05303">
        <ele>135</ele>
        <time>2010-01-01T01:18:54Z</time>
      </trkpt>
      <trkpt lat="43.60097" lon="7.05321">
        <ele>135</ele>
        <time>2010-01-01T01:18:59Z</time>
      </trkpt>
      <trkpt lat="43.60096" lon="7.05346">
        <ele>133</ele>
        <time>2010-01-01T01:19:06Z</time>
      </trkpt>
      <trkpt lat="43.60101" lon="7.05358">
        <ele>133</ele>
        <time>2010-01-01T01:19:10Z</time>
      </trkpt>
      <trkpt lat="43.60104" lon="7.05346">
        <ele>132</ele>
        <time>2010-01-01T01:19:14Z</time>
      </trkpt>
      <trkpt lat="43.60111" lon="7.05323">
        <ele>132</ele>
        <time>2010-01-01T01:19:21Z</time>
      </trkpt>
      <trkpt lat="43.60119" lon="7.053">
        <ele>132</ele>
        <time>2010-01-01T01:19:29Z</time>
      </trkpt>
      <trkpt lat="43.60124" lon="7.05274">
        <ele>133</ele>
        <time>2010-01-01T01:19:37Z</time>
      </trkpt>
      <trkpt lat="43.60132" lon="7.05248">
        <ele>133</ele>
        <time>2010-01-01T01:19:45Z</time>
      </trkpt>
      <trkpt lat="43.60134" lon="7.05221">
        <ele>133</ele>
        <time>2010-01-01T01:19:52Z</time>
      </trkpt>
      <trkpt lat="43.60133" lon="7.05213">
        <ele>133</ele>
        <time>2010-01-01T01:19:55Z</time>
      </trkpt>
      <trkpt lat="43.60129" lon="7.05188">
        <ele>134</ele>
        <time>2010-01-01T01:20:02Z</time>
      </trkpt>
      <trkpt lat="43.60118" lon="7.05166">
        <ele>135</ele>
        <time>2010-01-01T01:20:10Z</time>
      </trkpt>
      <trkpt lat="43.60104" lon="7.05146">
        <ele>135</ele>
        <time>2010-01-01T01:20:18Z</time>
      </trkpt>
      <trkpt lat="43.60089" lon="7.05131">
        <ele>136</ele>
        <time>2010-01-01T01:20:25Z</time>
      </trkpt>
      <trkpt lat="43.60087" lon="7.05106">
        <ele>137</ele>
        <time>2010-01-01T01:20:33Z</time>
      </trkpt>
      <trkpt lat="43.60083" lon="7.05082">
        <ele>137</ele>
        <time>2010-01-01T01:20:40Z</time>
      </trkpt>
      <trkpt lat="43.60082" lon="7.05056">
        <ele>138</ele>
        <time>2010-01-01T01:20:47Z</time>
      </trkpt>
      <trkpt lat="43.60082" lon="7.05029">
        <ele>140</ele>
        <time>2010-01-01T01:20:55Z</time>
      </trkpt>
      <trkpt lat="43.6009" lon="7.05007">
        <ele>141</ele>
        <time>2010-01-01T01:21:02Z</time>
      </trkpt>
      <trkpt lat="43.601" lon="7.04985">
        <ele>143</ele>
        <time>2010-01-01T01:21:10Z</time>
      </trkpt>
      <trkpt lat="43.60107" lon="7.04961">
        <ele>143</ele>
        <time>2010-01-01T01:21:17Z</time>
      </trkpt>
      <trkpt lat="43.60112" lon="7.04935">
        <ele>142</ele>
        <time>2010-01-01T01:21:25Z</time>
      </trkpt>
      <trkpt lat="43.6011" lon="7.04908">
        <ele>141</ele>
        <time>2010-01-01T01:21:33Z</time>
      </trkpt>
      <trkpt lat="43.60107" lon="7.04881">
        <ele>142</ele>
        <time>2010-01-01T01:21:41Z</time>
      </trkpt>
      <trkpt lat="43.60112" lon="7.04856">
        <ele>142</ele>
        <time>2010-01-01T01:21:48Z</time>
      </trkpt>
      <trkpt lat="43.60107" lon="7.0483">
        <ele>142</ele>
        <time>2010-01-01T01:21:56Z</time>
      </trkpt>
      <trkpt lat="43.60099" lon="7.04807">
        <ele>143</ele>
        <time>2010-01-01T01:22:04Z</time>
      </trkpt>
      <trkpt lat="43.60096" lon="7.04795">
        <ele>144</ele>
        <time>2010-01-01T01:22:07Z</time>
      </trkpt>
      <trkpt lat="43.60091" lon="7.0477">
        <ele>145</ele>
        <time>2010-01-01T01:22:15Z</time>
      </trkpt>
      <trkpt lat="43.60082" lon="7.04746">
        <ele>145</ele>
        <time>2010-01-01T01:22:23Z</time>
      </trkpt>
      <trkpt lat="43.60076" lon="7.0472">
        <ele>146</ele>
        <time>2010-01-01T01:22:31Z</time>
      </trkpt>
      <trkpt lat="43.6007" lon="7.04695">
        <ele>146</ele>
        <time>2010-01-01T01:22:38Z</time>
      </trkpt>
      <trkpt lat="43.60064" lon="7.0467">
        <ele>146</ele>
        <time>2010-01-01T01:22:46Z</time>
      </trkpt>
      <trkpt lat="43.60056" lon="7.04644">
        <ele>147</ele>
        <time>2010-01-01T01:22:54Z</time>
      </trkpt>
      <trkpt lat="43.60051" lon="7.04634">
        <ele>147</ele>
        <time>2010-01-01T01:22:57Z</time>
      </trkpt>
      <trkpt lat="43.60038" lon="7.04614">
        <ele>148</ele>
        <time>2010-01-01T01:23:05Z</time>
      </trkpt>
      <trkpt lat="43.60035" lon="7.04589">
        <ele>148</ele>
        <time>2010-01-01T01:23:13Z</time>
      </trkpt>
      <trkpt lat="43.60036" lon="7.04587">
        <ele>148</ele>
        <time>2010-01-01T01:23:14Z</time>
      </trkpt>
      <trkpt lat="43.60044" lon="7.04593">
        <ele>148</ele>
        <time>2010-01-01T01:23:17Z</time>
      </trkpt>
      <trkpt lat="43.60056" lon="7.04612">
        <ele>149</ele>
        <time>2010-01-01T01:23:25Z</time>
      </trkpt>
      <trkpt lat="43.6007" lon="7.04629">
        <ele>150</ele>
        <time>2010-01-01T01:23:32Z</time>
      </trkpt>
      <trkpt lat="43.60082" lon="7.04652">
        <ele>150</ele>
        <time>2010-01-01T01:23:40Z</time>
      </trkpt>
      <trkpt lat="43.60094" lon="7.04672">
        <ele>150</ele>
        <time>2010-01-01T01:23:48Z</time>
      </trkpt>
      <trkpt lat="43.60106" lon="7.04695">
        <ele>151</ele>
        <time>2010-01-01T01:23:56Z</time>
      </trkpt>
      <trkpt lat="43.60118" lon="7.04714">
        <ele>151</ele>
        <time>2010-01-01T01:24:03Z</time>
      </trkpt>
      <trkpt lat="43.60132" lon="7.04732">
        <ele>152</ele>
        <time>2010-01-01T01:24:11Z</time>
      </trkpt>
      <trkpt lat="43.6015" lon="7.04743">
        <ele>156</ele>
        <time>2010-01-01T01:24:19Z</time>
      </trkpt>
      <trkpt lat="43.60164" lon="7.04761">
        <ele>160</ele>
        <time>2010-01-01T01:24:26Z</time>
      </trkpt>
      <trkpt lat="43.60179" lon="7.04779">
        <ele>165</ele>
        <time>2010-01-01T01:24:34Z</time>
      </trkpt>
      <trkpt lat="43.6018" lon="7.0478">
        <ele>166</ele>
        <time>2010-01-01T01:24:35Z</time>
      </trkpt>
      <trkpt lat="43.60198" lon="7.04789">
        <ele>170</ele>
        <time>2010-01-01T01:24:43Z</time>
      </trkpt>
      <trkpt lat="43.60216" lon="7.04793">
        <ele>171</ele>
        <time>2010-01-01T01:24:50Z</time>
      </trkpt>
      <trkpt lat="43.60235" lon="7.04797">
        <ele>172</ele>
        <time>2010-01-01T01:24:58Z</time>
      </trkpt>
      <trkpt lat="43.60253" lon="7.04803">
        <ele>174</ele>
        <time>2010-01-01T01:25:05Z</time>
      </trkpt>
      <trkpt lat="43.6026" lon="7.04805">
        <ele>173</ele>
        <time>2010-01-01T01:25:08Z</time>
      </trkpt>
      <trkpt lat="43.60271" lon="7.04829">
        <ele>173</ele>
        <time>2010-01-01T01:25:16Z</time>
      </trkpt>
      <trkpt lat="43.60273" lon="7.04835">
        <ele>173</ele>
        <time>2010-01-01T01:25:18Z</time>
      </trkpt>
      <trkpt lat="43.60283" lon="7.04858">
        <ele>173</ele>
        <time>2010-01-01T01:25:26Z</time>
      </trkpt>
      <trkpt lat="43.60298" lon="7.04878">
        <ele>173</ele>
        <time>2010-01-01T01:25:34Z</time>
      </trkpt>
      <trkpt lat="43.60317" lon="7.04895">
        <ele>172</ele>
        <time>2010-01-01T01:25:43Z</time>
      </trkpt>
      <trkpt lat="43.60321" lon="7.04898">
        <ele>171</ele>
        <time>2010-01-01T01:25:45Z</time>
      </trkpt>
      <trkpt lat="43.60339" lon="7.0491">
        <ele>170</ele>
        <time>2010-01-01T01:25:53Z</time>
      </trkpt>
      <trkpt lat="43.60344" lon="7.04913">
        <ele>170</ele>
        <time>2010-01-01T01:25:55Z</time>
      </trkpt>
      <trkpt lat="43.60363" lon="7.04923">
        <ele>168</ele>
        <time>2010-01-01T01:26:03Z</time>
      </trkpt>
      <trkpt lat="43.6038" lon="7.04935">
        <ele>166</ele>
        <time>2010-01-01T01:26:11Z</time>
      </trkpt>
      <trkpt lat="43.60398" lon="7.04947">
        <ele>164</ele>
        <time>2010-01-01T01:26:19Z</time>
      </trkpt>
      <trkpt lat="43.60415" lon="7.04959">
        <ele>163</ele>
        <time>2010-01-01T01:26:27Z</time>
      </trkpt>
      <trkpt lat="43.60435" lon="7.0496">
        <ele>161</ele>
        <time>2010-01-01T01:26:34Z</time>
      </trkpt>
      <trkpt lat="43.6044" lon="7.0496">
        <ele>161</ele>
        <time>2010-01-01T01:26:37Z</time>
      </trkpt>
      <trkpt lat="43.60458" lon="7.04963">
        <ele>161</ele>
        <time>2010-01-01T01:26:44Z</time>
      </trkpt>
      <trkpt lat="43.6048" lon="7.04966">
        <ele>160</ele>
        <time>2010-01-01T01:26:53Z</time>
      </trkpt>
      <trkpt lat="43.605" lon="7.04968">
        <ele>159</ele>
        <time>2010-01-01T01:27:01Z</time>
      </trkpt>
      <trkpt lat="43.6052" lon="7.04958">
        <ele>159</ele>
        <time>2010-01-01T01:27:09Z</time>
      </trkpt>
      <trkpt lat="43.60537" lon="7.04946">
        <ele>159</ele>
        <time>2010-01-01T01:27:17Z</time>
      </trkpt>
      <trkpt lat="43.60552" lon="7.04931">
        <ele>159</ele>
        <time>2010-01-01T01:27:24Z</time>
      </trkpt>
      <trkpt lat="43.60565" lon="7.04911">
        <ele>159</ele>
        <time>2010-01-01T01:27:32Z</time>
      </trkpt>
      <trkpt lat="43.6058" lon="7.04892">
        <ele>159</ele>
        <time>2010-01-01T01:27:40Z</time>
      </trkpt>
      <trkpt lat="43.60598" lon="7.04875">
        <ele>159</ele>
        <time>2010-01-01T01:27:49Z</time>
      </trkpt>
      <trkpt lat="43.60612" lon="7.04858">
        <ele>160</ele>
        <time>2010-01-01T01:27:56Z</time>
      </trkpt>
      <trkpt lat="43.60627" lon="7.0484">
        <ele>161</ele>
        <time>2010-01-01T01:28:04Z</time>
      </trkpt>
      <trkpt lat="43.60645" lon="7.04826">
        <ele>162</ele>
        <time>2010-01-01T01:28:13Z</time>
      </trkpt>
      <trkpt lat="43.60662" lon="7.0481">
        <ele>162</ele>
        <time>2010-01-01T01:28:21Z</time>
      </trkpt>
      <trkpt lat="43.60676" lon="7.04791">
        <ele>160</ele>
        <time>2010-01-01T01:28:29Z</time>
      </trkpt>
      <trkpt lat="43.6069" lon="7.04771">
        <ele>160</ele>
        <time>2010-01-01T01:28:37Z</time>
      </trkpt>
      <trkpt lat="43.60708" lon="7.04759">
        <ele>159</ele>
        <time>2010-01-01T01:28:45Z</time>
      </trkpt>
      <trkpt lat="43.60722" lon="7.04739">
        <ele>158</ele>
        <time>2010-01-01T01:28:53Z</time>
      </trkpt>
      <trkpt lat="43.60727" lon="7.04728">
        <ele>158</ele>
        <time>2010-01-01T01:28:57Z</time>
      </trkpt>
      <trkpt lat="43.60738" lon="7.04708">
        <ele>158</ele>
        <time>2010-01-01T01:29:04Z</time>
      </trkpt>
      <trkpt lat="43.6074" lon="7.04701">
        <ele>158</ele>
        <time>2010-01-01T01:29:06Z</time>
      </trkpt>
      <trkpt lat="43.60741" lon="7.04694">
        <ele>157</ele>
        <time>2010-01-01T01:29:08Z</time>
      </trkpt>
      <trkpt lat="43.60745" lon="7.04662">
        <ele>155</ele>
        <time>2010-01-01T01:29:17Z</time>
      </trkpt>
      <trkpt lat="43.60748" lon="7.04635">
        <ele>153</ele>
        <time>2010-01-01T01:29:26Z</time>
      </trkpt>
      <trkpt lat="43.60753" lon="7.04611">
        <ele>152</ele>
        <time>2010-01-01T01:29:33Z</time>
      </trkpt>
      <trkpt lat="43.60755" lon="7.046">
        <ele>151</ele>
        <time>2010-01-01T01:29:36Z</time>
      </trkpt>
      <trkpt lat="43.60772" lon="7.04585">
        <ele>151</ele>
        <time>2010-01-01T01:29:44Z</time>
      </trkpt>
      <trkpt lat="43.60777" lon="7.04582">
        <ele>152</ele>
        <time>2010-01-01T01:29:46Z</time>
      </trkpt>
      <trkpt lat="43.60786" lon="7.04578">
        <ele>153</ele>
        <time>2010-01-01T01:29:50Z</time>
      </trkpt>
      <trkpt lat="43.60804" lon="7.04569">
        <ele>155</ele>
        <time>2010-01-01T01:29:58Z</time>
      </trkpt>
      <trkpt lat="43.60821" lon="7.04563">
        <ele>157</ele>
        <time>2010-01-01T01:30:05Z</time>
      </trkpt>
      <trkpt lat="43.60823" lon="7.04563">
        <ele>156</ele>
        <time>2010-01-01T01:30:06Z</time>
      </trkpt>
      <trkpt lat="43.60835" lon="7.04584">
        <ele>157</ele>
        <time>2010-01-01T01:30:13Z</time>
      </trkpt>
      <trkpt lat="43.60835" lon="7.0461">
        <ele>158</ele>
        <time>2010-01-01T01:30:21Z</time>
      </trkpt>
      <trkpt lat="43.60834" lon="7.04638">
        <ele>157</ele>
        <time>2010-01-01T01:30:29Z</time>
      </trkpt>
      <trkpt lat="43.60838" lon="7.04664">
        <ele>156</ele>
        <time>2010-01-01T01:30:36Z</time>
      </trkpt>
      <trkpt lat="43.60847" lon="7.04687">
        <ele>156</ele>
        <time>2010-01-01T01:30:44Z</time>
      </trkpt>
      <trkpt lat="43.60861" lon="7.04707">
        <ele>154</ele>
        <time>2010-01-01T01:30:52Z</time>
      </trkpt>
      <trkpt lat="43.60873" lon="7.04726">
        <ele>152</ele>
        <time>2010-01-01T01:31:00Z</time>
      </trkpt>
      <trkpt lat="43.60874" lon="7.04727">
        <ele>152</ele>
        <time>2010-01-01T01:31:00Z</time>
      </trkpt>
      <trkpt lat="43.60892" lon="7.04739">
        <ele>153</ele>
        <time>2010-01-01T01:31:08Z</time>
      </trkpt>
      <trkpt lat="43.60909" lon="7.04739">
        <ele>154</ele>
        <time>2010-01-01T01:31:15Z</time>
      </trkpt>
      <trkpt lat="43.60929" lon="7.04732">
        <ele>153</ele>
        <time>2010-01-01T01:31:23Z</time>
      </trkpt>
      <trkpt lat="43.60938" lon="7.04726">
        <ele>153</ele>
        <time>2010-01-01T01:31:27Z</time>
      </trkpt>
      <trkpt lat="43.60949" lon="7.04705">
        <ele>153</ele>
        <time>2010-01-01T01:31:35Z</time>
      </trkpt>
      <trkpt lat="43.60963" lon="7.04682">
        <ele>153</ele>
        <time>2010-01-01T01:31:43Z</time>
      </trkpt>
      <trkpt lat="43.6098" lon="7.04664">
        <ele>153</ele>
        <time>2010-01-01T01:31:52Z</time>
      </trkpt>
      <trkpt lat="43.60997" lon="7.04645">
        <ele>154</ele>
        <time>2010-01-01T01:32:01Z</time>
      </trkpt>
      <trkpt lat="43.6101" lon="7.04637">
        <ele>155</ele>
        <time>2010-01-01T01:32:06Z</time>
      </trkpt>
      <trkpt lat="43.61021" lon="7.04632">
        <ele>156</ele>
        <time>2010-01-01T01:32:11Z</time>
      </trkpt>
      <trkpt lat="43.61038" lon="7.0462">
        <ele>156</ele>
        <time>2010-01-01T01:32:19Z</time>
      </trkpt>
      <trkpt lat="43.61058" lon="7.04609">
        <ele>156</ele>
        <time>2010-01-01T01:32:27Z</time>
      </trkpt>
      <trkpt lat="43.61073" lon="7.04626">
        <ele>156</ele>
        <time>2010-01-01T01:32:35Z</time>
      </trkpt>
      <trkpt lat="43.61078" lon="7.04654">
        <ele>155</ele>
        <time>2010-01-01T01:32:43Z</time>
      </trkpt>
      <trkpt lat="43.61079" lon="7.0466">
        <ele>155</ele>
        <time>2010-01-01T01:32:45Z</time>
      </trkpt>
      <trkpt lat="43.61084" lon="7.04686">
        <ele>154</ele>
        <time>2010-01-01T01:32:53Z</time>
      </trkpt>
      <trkpt lat="43.61087" lon="7.0471">
        <ele>153</ele>
        <time>2010-01-01T01:33:00Z</time>
      </trkpt>
      <trkpt lat="43.61087" lon="7.04737">
        <ele>150</ele>
        <time>2010-01-01T01:33:08Z</time>
      </trkpt>
      <trkpt lat="43.61094" lon="7.0476">
        <ele>149</ele>
        <time>2010-01-01T01:33:15Z</time>
      </trkpt>
      <trkpt lat="43.61115" lon="7.04765">
        <ele>150</ele>
        <time>2010-01-01T01:33:24Z</time>
      </trkpt>
      <trkpt lat="43.61136" lon="7.04769">
        <ele>153</ele>
        <time>2010-01-01T01:33:32Z</time>
      </trkpt>
      <trkpt lat="43.61155" lon="7.0477">
        <ele>155</ele>
        <time>2010-01-01T01:33:40Z</time>
      </trkpt>
      <trkpt lat="43.61173" lon="7.04759">
        <ele>155</ele>
        <time>2010-01-01T01:33:48Z</time>
      </trkpt>
      <trkpt lat="43.61181" lon="7.04747">
        <ele>157</ele>
        <time>2010-01-01T01:33:53Z</time>
      </trkpt>
      <trkpt lat="43.61197" lon="7.04731">
        <ele>158</ele>
        <time>2010-01-01T01:34:00Z</time>
      </trkpt>
      <trkpt lat="43.61198" lon="7.0473">
        <ele>159</ele>
        <time>2010-01-01T01:34:01Z</time>
      </trkpt>
      <trkpt lat="43.61216" lon="7.04725">
        <ele>160</ele>
        <time>2010-01-01T01:34:08Z</time>
      </trkpt>
      <trkpt lat="43.61236" lon="7.04721">
        <ele>160</ele>
        <time>2010-01-01T01:34:16Z</time>
      </trkpt>
      <trkpt lat="43.61252" lon="7.04702">
        <ele>160</ele>
        <time>2010-01-01T01:34:25Z</time>
      </trkpt>
      <trkpt lat="43.61265" lon="7.04683">
        <ele>160</ele>
        <time>2010-01-01T01:34:32Z</time>
      </trkpt>
      <trkpt lat="43.61276" lon="7.04662">
        <ele>161</ele>
        <time>2010-01-01T01:34:40Z</time>
      </trkpt>
      <trkpt lat="43.6128" lon="7.04649">
        <ele>161</ele>
        <time>2010-01-01T01:34:44Z</time>
      </trkpt>
      <trkpt lat="43.61289" lon="7.04626">
        <ele>160</ele>
        <time>2010-01-01T01:34:51Z</time>
      </trkpt>
      <trkpt lat="43.61296" lon="7.04599">
        <ele>159</ele>
        <time>2010-01-01T01:35:00Z</time>
      </trkpt>
      <trkpt lat="43.61298" lon="7.04592">
        <ele>159</ele>
        <time>2010-01-01T01:35:02Z</time>
      </trkpt>
      <trkpt lat="43.61304" lon="7.04566">
        <ele>158</ele>
        <time>2010-01-01T01:35:10Z</time>
      </trkpt>
      <trkpt lat="43.61308" lon="7.04541">
        <ele>157</ele>
        <time>2010-01-01T01:35:17Z</time>
      </trkpt>
      <trkpt lat="43.61312" lon="7.04511">
        <ele>157</ele>
        <time>2010-01-01T01:35:26Z</time>
      </trkpt>
      <trkpt lat="43.61314" lon="7.04503">
        <ele>157</ele>
        <time>2010-01-01T01:35:29Z</time>
      </trkpt>
      <trkpt lat="43.61324" lon="7.04479">
        <ele>155</ele>
        <time>2010-01-01T01:35:36Z</time>
      </trkpt>
      <trkpt lat="43.61333" lon="7.04452">
        <ele>154</ele>
        <time>2010-01-01T01:35:45Z</time>
      </trkpt>
      <trkpt lat="43.61346" lon="7.04429">
        <ele>152</ele>
        <time>2010-01-01T01:35:53Z</time>
      </trkpt>
      <trkpt lat="43.61355" lon="7.04408">
        <ele>151</ele>
        <time>2010-01-01T01:36:01Z</time>
      </trkpt>
      <trkpt lat="43.61366" lon="7.04387">
        <ele>151</ele>
        <time>2010-01-01T01:36:08Z</time>
      </trkpt>
      <trkpt lat="43.6138" lon="7.04362">
        <ele>150</ele>
        <time>2010-01-01T01:36:17Z</time>
      </trkpt>
      <trkpt lat="43.61397" lon="7.04336">
        <ele>150</ele>
        <time>2010-01-01T01:36:28Z</time>
      </trkpt>
      <trkpt lat="43.61416" lon="7.0431">
        <ele>149</ele>
        <time>2010-01-01T01:36:38Z</time>
      </trkpt>
      <trkpt lat="43.61437" lon="7.04286">
        <ele>148</ele>
        <time>2010-01-01T01:36:49Z</time>
      </trkpt>
      <trkpt lat="43.61456" lon="7.04262">
        <ele>147</ele>
        <time>2010-01-01T01:36:59Z</time>
      </trkpt>
      <trkpt lat="43.61474" lon="7.04238">
        <ele>146</ele>
        <time>2010-01-01T01:37:09Z</time>
      </trkpt>
      <trkpt lat="43.61491" lon="7.04214">
        <ele>145</ele>
        <time>2010-01-01T01:37:19Z</time>
      </trkpt>
      <trkpt lat="43.61499" lon="7.04195">
        <ele>144</ele>
        <time>2010-01-01T01:37:25Z</time>
      </trkpt>
      <trkpt lat="43.6151" lon="7.04176">
        <ele>141</ele>
        <time>2010-01-01T01:37:32Z</time>
      </trkpt>
      <trkpt lat="43.61512" lon="7.04176">
        <ele>141</ele>
        <time>2010-01-01T01:37:33Z</time>
      </trkpt>
      <trkpt lat="43.61519" lon="7.04181">
        <ele>139</ele>
        <time>2010-01-01T01:37:37Z</time>
      </trkpt>
      <trkpt lat="43.61522" lon="7.04199">
        <ele>138</ele>
        <time>2010-01-01T01:37:42Z</time>
      </trkpt>
      <trkpt lat="43.61534" lon="7.04213">
        <ele>135</ele>
        <time>2010-01-01T01:37:48Z</time>
      </trkpt>
      <trkpt lat="43.61538" lon="7.04205">
        <ele>135</ele>
        <time>2010-01-01T01:37:51Z</time>
      </trkpt>
      <trkpt lat="43.6155" lon="7.04184">
        <ele>135</ele>
        <time>2010-01-01T01:37:59Z</time>
      </trkpt>
      <trkpt lat="43.61556" lon="7.04173">
        <ele>135</ele>
        <time>2010-01-01T01:38:03Z</time>
      </trkpt>
      <trkpt lat="43.61555" lon="7.04169">
        <ele>134</ele>
        <time>2010-01-01T01:38:04Z</time>
      </trkpt>
      <trkpt lat="43.61548" lon="7.04176">
        <ele>134</ele>
        <time>2010-01-01T01:38:07Z</time>
      </trkpt>
      <trkpt lat="43.61543" lon="7.04171">
        <ele>133</ele>
        <time>2010-01-01T01:38:10Z</time>
      </trkpt>
      <trkpt lat="43.61539" lon="7.04159">
        <ele>133</ele>
        <time>2010-01-01T01:38:14Z</time>
      </trkpt>
      <trkpt lat="43.61537" lon="7.04131">
        <ele>132</ele>
        <time>2010-01-01T01:38:22Z</time>
      </trkpt>
      <trkpt lat="43.61544" lon="7.04121">
        <ele>132</ele>
        <time>2010-01-01T01:38:26Z</time>
      </trkpt>
      <trkpt lat="43.61552" lon="7.04099">
        <ele>133</ele>
        <time>2010-01-01T01:38:33Z</time>
      </trkpt>
      <trkpt lat="43.6156" lon="7.04075">
        <ele>135</ele>
        <time>2010-01-01T01:38:41Z</time>
      </trkpt>
      <trkpt lat="43.61568" lon="7.04053">
        <ele>137</ele>
        <time>2010-01-01T01:38:48Z</time>
      </trkpt>
      <trkpt lat="43.61575" lon="7.0404">
        <ele>138</ele>
        <time>2010-01-01T01:38:53Z</time>
      </trkpt>
      <trkpt lat="43.61583" lon="7.04017">
        <ele>138</ele>
        <time>2010-01-01T01:39:00Z</time>
      </trkpt>
      <trkpt lat="43.61594" lon="7.03994">
        <ele>138</ele>
        <time>2010-01-01T01:39:08Z</time>
      </trkpt>
      <trkpt lat="43.61604" lon="7.03972">
        <ele>139</ele>
        <time>2010-01-01T01:39:15Z</time>
      </trkpt>
      <trkpt lat="43.6161" lon="7.03947">
        <ele>139</ele>
        <time>2010-01-01T01:39:23Z</time>
      </trkpt>
      <trkpt lat="43.61621" lon="7.03923">
        <ele>141</ele>
        <time>2010-01-01T01:39:31Z</time>
      </trkpt>
      <trkpt lat="43.61622" lon="7.03896">
        <ele>141</ele>
        <time>2010-01-01T01:39:39Z</time>
      </trkpt>
      <trkpt lat="43.61622" lon="7.03868">
        <ele>142</ele>
        <time>2010-01-01T01:39:47Z</time>
      </trkpt>
      <trkpt lat="43.61629" lon="7.03843">
        <ele>143</ele>
        <time>2010-01-01T01:39:55Z</time>
      </trkpt>
      <trkpt lat="43.61634" lon="7.03826">
        <ele>142</ele>
        <time>2010-01-01T01:40:00Z</time>
      </trkpt>
      <trkpt lat="43.61633" lon="7.038">
        <ele>142</ele>
        <time>2010-01-01T01:40:08Z</time>
      </trkpt>
      <trkpt lat="43.61637" lon="7.03775">
        <ele>142</ele>
        <time>2010-01-01T01:40:15Z</time>
      </trkpt>
      <trkpt lat="43.61629" lon="7.03751">
        <ele>142</ele>
        <time>2010-01-01T01:40:23Z</time>
      </trkpt>
      <trkpt lat="43.61617" lon="7.03732">
        <ele>142</ele>
        <time>2010-01-01T01:40:30Z</time>
      </trkpt>
      <trkpt lat="43.61601" lon="7.03715">
        <ele>143</ele>
        <time>2010-01-01T01:40:38Z</time>
      </trkpt>
      <trkpt lat="43.61584" lon="7.03697">
        <ele>144</ele>
        <time>2010-01-01T01:40:47Z</time>
      </trkpt>
      <trkpt lat="43.61569" lon="7.03679">
        <ele>144</ele>
        <time>2010-01-01T01:40:55Z</time>
      </trkpt>
      <trkpt lat="43.61554" lon="7.03663">
        <ele>144</ele>
        <time>2010-01-01T01:41:02Z</time>
      </trkpt>
      <trkpt lat="43.61537" lon="7.03648">
        <ele>144</ele>
        <time>2010-01-01T01:41:11Z</time>
      </trkpt>
      <trkpt lat="43.61523" lon="7.0363">
        <ele>143</ele>
        <time>2010-01-01T01:41:18Z</time>
      </trkpt>
      <trkpt lat="43.61521" lon="7.03629">
        <ele>143</ele>
        <time>2010-01-01T01:41:19Z</time>
      </trkpt>
      <trkpt lat="43.61501" lon="7.03619">
        <ele>143</ele>
        <time>2010-01-01T01:41:27Z</time>
      </trkpt>
      <trkpt lat="43.61483" lon="7.0362">
        <ele>144</ele>
        <time>2010-01-01T01:41:35Z</time>
      </trkpt>
      <trkpt lat="43.61465" lon="7.03629">
        <ele>144</ele>
        <time>2010-01-01T01:41:42Z</time>
      </trkpt>
      <trkpt lat="43.61445" lon="7.03635">
        <ele>147</ele>
        <time>2010-01-01T01:41:50Z</time>
      </trkpt>
      <trkpt lat="43.61429" lon="7.03647">
        <ele>148</ele>
        <time>2010-01-01T01:41:58Z</time>
      </trkpt>
      <trkpt lat="43.61412" lon="7.03654">
        <ele>149</ele>
        <time>2010-01-01T01:42:05Z</time>
      </trkpt>
      <trkpt lat="43.61393" lon="7.03663">
        <ele>148</ele>
        <time>2010-01-01T01:42:13Z</time>
      </trkpt>
      <trkpt lat="43.61374" lon="7.03652">
        <ele>147</ele>
        <time>2010-01-01T01:42:21Z</time>
      </trkpt>
      <trkpt lat="43.61358" lon="7.03638">
        <ele>146</ele>
        <time>2010-01-01T01:42:29Z</time>
      </trkpt>
      <trkpt lat="43.6134" lon="7.03625">
        <ele>146</ele>
        <time>2010-01-01T01:42:37Z</time>
      </trkpt>
      <trkpt lat="43.61324" lon="7.03608">
        <ele>145</ele>
        <time>2010-01-01T01:42:45Z</time>
      </trkpt>
      <trkpt lat="43.61319" lon="7.0358">
        <ele>146</ele>
        <time>2010-01-01T01:42:53Z</time>
      </trkpt>
      <trkpt lat="43.61319" lon="7.03554">
        <ele>149</ele>
        <time>2010-01-01T01:43:01Z</time>
      </trkpt>
      <trkpt lat="43.61319" lon="7.03526">
        <ele>151</ele>
        <time>2010-01-01T01:43:09Z</time>
      </trkpt>
      <trkpt lat="43.61316" lon="7.03499">
        <ele>154</ele>
        <time>2010-01-01T01:43:17Z</time>
      </trkpt>
      <trkpt lat="43.61313" lon="7.03472">
        <ele>155</ele>
        <time>2010-01-01T01:43:25Z</time>
      </trkpt>
      <trkpt lat="43.61312" lon="7.03445">
        <ele>156</ele>
        <time>2010-01-01T01:43:33Z</time>
      </trkpt>
      <trkpt lat="43.61309" lon="7.03417">
        <ele>156</ele>
        <time>2010-01-01T01:43:41Z</time>
      </trkpt>
      <trkpt lat="43.61306" lon="7.03389">
        <ele>155</ele>
        <time>2010-01-01T01:43:49Z</time>
      </trkpt>
      <trkpt lat="43.613" lon="7.03364">
        <ele>156</ele>
        <time>2010-01-01T01:43:57Z</time>
      </trkpt>
      <trkpt lat="43.61294" lon="7.03339">
        <ele>157</ele>
        <time>2010-01-01T01:44:04Z</time>
      </trkpt>
      <trkpt lat="43.61288" lon="7.0331">
        <ele>157</ele>
        <time>2010-01-01T01:44:13Z</time>
      </trkpt>
      <trkpt lat="43.61287" lon="7.03303">
        <ele>157</ele>
        <time>2010-01-01T01:44:15Z</time>
      </trkpt>
      <trkpt lat="43.61279" lon="7.0328">
        <ele>158</ele>
        <time>2010-01-01T01:44:23Z</time>
      </trkpt>
      <trkpt lat="43.61261" lon="7.03262">
        <ele>156</ele>
        <time>2010-01-01T01:44:31Z</time>
      </trkpt>
      <trkpt lat="43.61242" lon="7.03252">
        <ele>156</ele>
        <time>2010-01-01T01:44:39Z</time>
      </trkpt>
      <trkpt lat="43.61228" lon="7.03249">
        <ele>156</ele>
        <time>2010-01-01T01:44:45Z</time>
      </trkpt>
      <trkpt lat="43.61206" lon="7.03249">
        <ele>156</ele>
        <time>2010-01-01T01:44:54Z</time>
      </trkpt>
      <trkpt lat="43.61189" lon="7.03267">
        <ele>156</ele>
        <time>2010-01-01T01:45:02Z</time>
      </trkpt>
      <trkpt lat="43.61179" lon="7.03288">
        <ele>155</ele>
        <time>2010-01-01T01:45:10Z</time>
      </trkpt>
      <trkpt lat="43.6117" lon="7.0331">
        <ele>155</ele>
        <time>2010-01-01T01:45:17Z</time>
      </trkpt>
      <trkpt lat="43.61155" lon="7.03327">
        <ele>154</ele>
        <time>2010-01-01T01:45:25Z</time>
      </trkpt>
      <trkpt lat="43.61137" lon="7.03336">
        <ele>155</ele>
        <time>2010-01-01T01:45:32Z</time>
      </trkpt>
      <trkpt lat="43.61119" lon="7.03331">
        <ele>156</ele>
        <time>2010-01-01T01:45:40Z</time>
      </trkpt>
      <trkpt lat="43.61102" lon="7.03319">
        <ele>157</ele>
        <time>2010-01-01T01:45:48Z</time>
      </trkpt>
      <trkpt lat="43.61093" lon="7.03296">
        <ele>159</ele>
        <time>2010-01-01T01:45:55Z</time>
      </trkpt>
      <trkpt lat="43.61085" lon="7.03274">
        <ele>161</ele>
        <time>2010-01-01T01:46:03Z</time>
      </trkpt>
      <trkpt lat="43.61075" lon="7.03251">
        <ele>163</ele>
        <time>2010-01-01T01:46:10Z</time>
      </trkpt>
      <trkpt lat="43.61065" lon="7.03228">
        <ele>164</ele>
        <time>2010-01-01T01:46:18Z</time>
      </trkpt>
      <trkpt lat="43.6106" lon="7.03203">
        <ele>166</ele>
        <time>2010-01-01T01:46:25Z</time>
      </trkpt>
      <trkpt lat="43.61057" lon="7.03178">
        <ele>166</ele>
        <time>2010-01-01T01:46:33Z</time>
      </trkpt>
      <trkpt lat="43.61054" lon="7.0315">
        <ele>166</ele>
        <time>2010-01-01T01:46:41Z</time>
      </trkpt>
      <trkpt lat="43.61054" lon="7.03122">
        <ele>165</ele>
        <time>2010-01-01T01:46:49Z</time>
      </trkpt>
      <trkpt lat="43.61053" lon="7.03092">
        <ele>164</ele>
        <time>2010-01-01T01:46:58Z</time>
      </trkpt>
      <trkpt lat="43.61053" lon="7.03065">
        <ele>163</ele>
        <time>2010-01-01T01:47:06Z</time>
      </trkpt>
      <trkpt lat="43.61049" lon="7.03044">
        <ele>163</ele>
        <time>2010-01-01T01:47:12Z</time>
      </trkpt>
      <trkpt lat="43.61037" lon="7.03025">
        <ele>161</ele>
        <time>2010-01-01T01:47:19Z</time>
      </trkpt>
      <trkpt lat="43.61022" lon="7.03006">
        <ele>160</ele>
        <time>2010-01-01T01:47:28Z</time>
      </trkpt>
      <trkpt lat="43.61008" lon="7.02986">
        <ele>164</ele>
        <time>2010-01-01T01:47:36Z</time>
      </trkpt>
      <trkpt lat="43.61001" lon="7.02971">
        <ele>168</ele>
        <time>2010-01-01T01:47:41Z</time>
      </trkpt>
      <trkpt lat="43.60993" lon="7.02958">
        <ele>172</ele>
        <time>2010-01-01T01:47:46Z</time>
      </trkpt>
      <trkpt lat="43.60978" lon="7.02938">
        <ele>176</ele>
        <time>2010-01-01T01:47:54Z</time>
      </trkpt>
      <trkpt lat="43.60971" lon="7.02922">
        <ele>179</ele>
        <time>2010-01-01T01:47:59Z</time>
      </trkpt>
      <trkpt lat="43.60959" lon="7.02902">
        <ele>182</ele>
        <time>2010-01-01T01:48:07Z</time>
      </trkpt>
      <trkpt lat="43.60958" lon="7.029">
        <ele>182</ele>
        <time>2010-01-01T01:48:08Z</time>
      </trkpt>
      <trkpt lat="43.60958" lon="7.02874">
        <ele>185</ele>
        <time>2010-01-01T01:48:15Z</time>
      </trkpt>
      <trkpt lat="43.60977" lon="7.02851">
        <ele>190</ele>
        <time>2010-01-01T01:48:25Z</time>
      </trkpt>
      <trkpt lat="43.60996" lon="7.02849">
        <ele>190</ele>
        <time>2010-01-01T01:48:33Z</time>
      </trkpt>
      <trkpt lat="43.61014" lon="7.02848">
        <ele>191</ele>
        <time>2010-01-01T01:48:40Z</time>
      </trkpt>
      <trkpt lat="43.61032" lon="7.02844">
        <ele>189</ele>
        <time>2010-01-01T01:48:48Z</time>
      </trkpt>
      <trkpt lat="43.61052" lon="7.02839">
        <ele>187</ele>
        <time>2010-01-01T01:48:56Z</time>
      </trkpt>
      <trkpt lat="43.61071" lon="7.02834">
        <ele>186</ele>
        <time>2010-01-01T01:49:03Z</time>
      </trkpt>
      <trkpt lat="43.6109" lon="7.02837">
        <ele>184</ele>
        <time>2010-01-01T01:49:11Z</time>
      </trkpt>
      <trkpt lat="43.61108" lon="7.02844">
        <ele>183</ele>
        <time>2010-01-01T01:49:18Z</time>
      </trkpt>
      <trkpt lat="43.61123" lon="7.02859">
        <ele>183</ele>
        <time>2010-01-01T01:49:26Z</time>
      </trkpt>
      <trkpt lat="43.61136" lon="7.02867">
        <ele>184</ele>
        <time>2010-01-01T01:49:32Z</time>
      </trkpt>
      <trkpt lat="43.61139" lon="7.02845">
        <ele>186</ele>
        <time>2010-01-01T01:49:38Z</time>
      </trkpt>
      <trkpt lat="43.61135" lon="7.02819">
        <ele>190</ele>
        <time>2010-01-01T01:49:46Z</time>
      </trkpt>
      <trkpt lat="43.61135" lon="7.0281">
        <ele>191</ele>
        <time>2010-01-01T01:49:48Z</time>
      </trkpt>
      <trkpt lat="43.61134" lon="7.02802">
        <ele>193</ele>
        <time>2010-01-01T01:49:51Z</time>
      </trkpt>
      <trkpt lat="43.61131" lon="7.0279">
        <ele>196</ele>
        <time>2010-01-01T01:49:55Z</time>
      </trkpt>
      <trkpt lat="43.61125" lon="7.02764">
        <ele>203</ele>
        <time>2010-01-01T01:50:02Z</time>
      </trkpt>
      <trkpt lat="43.61124" lon="7.02743">
        <ele>207</ele>
        <time>2010-01-01T01:50:09Z</time>
      </trkpt>
      <trkpt lat="43.61142" lon="7.02738">
        <ele>209</ele>
        <time>2010-01-01T01:50:16Z</time>
      </trkpt>
      <trkpt lat="43.61158" lon="7.0273">
        <ele>208</ele>
        <time>2010-01-01T01:50:22Z</time>
      </trkpt>
      <trkpt lat="43.61168" lon="7.02709">
        <ele>207</ele>
        <time>2010-01-01T01:50:30Z</time>
      </trkpt>
      <trkpt lat="43.61177" lon="7.02678">
        <ele>206</ele>
        <time>2010-01-01T01:50:40Z</time>
      </trkpt>
      <trkpt lat="43.61183" lon="7.02654">
        <ele>205</ele>
        <time>2010-01-01T01:50:47Z</time>
      </trkpt>
      <trkpt lat="43.61187" lon="7.02638">
        <ele>204</ele>
        <time>2010-01-01T01:50:52Z</time>
      </trkpt>
      <trkpt lat="43.61196" lon="7.02612">
        <ele>202</ele>
        <time>2010-01-01T01:51:00Z</time>
      </trkpt>
      <trkpt lat="43.61202" lon="7.02589">
        <ele>201</ele>
        <time>2010-01-01T01:51:07Z</time>
      </trkpt>
      <trkpt lat="43.61203" lon="7.0256">
        <ele>199</ele>
        <time>2010-01-01T01:51:16Z</time>
      </trkpt>
      <trkpt lat="43.61201" lon="7.02534">
        <ele>198</ele>
        <time>2010-01-01T01:51:23Z</time>
      </trkpt>
      <trkpt lat="43.61197" lon="7.02507">
        <ele>197</ele>
        <time>2010-01-01T01:51:31Z</time>
      </trkpt>
      <trkpt lat="43.61192" lon="7.02491">
        <ele>196</ele>
        <time>2010-01-01T01:51:36Z</time>
      </trkpt>
      <trkpt lat="43.61197" lon="7.02466">
        <ele>196</ele>
        <time>2010-01-01T01:51:44Z</time>
      </trkpt>
      <trkpt lat="43.61203" lon="7.02462">
        <ele>196</ele>
        <time>2010-01-01T01:51:46Z</time>
      </trkpt>
      <trkpt lat="43.61212" lon="7.02439">
        <ele>198</ele>
        <time>2010-01-01T01:51:54Z</time>
      </trkpt>
      <trkpt lat="43.61214" lon="7.02412">
        <ele>198</ele>
        <time>2010-01-01T01:52:02Z</time>
      </trkpt>
      <trkpt lat="43.61229" lon="7.02397">
        <ele>199</ele>
        <time>2010-01-01T01:52:09Z</time>
      </trkpt>
      <trkpt lat="43.61247" lon="7.02387">
        <ele>200</ele>
        <time>2010-01-01T01:52:17Z</time>
      </trkpt>
      <trkpt lat="43.61263" lon="7.0237">
        <ele>202</ele>
        <time>2010-01-01T01:52:25Z</time>
      </trkpt>
      <trkpt lat="43.61276" lon="7.02353">
        <ele>204</ele>
        <time>2010-01-01T01:52:32Z</time>
      </trkpt>
      <trkpt lat="43.61292" lon="7.02339">
        <ele>207</ele>
        <time>2010-01-01T01:52:40Z</time>
      </trkpt>
      <trkpt lat="43.61294" lon="7.02337">
        <ele>207</ele>
        <time>2010-01-01T01:52:41Z</time>
      </trkpt>
      <trkpt lat="43.61299" lon="7.02323">
        <ele>208</ele>
        <time>2010-01-01T01:52:45Z</time>
      </trkpt>
      <trkpt lat="43.61301" lon="7.02316">
        <ele>209</ele>
        <time>2010-01-01T01:52:48Z</time>
      </trkpt>
      <trkpt lat="43.61304" lon="7.02289">
        <ele>211</ele>
        <time>2010-01-01T01:52:55Z</time>
      </trkpt>
      <trkpt lat="43.61304" lon="7.02279">
        <ele>212</ele>
        <time>2010-01-01T01:52:58Z</time>
      </trkpt>
      <trkpt lat="43.61304" lon="7.02254">
        <ele>213</ele>
        <time>2010-01-01T01:53:06Z</time>
      </trkpt>
      <trkpt lat="43.61304" lon="7.02241">
        <ele>214</ele>
        <time>2010-01-01T01:53:09Z</time>
      </trkpt>
      <trkpt lat="43.61304" lon="7.0223">
        <ele>215</ele>
        <time>2010-01-01T01:53:13Z</time>
      </trkpt>
      <trkpt lat="43.61299" lon="7.02203">
        <ele>218</ele>
        <time>2010-01-01T01:53:21Z</time>
      </trkpt>
      <trkpt lat="43.61297" lon="7.02179">
        <ele>217</ele>
        <time>2010-01-01T01:53:28Z</time>
      </trkpt>
      <trkpt lat="43.61291" lon="7.02154">
        <ele>219</ele>
        <time>2010-01-01T01:53:35Z</time>
      </trkpt>
      <trkpt lat="43.6129" lon="7.02136">
        <ele>219</ele>
        <time>2010-01-01T01:53:41Z</time>
      </trkpt>
      <trkpt lat="43.61287" lon="7.0211">
        <ele>219</ele>
        <time>2010-01-01T01:53:48Z</time>
      </trkpt>
      <trkpt lat="43.6128" lon="7.02087">
        <ele>220</ele>
        <time>2010-01-01T01:53:56Z</time>
      </trkpt>
      <trkpt lat="43.61276" lon="7.02062">
        <ele>219</ele>
        <time>2010-01-01T01:54:03Z</time>
      </trkpt>
      <trkpt lat="43.61272" lon="7.02037">
        <ele>219</ele>
        <time>2010-01-01T01:54:10Z</time>
      </trkpt>
      <trkpt lat="43.6127" lon="7.0201">
        <ele>218</ele>
        <time>2010-01-01T01:54:18Z</time>
      </trkpt>
      <trkpt lat="43.61262" lon="7.01987">
        <ele>218</ele>
        <time>2010-01-01T01:54:26Z</time>
      </trkpt>
      <trkpt lat="43.61255" lon="7.01959">
        <ele>218</ele>
        <time>2010-01-01T01:54:34Z</time>
      </trkpt>
      <trkpt lat="43.61261" lon="7.01928">
        <ele>219</ele>
        <time>2010-01-01T01:54:43Z</time>
      </trkpt>
      <trkpt lat="43.61264" lon="7.01914">
        <ele>219</ele>
        <time>2010-01-01T01:54:48Z</time>
      </trkpt>
      <trkpt lat="43.61269" lon="7.01887">
        <ele>218</ele>
        <time>2010-01-01T01:54:56Z</time>
      </trkpt>
      <trkpt lat="43.61283" lon="7.01865">
        <ele>217</ele>
        <time>2010-01-01T01:55:04Z</time>
      </trkpt>
      <trkpt lat="43.61299" lon="7.01851">
        <ele>217</ele>
        <time>2010-01-01T01:55:12Z</time>
      </trkpt>
      <trkpt lat="43.61316" lon="7.01838">
        <ele>216</ele>
        <time>2010-01-01T01:55:19Z</time>
      </trkpt>
      <trkpt lat="43.61335" lon="7.01828">
        <ele>215</ele>
        <time>2010-01-01T01:55:28Z</time>
      </trkpt>
      <trkpt lat="43.61345" lon="7.01824">
        <ele>215</ele>
        <time>2010-01-01T01:55:32Z</time>
      </trkpt>
      <trkpt lat="43.6136" lon="7.01806">
        <ele>214</ele>
        <time>2010-01-01T01:55:40Z</time>
      </trkpt>
      <trkpt lat="43.61368" lon="7.01796">
        <ele>214</ele>
        <time>2010-01-01T01:55:44Z</time>
      </trkpt>
      <trkpt lat="43.61381" lon="7.01782">
        <ele>213</ele>
        <time>2010-01-01T01:55:51Z</time>
      </trkpt>
      <trkpt lat="43.61397" lon="7.01771">
        <ele>212</ele>
        <time>2010-01-01T01:55:58Z</time>
      </trkpt>
      <trkpt lat="43.61413" lon="7.01758">
        <ele>211</ele>
        <time>2010-01-01T01:56:05Z</time>
      </trkpt>
      <trkpt lat="43.61429" lon="7.01746">
        <ele>211</ele>
        <time>2010-01-01T01:56:13Z</time>
      </trkpt>
      <trkpt lat="43.6145" lon="7.01743">
        <ele>210</ele>
        <time>2010-01-01T01:56:21Z</time>
      </trkpt>
      <trkpt lat="43.61469" lon="7.0174">
        <ele>208</ele>
        <time>2010-01-01T01:56:29Z</time>
      </trkpt>
      <trkpt lat="43.61487" lon="7.0173">
        <ele>207</ele>
        <time>2010-01-01T01:56:37Z</time>
      </trkpt>
      <trkpt lat="43.61504" lon="7.0172">
        <ele>206</ele>
        <time>2010-01-01T01:56:44Z</time>
      </trkpt>
      <trkpt lat="43.61519" lon="7.01703">
        <ele>206</ele>
        <time>2010-01-01T01:56:52Z</time>
      </trkpt>
      <trkpt lat="43.61538" lon="7.01691">
        <ele>207</ele>
        <time>2010-01-01T01:57:00Z</time>
      </trkpt>
      <trkpt lat="43.61555" lon="7.01678">
        <ele>208</ele>
        <time>2010-01-01T01:57:08Z</time>
      </trkpt>
      <trkpt lat="43.61569" lon="7.01659">
        <ele>208</ele>
        <time>2010-01-01T01:57:16Z</time>
      </trkpt>
      <trkpt lat="43.61579" lon="7.01634">
        <ele>208</ele>
        <time>2010-01-01T01:57:24Z</time>
      </trkpt>
      <trkpt lat="43.61591" lon="7.01611">
        <ele>207</ele>
        <time>2010-01-01T01:57:32Z</time>
      </trkpt>
      <trkpt lat="43.61604" lon="7.01593">
        <ele>209</ele>
        <time>2010-01-01T01:57:40Z</time>
      </trkpt>
      <trkpt lat="43.61616" lon="7.01571">
        <ele>211</ele>
        <time>2010-01-01T01:57:47Z</time>
      </trkpt>
      <trkpt lat="43.61628" lon="7.01548">
        <ele>212</ele>
        <time>2010-01-01T01:57:56Z</time>
      </trkpt>
      <trkpt lat="43.61646" lon="7.01531">
        <ele>212</ele>
        <time>2010-01-01T01:58:04Z</time>
      </trkpt>
      <trkpt lat="43.61659" lon="7.0151">
        <ele>212</ele>
        <time>2010-01-01T01:58:13Z</time>
      </trkpt>
      <trkpt lat="43.61671" lon="7.01487">
        <ele>212</ele>
        <time>2010-01-01T01:58:21Z</time>
      </trkpt>
      <trkpt lat="43.61679" lon="7.01465">
        <ele>212</ele>
        <time>2010-01-01T01:58:28Z</time>
      </trkpt>
      <trkpt lat="43.6169" lon="7.01445">
        <ele>211</ele>
        <time>2010-01-01T01:58:35Z</time>
      </trkpt>
      <trkpt lat="43.61695" lon="7.01418">
        <ele>211</ele>
        <time>2010-01-01T01:58:43Z</time>
      </trkpt>
      <trkpt lat="43.61696" lon="7.01403">
        <ele>211</ele>
        <time>2010-01-01T01:58:48Z</time>
      </trkpt>
      <trkpt lat="43.61692" lon="7.01382">
        <ele>210</ele>
        <time>2010-01-01T01:58:54Z</time>
      </trkpt>
      <trkpt lat="43.61681" lon="7.01363">
        <ele>210</ele>
        <time>2010-01-01T01:59:01Z</time>
      </trkpt>
      <trkpt lat="43.61662" lon="7.01348">
        <ele>209</ele>
        <time>2010-01-01T01:59:09Z</time>
      </trkpt>
      <trkpt lat="43.61644" lon="7.01335">
        <ele>209</ele>
        <time>2010-01-01T01:59:18Z</time>
      </trkpt>
      <trkpt lat="43.61627" lon="7.01326">
        <ele>208</ele>
        <time>2010-01-01T01:59:25Z</time>
      </trkpt>
      <trkpt lat="43.61605" lon="7.01314">
        <ele>208</ele>
        <time>2010-01-01T01:59:34Z</time>
      </trkpt>
      <trkpt lat="43.61586" lon="7.013">
        <ele>208</ele>
        <time>2010-01-01T01:59:43Z</time>
      </trkpt>
      <trkpt lat="43.61568" lon="7.01288">
        <ele>208</ele>
        <time>2010-01-01T01:59:51Z</time>
      </trkpt>
      <trkpt lat="43.61549" lon="7.01274">
        <ele>207</ele>
        <time>2010-01-01T02:00:00Z</time>
      </trkpt>
      <trkpt lat="43.6153" lon="7.01261">
        <ele>206</ele>
        <time>2010-01-01T02:00:08Z</time>
      </trkpt>
      <trkpt lat="43.61511" lon="7.01249">
        <ele>206</ele>
        <time>2010-01-01T02:00:17Z</time>
      </trkpt>
      <trkpt lat="43.61494" lon="7.01237">
        <ele>206</ele>
        <time>2010-01-01T02:00:24Z</time>
      </trkpt>
      <trkpt lat="43.61474" lon="7.01224">
        <ele>205</ele>
        <time>2010-01-01T02:00:33Z</time>
      </trkpt>
      <trkpt lat="43.61457" lon="7.01213">
        <ele>205</ele>
        <time>2010-01-01T02:00:40Z</time>
      </trkpt>
      <trkpt lat="43.61441" lon="7.01204">
        <ele>205</ele>
        <time>2010-01-01T02:00:48Z</time>
      </trkpt>
      <trkpt lat="43.61423" lon="7.01194">
        <ele>205</ele>
        <time>2010-01-01T02:00:55Z</time>
      </trkpt>
      <trkpt lat="43.61407" lon="7.01182">
        <ele>205</ele>
        <time>2010-01-01T02:01:03Z</time>
      </trkpt>
      <trkpt lat="43.61397" lon="7.01153">
        <ele>204</ele>
        <time>2010-01-01T02:01:12Z</time>
      </trkpt>
      <trkpt lat="43.61394" lon="7.01126">
        <ele>205</ele>
        <time>2010-01-01T02:01:20Z</time>
      </trkpt>
      <trkpt lat="43.61396" lon="7.01099">
        <ele>205</ele>
        <time>2010-01-01T02:01:28Z</time>
      </trkpt>
      <trkpt lat="43.61399" lon="7.0107">
        <ele>205</ele>
        <time>2010-01-01T02:01:36Z</time>
      </trkpt>
      <trkpt lat="43.61395" lon="7.01042">
        <ele>206</ele>
        <time>2010-01-01T02:01:45Z</time>
      </trkpt>
      <trkpt lat="43.6139" lon="7.01031">
        <ele>207</ele>
        <time>2010-01-01T02:01:48Z</time>
      </trkpt>
      <trkpt lat="43.61383" lon="7.01008">
        <ele>208</ele>
        <time>2010-01-01T02:01:55Z</time>
      </trkpt>
      <trkpt lat="43.61369" lon="7.00987">
        <ele>209</ele>
        <time>2010-01-01T02:02:04Z</time>
      </trkpt>
      <trkpt lat="43.61367" lon="7.00961">
        <ele>210</ele>
        <time>2010-01-01T02:02:11Z</time>
      </trkpt>
      <trkpt lat="43.61363" lon="7.0095">
        <ele>212</ele>
        <time>2010-01-01T02:02:15Z</time>
      </trkpt>
      <trkpt lat="43.61361" lon="7.00961">
        <ele>212</ele>
        <time>2010-01-01T02:02:18Z</time>
      </trkpt>
      <trkpt lat="43.61359" lon="7.00984">
        <ele>213</ele>
        <time>2010-01-01T02:02:25Z</time>
      </trkpt>
      <trkpt lat="43.6135" lon="7.01006">
        <ele>214</ele>
        <time>2010-01-01T02:02:32Z</time>
      </trkpt>
      <trkpt lat="43.61331" lon="7.01011">
        <ele>215</ele>
        <time>2010-01-01T02:02:40Z</time>
      </trkpt>
      <trkpt lat="43.61313" lon="7.01008">
        <ele>216</ele>
        <time>2010-01-01T02:02:47Z</time>
      </trkpt>
      <trkpt lat="43.61294" lon="7.01002">
        <ele>217</ele>
        <time>2010-01-01T02:02:55Z</time>
      </trkpt>
      <trkpt lat="43.61271" lon="7.00996">
        <ele>218</ele>
        <time>2010-01-01T02:03:04Z</time>
      </trkpt>
      <trkpt lat="43.61252" lon="7.00989">
        <ele>219</ele>
        <time>2010-01-01T02:03:12Z</time>
      </trkpt>
      <trkpt lat="43.61232" lon="7.00978">
        <ele>219</ele>
        <time>2010-01-01T02:03:21Z</time>
      </trkpt>
      <trkpt lat="43.6121" lon="7.00966">
        <ele>218</ele>
        <time>2010-01-01T02:03:30Z</time>
      </trkpt>
      <trkpt lat="43.61195" lon="7.00949">
        <ele>218</ele>
        <time>2010-01-01T02:03:38Z</time>
      </trkpt>
      <trkpt lat="43.61183" lon="7.00929">
        <ele>218</ele>
        <time>2010-01-01T02:03:46Z</time>
      </trkpt>
      <trkpt lat="43.61172" lon="7.00909">
        <ele>218</ele>
        <time>2010-01-01T02:03:53Z</time>
      </trkpt>
      <trkpt lat="43.61156" lon="7.00884">
        <ele>218</ele>
        <time>2010-01-01T02:04:03Z</time>
      </trkpt>
      <trkpt lat="43.6114" lon="7.00862">
        <ele>218</ele>
        <time>2010-01-01T02:04:12Z</time>
      </trkpt>
      <trkpt lat="43.61127" lon="7.00844">
        <ele>218</ele>
        <time>2010-01-01T02:04:19Z</time>
      </trkpt>
      <trkpt lat="43.61121" lon="7.0083">
        <ele>218</ele>
        <time>2010-01-01T02:04:24Z</time>
      </trkpt>
      <trkpt lat="43.61108" lon="7.00807">
        <ele>216</ele>
        <time>2010-01-01T02:04:32Z</time>
      </trkpt>
      <trkpt lat="43.61096" lon="7.00787">
        <ele>216</ele>
        <time>2010-01-01T02:04:40Z</time>
      </trkpt>
      <trkpt lat="43.61084" lon="7.00764">
        <ele>215</ele>
        <time>2010-01-01T02:04:48Z</time>
      </trkpt>
      <trkpt lat="43.61074" lon="7.0074">
        <ele>215</ele>
        <time>2010-01-01T02:04:56Z</time>
      </trkpt>
      <trkpt lat="43.61062" lon="7.00722">
        <ele>215</ele>
        <time>2010-01-01T02:05:03Z</time>
      </trkpt>
      <trkpt lat="43.61048" lon="7.00704">
        <ele>216</ele>
        <time>2010-01-01T02:05:11Z</time>
      </trkpt>
      <trkpt lat="43.61033" lon="7.00688">
        <ele>217</ele>
        <time>2010-01-01T02:05:18Z</time>
      </trkpt>
      <trkpt lat="43.61025" lon="7.00686">
        <ele>217</ele>
        <time>2010-01-01T02:05:22Z</time>
      </trkpt>
      <trkpt lat="43.61008" lon="7.0068">
        <ele>217</ele>
        <time>2010-01-01T02:05:29Z</time>
      </trkpt>
      <trkpt lat="43.60999" lon="7.00658">
        <ele>219</ele>
        <time>2010-01-01T02:05:36Z</time>
      </trkpt>
      <trkpt lat="43.60987" lon="7.00636">
        <ele>220</ele>
        <time>2010-01-01T02:05:44Z</time>
      </trkpt>
      <trkpt lat="43.60974" lon="7.00618">
        <ele>221</ele>
        <time>2010-01-01T02:05:51Z</time>
      </trkpt>
      <trkpt lat="43.60959" lon="7.00597">
        <ele>221</ele>
        <time>2010-01-01T02:06:00Z</time>
      </trkpt>
      <trkpt lat="43.60955" lon="7.00588">
        <ele>221</ele>
        <time>2010-01-01T02:06:03Z</time>
      </trkpt>
      <trkpt lat="43.60944" lon="7.00555">
        <ele>220</ele>
        <time>2010-01-01T02:06:13Z</time>
      </trkpt>
      <trkpt lat="43.60936" lon="7.00529">
        <ele>219</ele>
        <time>2010-01-01T02:06:22Z</time>
      </trkpt>
      <trkpt lat="43.60927" lon="7.00504">
        <ele>218</ele>
        <time>2010-01-01T02:06:30Z</time>
      </trkpt>
      <trkpt lat="43.60917" lon="7.00478">
        <ele>218</ele>
        <time>2010-01-01T02:06:38Z</time>
      </trkpt>
      <trkpt lat="43.60909" lon="7.00451">
        <ele>217</ele>
        <time>2010-01-01T02:06:46Z</time>
      </trkpt>
      <trkpt lat="43.60902" lon="7.00425">
        <ele>216</ele>
        <time>2010-01-01T02:06:55Z</time>
      </trkpt>
      <trkpt lat="43.60893" lon="7.004">
        <ele>215</ele>
        <time>2010-01-01T02:07:03Z</time>
      </trkpt>
      <trkpt lat="43.60884" lon="7.0037">
        <ele>213</ele>
        <time>2010-01-01T02:07:12Z</time>
      </trkpt>
      <trkpt lat="43.60881" lon="7.00353">
        <ele>211</ele>
        <time>2010-01-01T02:07:17Z</time>
      </trkpt>
      <trkpt lat="43.60887" lon="7.00338">
        <ele>210</ele>
        <time>2010-01-01T02:07:22Z</time>
      </trkpt>
      <trkpt lat="43.60889" lon="7.00312">
        <ele>209</ele>
        <time>2010-01-01T02:07:30Z</time>
      </trkpt>
      <trkpt lat="43.60888" lon="7.00285">
        <ele>208</ele>
        <time>2010-01-01T02:07:38Z</time>
      </trkpt>
      <trkpt lat="43.60884" lon="7.0026">
        <ele>207</ele>
        <time>2010-01-01T02:07:45Z</time>
      </trkpt>
      <trkpt lat="43.60878" lon="7.00235">
        <ele>207</ele>
        <time>2010-01-01T02:07:53Z</time>
      </trkpt>
      <trkpt lat="43.60872" lon="7.00209">
        <ele>207</ele>
        <time>2010-01-01T02:08:01Z</time>
      </trkpt>
      <trkpt lat="43.60865" lon="7.00181">
        <ele>206</ele>
        <time>2010-01-01T02:08:09Z</time>
      </trkpt>
      <trkpt lat="43.60857" lon="7.00156">
        <ele>205</ele>
        <time>2010-01-01T02:08:17Z</time>
      </trkpt>
      <trkpt lat="43.6085" lon="7.00129">
        <ele>204</ele>
        <time>2010-01-01T02:08:26Z</time>
      </trkpt>
      <trkpt lat="43.60847" lon="7.00116">
        <ele>204</ele>
        <time>2010-01-01T02:08:30Z</time>
      </trkpt>
      <trkpt lat="43.60841" lon="7.00086">
        <ele>204</ele>
        <time>2010-01-01T02:08:39Z</time>
      </trkpt>
      <trkpt lat="43.60837" lon="7.00064">
        <ele>204</ele>
        <time>2010-01-01T02:08:45Z</time>
      </trkpt>
      <trkpt lat="43.60839" lon="7.00042">
        <ele>206</ele>
        <time>2010-01-01T02:08:52Z</time>
      </trkpt>
      <trkpt lat="43.60846" lon="7.00015">
        <ele>205</ele>
        <time>2010-01-01T02:09:00Z</time>
      </trkpt>
      <trkpt lat="43.60851" lon="6.99996">
        <ele>205</ele>
        <time>2010-01-01T02:09:06Z</time>
      </trkpt>
      <trkpt lat="43.60857" lon="6.99971">
        <ele>203</ele>
        <time>2010-01-01T02:09:13Z</time>
      </trkpt>
      <trkpt lat="43.60866" lon="6.99944">
        <ele>202</ele>
        <time>2010-01-01T02:09:22Z</time>
      </trkpt>
      <trkpt lat="43.60869" lon="6.99935">
        <ele>201</ele>
        <time>2010-01-01T02:09:25Z</time>
      </trkpt>
      <trkpt lat="43.60873" lon="6.99916">
        <ele>201</ele>
        <time>2010-01-01T02:09:31Z</time>
      </trkpt>
      <trkpt lat="43.60876" lon="6.99891">
        <ele>202</ele>
        <time>2010-01-01T02:09:38Z</time>
      </trkpt>
      <trkpt lat="43.60878" lon="6.99884">
        <ele>202</ele>
        <time>2010-01-01T02:09:40Z</time>
      </trkpt>
      <trkpt lat="43.60888" lon="6.99859">
        <ele>202</ele>
        <time>2010-01-01T02:09:48Z</time>
      </trkpt>
      <trkpt lat="43.60891" lon="6.99829">
        <ele>202</ele>
        <time>2010-01-01T02:09:57Z</time>
      </trkpt>
      <trkpt lat="43.60889" lon="6.99804">
        <ele>202</ele>
        <time>2010-01-01T02:10:05Z</time>
      </trkpt>
      <trkpt lat="43.60885" lon="6.99775">
        <ele>203</ele>
        <time>2010-01-01T02:10:13Z</time>
      </trkpt>
      <trkpt lat="43.60881" lon="6.99748">
        <ele>204</ele>
        <time>2010-01-01T02:10:21Z</time>
      </trkpt>
      <trkpt lat="43.60869" lon="6.99729">
        <ele>206</ele>
        <time>2010-01-01T02:10:28Z</time>
      </trkpt>
      <trkpt lat="43.6085" lon="6.99723">
        <ele>209</ele>
        <time>2010-01-01T02:10:36Z</time>
      </trkpt>
      <trkpt lat="43.60833" lon="6.99729">
        <ele>209</ele>
        <time>2010-01-01T02:10:43Z</time>
      </trkpt>
      <trkpt lat="43.60822" lon="6.9971">
        <ele>208</ele>
        <time>2010-01-01T02:10:50Z</time>
      </trkpt>
      <trkpt lat="43.60819" lon="6.99697">
        <ele>207</ele>
        <time>2010-01-01T02:10:54Z</time>
      </trkpt>
      <trkpt lat="43.60812" lon="6.99673">
        <ele>208</ele>
        <time>2010-01-01T02:11:02Z</time>
      </trkpt>
      <trkpt lat="43.60805" lon="6.99648">
        <ele>208</ele>
        <time>2010-01-01T02:11:10Z</time>
      </trkpt>
      <trkpt lat="43.60797" lon="6.99624">
        <ele>208</ele>
        <time>2010-01-01T02:11:17Z</time>
      </trkpt>
      <trkpt lat="43.6079" lon="6.99605">
        <ele>208</ele>
        <time>2010-01-01T02:11:23Z</time>
      </trkpt>
      <trkpt lat="43.60784" lon="6.99579">
        <ele>208</ele>
        <time>2010-01-01T02:11:31Z</time>
      </trkpt>
      <trkpt lat="43.60778" lon="6.99548">
        <ele>208</ele>
        <time>2010-01-01T02:11:41Z</time>
      </trkpt>
      <trkpt lat="43.60774" lon="6.99538">
        <ele>207</ele>
        <time>2010-01-01T02:11:44Z</time>
      </trkpt>
      <trkpt lat="43.60763" lon="6.99515">
        <ele>206</ele>
        <time>2010-01-01T02:11:52Z</time>
      </trkpt>
      <trkpt lat="43.6077" lon="6.9949">
        <ele>203</ele>
        <time>2010-01-01T02:11:59Z</time>
      </trkpt>
      <trkpt lat="43.60778" lon="6.99473">
        <ele>202</ele>
        <time>2010-01-01T02:12:06Z</time>
      </trkpt>
      <trkpt lat="43.60781" lon="6.99465">
        <ele>201</ele>
        <time>2010-01-01T02:12:08Z</time>
      </trkpt>
      <trkpt lat="43.60786" lon="6.99441">
        <ele>198</ele>
        <time>2010-01-01T02:12:15Z</time>
      </trkpt>
      <trkpt lat="43.60793" lon="6.99415">
        <ele>196</ele>
        <time>2010-01-01T02:12:23Z</time>
      </trkpt>
      <trkpt lat="43.60797" lon="6.99388">
        <ele>193</ele>
        <time>2010-01-01T02:12:31Z</time>
      </trkpt>
      <trkpt lat="43.60793" lon="6.99369">
        <ele>190</ele>
        <time>2010-01-01T02:12:37Z</time>
      </trkpt>
      <trkpt lat="43.60792" lon="6.99354">
        <ele>187</ele>
        <time>2010-01-01T02:12:41Z</time>
      </trkpt>
      <trkpt lat="43.6079" lon="6.99346">
        <ele>184</ele>
        <time>2010-01-01T02:12:44Z</time>
      </trkpt>
      <trkpt lat="43.60787" lon="6.99339">
        <ele>182</ele>
        <time>2010-01-01T02:12:46Z</time>
      </trkpt>
      <trkpt lat="43.60782" lon="6.99313">
        <ele>177</ele>
        <time>2010-01-01T02:12:54Z</time>
      </trkpt>
      <trkpt lat="43.60777" lon="6.99288">
        <ele>173</ele>
        <time>2010-01-01T02:13:02Z</time>
      </trkpt>
      <trkpt lat="43.60768" lon="6.99279">
        <ele>170</ele>
        <time>2010-01-01T02:13:06Z</time>
      </trkpt>
      <trkpt lat="43.6078" lon="6.9926">
        <ele>163</ele>
        <time>2010-01-01T02:13:13Z</time>
      </trkpt>
      <trkpt lat="43.60791" lon="6.99246">
        <ele>163</ele>
        <time>2010-01-01T02:13:19Z</time>
      </trkpt>
      <trkpt lat="43.60794" lon="6.99221">
        <ele>165</ele>
        <time>2010-01-01T02:13:27Z</time>
      </trkpt>
      <trkpt lat="43.60798" lon="6.99215">
        <ele>165</ele>
        <time>2010-01-01T02:13:29Z</time>
      </trkpt>
      <trkpt lat="43.60816" lon="6.9922">
        <ele>170</ele>
        <time>2010-01-01T02:13:36Z</time>
      </trkpt>
      <trkpt lat="43.60819" lon="6.9922">
        <ele>170</ele>
        <time>2010-01-01T02:13:37Z</time>
      </trkpt>
      <trkpt lat="43.60824" lon="6.99209">
        <ele>172</ele>
        <time>2010-01-01T02:13:41Z</time>
      </trkpt>
      <trkpt lat="43.60822" lon="6.99205">
        <ele>174</ele>
        <time>2010-01-01T02:13:43Z</time>
      </trkpt>
      <trkpt lat="43.60816" lon="6.99182">
        <ele>178</ele>
        <time>2010-01-01T02:13:50Z</time>
      </trkpt>
      <trkpt lat="43.60821" lon="6.99157">
        <ele>181</ele>
        <time>2010-01-01T02:13:57Z</time>
      </trkpt>
      <trkpt lat="43.60817" lon="6.99145">
        <ele>182</ele>
        <time>2010-01-01T02:14:01Z</time>
      </trkpt>
      <trkpt lat="43.60801" lon="6.99129">
        <ele>183</ele>
        <time>2010-01-01T02:14:09Z</time>
      </trkpt>
      <trkpt lat="43.60798" lon="6.9912">
        <ele>183</ele>
        <time>2010-01-01T02:14:12Z</time>
      </trkpt>
      <trkpt lat="43.60806" lon="6.99097">
        <ele>183</ele>
        <time>2010-01-01T02:14:19Z</time>
      </trkpt>
      <trkpt lat="43.60809" lon="6.99092">
        <ele>183</ele>
        <time>2010-01-01T02:14:21Z</time>
      </trkpt>
      <trkpt lat="43.60823" lon="6.99071">
        <ele>182</ele>
        <time>2010-01-01T02:14:29Z</time>
      </trkpt>
      <trkpt lat="43.60834" lon="6.99049">
        <ele>180</ele>
        <time>2010-01-01T02:14:37Z</time>
      </trkpt>
      <trkpt lat="43.60841" lon="6.99024">
        <ele>177</ele>
        <time>2010-01-01T02:14:45Z</time>
      </trkpt>
      <trkpt lat="43.60849" lon="6.98999">
        <ele>175</ele>
        <time>2010-01-01T02:14:53Z</time>
      </trkpt>
      <trkpt lat="43.60856" lon="6.98974">
        <ele>174</ele>
        <time>2010-01-01T02:15:00Z</time>
      </trkpt>
      <trkpt lat="43.60864" lon="6.98952">
        <ele>174</ele>
        <time>2010-01-01T02:15:08Z</time>
      </trkpt>
      <trkpt lat="43.60873" lon="6.98925">
        <ele>173</ele>
        <time>2010-01-01T02:15:16Z</time>
      </trkpt>
      <trkpt lat="43.6088" lon="6.98898">
        <ele>172</ele>
        <time>2010-01-01T02:15:24Z</time>
      </trkpt>
      <trkpt lat="43.60885" lon="6.98871">
        <ele>172</ele>
        <time>2010-01-01T02:15:32Z</time>
      </trkpt>
      <trkpt lat="43.60886" lon="6.98843">
        <ele>172</ele>
        <time>2010-01-01T02:15:41Z</time>
      </trkpt>
      <trkpt lat="43.6088" lon="6.98819">
        <ele>172</ele>
        <time>2010-01-01T02:15:48Z</time>
      </trkpt>
      <trkpt lat="43.60866" lon="6.98798">
        <ele>174</ele>
        <time>2010-01-01T02:15:56Z</time>
      </trkpt>
      <trkpt lat="43.60852" lon="6.98783">
        <ele>176</ele>
        <time>2010-01-01T02:16:03Z</time>
      </trkpt>
      <trkpt lat="43.60845" lon="6.98756">
        <ele>178</ele>
        <time>2010-01-01T02:16:12Z</time>
      </trkpt>
      <trkpt lat="43.60856" lon="6.98733">
        <ele>179</ele>
        <time>2010-01-01T02:16:20Z</time>
      </trkpt>
      <trkpt lat="43.60874" lon="6.98722">
        <ele>180</ele>
        <time>2010-01-01T02:16:28Z</time>
      </trkpt>
      <trkpt lat="43.60894" lon="6.98712">
        <ele>180</ele>
        <time>2010-01-01T02:16:36Z</time>
      </trkpt>
      <trkpt lat="43.60913" lon="6.98701">
        <ele>179</ele>
        <time>2010-01-01T02:16:45Z</time>
      </trkpt>
      <trkpt lat="43.60932" lon="6.98689">
        <ele>179</ele>
        <time>2010-01-01T02:16:53Z</time>
      </trkpt>
      <trkpt lat="43.6095" lon="6.98678">
        <ele>179</ele>
        <time>2010-01-01T02:17:01Z</time>
      </trkpt>
      <trkpt lat="43.60968" lon="6.98669">
        <ele>179</ele>
        <time>2010-01-01T02:17:08Z</time>
      </trkpt>
      <trkpt lat="43.60973" lon="6.98668">
        <ele>179</ele>
        <time>2010-01-01T02:17:10Z</time>
      </trkpt>
      <trkpt lat="43.60995" lon="6.98669">
        <ele>179</ele>
        <time>2010-01-01T02:17:19Z</time>
      </trkpt>
      <trkpt lat="43.61013" lon="6.98678">
        <ele>179</ele>
        <time>2010-01-01T02:17:27Z</time>
      </trkpt>
      <trkpt lat="43.61032" lon="6.98688">
        <ele>179</ele>
        <time>2010-01-01T02:17:35Z</time>
      </trkpt>
      <trkpt lat="43.61049" lon="6.987">
        <ele>178</ele>
        <time>2010-01-01T02:17:43Z</time>
      </trkpt>
      <trkpt lat="43.61053" lon="6.98702">
        <ele>178</ele>
        <time>2010-01-01T02:17:44Z</time>
      </trkpt>
      <trkpt lat="43.61068" lon="6.98691">
        <ele>178</ele>
        <time>2010-01-01T02:17:51Z</time>
      </trkpt>
      <trkpt lat="43.61084" lon="6.9868">
        <ele>178</ele>
        <time>2010-01-01T02:17:58Z</time>
      </trkpt>
      <trkpt lat="43.61102" lon="6.9869">
        <ele>179</ele>
        <time>2010-01-01T02:18:06Z</time>
      </trkpt>
      <trkpt lat="43.61118" lon="6.98703">
        <ele>179</ele>
        <time>2010-01-01T02:18:13Z</time>
      </trkpt>
      <trkpt lat="43.61132" lon="6.9872">
        <ele>180</ele>
        <time>2010-01-01T02:18:21Z</time>
      </trkpt>
      <trkpt lat="43.61148" lon="6.98735">
        <ele>178</ele>
        <time>2010-01-01T02:18:29Z</time>
      </trkpt>
      <trkpt lat="43.61164" lon="6.9875">
        <ele>176</ele>
        <time>2010-01-01T02:18:36Z</time>
      </trkpt>
      <trkpt lat="43.61178" lon="6.98766">
        <ele>174</ele>
        <time>2010-01-01T02:18:44Z</time>
      </trkpt>
      <trkpt lat="43.61192" lon="6.98785">
        <ele>173</ele>
        <time>2010-01-01T02:18:51Z</time>
      </trkpt>
      <trkpt lat="43.61206" lon="6.98808">
        <ele>172</ele>
        <time>2010-01-01T02:19:00Z</time>
      </trkpt>
      <trkpt lat="43.61215" lon="6.98834">
        <ele>172</ele>
        <time>2010-01-01T02:19:08Z</time>
      </trkpt>
      <trkpt lat="43.61217" lon="6.9884">
        <ele>172</ele>
        <time>2010-01-01T02:19:10Z</time>
      </trkpt>
      <trkpt lat="43.6122" lon="6.98865">
        <ele>171</ele>
        <time>2010-01-01T02:19:18Z</time>
      </trkpt>
      <trkpt lat="43.61222" lon="6.98891">
        <ele>172</ele>
        <time>2010-01-01T02:19:25Z</time>
      </trkpt>
      <trkpt lat="43.61226" lon="6.98895">
        <ele>173</ele>
        <time>2010-01-01T02:19:27Z</time>
      </trkpt>
      <trkpt lat="43.61244" lon="6.98889">
        <ele>174</ele>
        <time>2010-01-01T02:19:35Z</time>
      </trkpt>
      <trkpt lat="43.61265" lon="6.98886">
        <ele>175</ele>
        <time>2010-01-01T02:19:43Z</time>
      </trkpt>
      <trkpt lat="43.61286" lon="6.98884">
        <ele>177</ele>
        <time>2010-01-01T02:19:52Z</time>
      </trkpt>
      <trkpt lat="43.61304" lon="6.98875">
        <ele>178</ele>
        <time>2010-01-01T02:19:59Z</time>
      </trkpt>
      <trkpt lat="43.61313" lon="6.98851">
        <ele>178</ele>
        <time>2010-01-01T02:20:07Z</time>
      </trkpt>
      <trkpt lat="43.61325" lon="6.98831">
        <ele>178</ele>
        <time>2010-01-01T02:20:15Z</time>
      </trkpt>
      <trkpt lat="43.61339" lon="6.98811">
        <ele>177</ele>
        <time>2010-01-01T02:20:23Z</time>
      </trkpt>
      <trkpt lat="43.61349" lon="6.98786">
        <ele>176</ele>
        <time>2010-01-01T02:20:31Z</time>
      </trkpt>
      <trkpt lat="43.61354" lon="6.9876">
        <ele>175</ele>
        <time>2010-01-01T02:20:39Z</time>
      </trkpt>
      <trkpt lat="43.6136" lon="6.98731">
        <ele>173</ele>
        <time>2010-01-01T02:20:48Z</time>
      </trkpt>
      <trkpt lat="43.61362" lon="6.98706">
        <ele>173</ele>
        <time>2010-01-01T02:20:55Z</time>
      </trkpt>
      <trkpt lat="43.6136" lon="6.98675">
        <ele>172</ele>
        <time>2010-01-01T02:21:04Z</time>
      </trkpt>
      <trkpt lat="43.61362" lon="6.9865">
        <ele>171</ele>
        <time>2010-01-01T02:21:11Z</time>
      </trkpt>
      <trkpt lat="43.61362" lon="6.98619">
        <ele>169</ele>
        <time>2010-01-01T02:21:20Z</time>
      </trkpt>
      <trkpt lat="43.61354" lon="6.98592">
        <ele>169</ele>
        <time>2010-01-01T02:21:28Z</time>
      </trkpt>
      <trkpt lat="43.61348" lon="6.98567">
        <ele>170</ele>
        <time>2010-01-01T02:21:36Z</time>
      </trkpt>
      <trkpt lat="43.61343" lon="6.9854">
        <ele>171</ele>
        <time>2010-01-01T02:21:44Z</time>
      </trkpt>
      <trkpt lat="43.6134" lon="6.98514">
        <ele>171</ele>
        <time>2010-01-01T02:21:52Z</time>
      </trkpt>
      <trkpt lat="43.61341" lon="6.98508">
        <ele>171</ele>
        <time>2010-01-01T02:21:54Z</time>
      </trkpt>
      <trkpt lat="43.61341" lon="6.9848">
        <ele>170</ele>
        <time>2010-01-01T02:22:02Z</time>
      </trkpt>
      <trkpt lat="43.61336" lon="6.98456">
        <ele>171</ele>
        <time>2010-01-01T02:22:09Z</time>
      </trkpt>
      <trkpt lat="43.61337" lon="6.98448">
        <ele>172</ele>
        <time>2010-01-01T02:22:11Z</time>
      </trkpt>
      <trkpt lat="43.61341" lon="6.9844">
        <ele>174</ele>
        <time>2010-01-01T02:22:14Z</time>
      </trkpt>
      <trkpt lat="43.61338" lon="6.98413">
        <ele>175</ele>
        <time>2010-01-01T02:22:22Z</time>
      </trkpt>
      <trkpt lat="43.61336" lon="6.98401">
        <ele>174</ele>
        <time>2010-01-01T02:22:25Z</time>
      </trkpt>
      <trkpt lat="43.6134" lon="6.98374">
        <ele>174</ele>
        <time>2010-01-01T02:22:33Z</time>
      </trkpt>
      <trkpt lat="43.61338" lon="6.98366">
        <ele>173</ele>
        <time>2010-01-01T02:22:36Z</time>
      </trkpt>
      <trkpt lat="43.61327" lon="6.98345">
        <ele>171</ele>
        <time>2010-01-01T02:22:43Z</time>
      </trkpt>
      <trkpt lat="43.61319" lon="6.98321">
        <ele>168</ele>
        <time>2010-01-01T02:22:51Z</time>
      </trkpt>
      <trkpt lat="43.61313" lon="6.98299">
        <ele>165</ele>
        <time>2010-01-01T02:22:58Z</time>
      </trkpt>
      <trkpt lat="43.61306" lon="6.98276">
        <ele>163</ele>
        <time>2010-01-01T02:23:05Z</time>
      </trkpt>
      <trkpt lat="43.613" lon="6.98249">
        <ele>160</ele>
        <time>2010-01-01T02:23:13Z</time>
      </trkpt>
      <trkpt lat="43.61292" lon="6.9822">
        <ele>157</ele>
        <time>2010-01-01T02:23:22Z</time>
      </trkpt>
      <trkpt lat="43.61286" lon="6.98188">
        <ele>154</ele>
        <time>2010-01-01T02:23:32Z</time>
      </trkpt>
      <trkpt lat="43.6128" lon="6.98154">
        <ele>150</ele>
        <time>2010-01-01T02:23:42Z</time>
      </trkpt>
      <trkpt lat="43.61273" lon="6.98121">
        <ele>146</ele>
        <time>2010-01-01T02:23:52Z</time>
      </trkpt>
      <trkpt lat="43.61266" lon="6.98086">
        <ele>141</ele>
        <time>2010-01-01T02:24:03Z</time>
      </trkpt>
      <trkpt lat="43.61259" lon="6.9805">
        <ele>137</ele>
        <time>2010-01-01T02:24:14Z</time>
      </trkpt>
      <trkpt lat="43.61253" lon="6.98015">
        <ele>135</ele>
        <time>2010-01-01T02:24:24Z</time>
      </trkpt>
      <trkpt lat="43.61247" lon="6.97981">
        <ele>133</ele>
        <time>2010-01-01T02:24:34Z</time>
      </trkpt>
      <trkpt lat="43.61243" lon="6.97947">
        <ele>131</ele>
        <time>2010-01-01T02:24:44Z</time>
      </trkpt>
      <trkpt lat="43.61238" lon="6.97916">
        <ele>129</ele>
        <time>2010-01-01T02:24:53Z</time>
      </trkpt>
      <trkpt lat="43.61236" lon="6.97892">
        <ele>127</ele>
        <time>2010-01-01T02:25:00Z</time>
      </trkpt>
      <trkpt lat="43.61236" lon="6.97862">
        <ele>125</ele>
        <time>2010-01-01T02:25:09Z</time>
      </trkpt>
      <trkpt lat="43.61238" lon="6.97838">
        <ele>122</ele>
        <time>2010-01-01T02:25:16Z</time>
      </trkpt>
      <trkpt lat="43.61242" lon="6.97813">
        <ele>120</ele>
        <time>2010-01-01T02:25:23Z</time>
      </trkpt>
      <trkpt lat="43.61248" lon="6.97782">
        <ele>118</ele>
        <time>2010-01-01T02:25:33Z</time>
      </trkpt>
      <trkpt lat="43.61254" lon="6.97748">
        <ele>116</ele>
        <time>2010-01-01T02:25:43Z</time>
      </trkpt>
      <trkpt lat="43.61258" lon="6.97714">
        <ele>115</ele>
        <time>2010-01-01T02:25:53Z</time>
      </trkpt>
      <trkpt lat="43.61261" lon="6.97693">
        <ele>115</ele>
        <time>2010-01-01T02:25:59Z</time>
      </trkpt>
      <trkpt lat="43.61275" lon="6.97674">
        <ele>114</ele>
        <time>2010-01-01T02:26:07Z</time>
      </trkpt>
      <trkpt lat="43.61292" lon="6.97665">
        <ele>114</ele>
        <time>2010-01-01T02:26:14Z</time>
      </trkpt>
      <trkpt lat="43.61313" lon="6.97667">
        <ele>115</ele>
        <time>2010-01-01T02:26:23Z</time>
      </trkpt>
      <trkpt lat="43.61329" lon="6.97653">
        <ele>117</ele>
        <time>2010-01-01T02:26:30Z</time>
      </trkpt>
      <trkpt lat="43.61346" lon="6.97639">
        <ele>118</ele>
        <time>2010-01-01T02:26:38Z</time>
      </trkpt>
      <trkpt lat="43.61358" lon="6.97619">
        <ele>118</ele>
        <time>2010-01-01T02:26:46Z</time>
      </trkpt>
      <trkpt lat="43.61368" lon="6.97599">
        <ele>118</ele>
        <time>2010-01-01T02:26:53Z</time>
      </trkpt>
      <trkpt lat="43.61386" lon="6.97583">
        <ele>118</ele>
        <time>2010-01-01T02:27:01Z</time>
      </trkpt>
      <trkpt lat="43.61403" lon="6.97569">
        <ele>118</ele>
        <time>2010-01-01T02:27:09Z</time>
      </trkpt>
      <trkpt lat="43.61421" lon="6.97556">
        <ele>118</ele>
        <time>2010-01-01T02:27:17Z</time>
      </trkpt>
      <trkpt lat="43.6144" lon="6.97544">
        <ele>119</ele>
        <time>2010-01-01T02:27:26Z</time>
      </trkpt>
      <trkpt lat="43.61457" lon="6.97532">
        <ele>120</ele>
        <time>2010-01-01T02:27:33Z</time>
      </trkpt>
      <trkpt lat="43.61465" lon="6.97527">
        <ele>120</ele>
        <time>2010-01-01T02:27:36Z</time>
      </trkpt>
      <trkpt lat="43.61482" lon="6.97517">
        <ele>120</ele>
        <time>2010-01-01T02:27:44Z</time>
      </trkpt>
      <trkpt lat="43.61499" lon="6.97504">
        <ele>120</ele>
        <time>2010-01-01T02:27:52Z</time>
      </trkpt>
      <trkpt lat="43.61519" lon="6.97489">
        <ele>121</ele>
        <time>2010-01-01T02:28:01Z</time>
      </trkpt>
      <trkpt lat="43.61535" lon="6.97477">
        <ele>121</ele>
        <time>2010-01-01T02:28:08Z</time>
      </trkpt>
      <trkpt lat="43.61552" lon="6.97464">
        <ele>121</ele>
        <time>2010-01-01T02:28:16Z</time>
      </trkpt>
      <trkpt lat="43.61568" lon="6.97451">
        <ele>122</ele>
        <time>2010-01-01T02:28:23Z</time>
      </trkpt>
      <trkpt lat="43.61584" lon="6.97439">
        <ele>122</ele>
        <time>2010-01-01T02:28:31Z</time>
      </trkpt>
      <trkpt lat="43.616" lon="6.97424">
        <ele>122</ele>
        <time>2010-01-01T02:28:38Z</time>
      </trkpt>
      <trkpt lat="43.61616" lon="6.97407">
        <ele>122</ele>
        <time>2010-01-01T02:28:47Z</time>
      </trkpt>
      <trkpt lat="43.61632" lon="6.97391">
        <ele>121</ele>
        <time>2010-01-01T02:28:54Z</time>
      </trkpt>
      <trkpt lat="43.61646" lon="6.97379">
        <ele>120</ele>
        <time>2010-01-01T02:29:01Z</time>
      </trkpt>
      <trkpt lat="43.61657" lon="6.97369">
        <ele>120</ele>
        <time>2010-01-01T02:29:06Z</time>
      </trkpt>
      <trkpt lat="43.61654" lon="6.97347">
        <ele>119</ele>
        <time>2010-01-01T02:29:13Z</time>
      </trkpt>
      <trkpt lat="43.61639" lon="6.97323">
        <ele>117</ele>
        <time>2010-01-01T02:29:22Z</time>
      </trkpt>
      <trkpt lat="43.61624" lon="6.97298">
        <ele>116</ele>
        <time>2010-01-01T02:29:32Z</time>
      </trkpt>
      <trkpt lat="43.61612" lon="6.97278">
        <ele>116</ele>
        <time>2010-01-01T02:29:39Z</time>
      </trkpt>
      <trkpt lat="43.61608" lon="6.97271">
        <ele>116</ele>
        <time>2010-01-01T02:29:41Z</time>
      </trkpt>
      <trkpt lat="43.61602" lon="6.97257">
        <ele>115</ele>
        <time>2010-01-01T02:29:46Z</time>
      </trkpt>
      <trkpt lat="43.61588" lon="6.97241">
        <ele>114</ele>
        <time>2010-01-01T02:29:54Z</time>
      </trkpt>
      <trkpt lat="43.61575" lon="6.97223">
        <ele>114</ele>
        <time>2010-01-01T02:30:01Z</time>
      </trkpt>
      <trkpt lat="43.61563" lon="6.97203">
        <ele>113</ele>
        <time>2010-01-01T02:30:09Z</time>
      </trkpt>
      <trkpt lat="43.6155" lon="6.97183">
        <ele>113</ele>
        <time>2010-01-01T02:30:16Z</time>
      </trkpt>
      <trkpt lat="43.61535" lon="6.9716">
        <ele>113</ele>
        <time>2010-01-01T02:30:25Z</time>
      </trkpt>
      <trkpt lat="43.61521" lon="6.97142">
        <ele>112</ele>
        <time>2010-01-01T02:30:33Z</time>
      </trkpt>
      <trkpt lat="43.61506" lon="6.97124">
        <ele>112</ele>
        <time>2010-01-01T02:30:41Z</time>
      </trkpt>
      <trkpt lat="43.61491" lon="6.97106">
        <ele>111</ele>
        <time>2010-01-01T02:30:49Z</time>
      </trkpt>
      <trkpt lat="43.61477" lon="6.97091">
        <ele>110</ele>
        <time>2010-01-01T02:30:56Z</time>
      </trkpt>
      <trkpt lat="43.61472" lon="6.97086">
        <ele>110</ele>
        <time>2010-01-01T02:30:58Z</time>
      </trkpt>
      <trkpt lat="43.61455" lon="6.97066">
        <ele>109</ele>
        <time>2010-01-01T02:31:07Z</time>
      </trkpt>
      <trkpt lat="43.61436" lon="6.9705">
        <ele>109</ele>
        <time>2010-01-01T02:31:16Z</time>
      </trkpt>
      <trkpt lat="43.61417" lon="6.97036">
        <ele>110</ele>
        <time>2010-01-01T02:31:25Z</time>
      </trkpt>
      <trkpt lat="43.61411" lon="6.97036">
        <ele>111</ele>
        <time>2010-01-01T02:31:27Z</time>
      </trkpt>
      <trkpt lat="43.6141" lon="6.97036">
        <ele>112</ele>
        <time>2010-01-01T02:31:28Z</time>
      </trkpt>
      <trkpt lat="43.61397" lon="6.97015">
        <ele>111</ele>
        <time>2010-01-01T02:31:36Z</time>
      </trkpt>
      <trkpt lat="43.61381" lon="6.96996">
        <ele>112</ele>
        <time>2010-01-01T02:31:44Z</time>
      </trkpt>
      <trkpt lat="43.61376" lon="6.9699">
        <ele>111</ele>
        <time>2010-01-01T02:31:47Z</time>
      </trkpt>
      <trkpt lat="43.6136" lon="6.96974">
        <ele>111</ele>
        <time>2010-01-01T02:31:55Z</time>
      </trkpt>
      <trkpt lat="43.61354" lon="6.96967">
        <ele>111</ele>
        <time>2010-01-01T02:31:58Z</time>
      </trkpt>
      <trkpt lat="43.61346" lon="6.96941">
        <ele>111</ele>
        <time>2010-01-01T02:32:06Z</time>
      </trkpt>
      <trkpt lat="43.61342" lon="6.96933">
        <ele>112</ele>
        <time>2010-01-01T02:32:09Z</time>
      </trkpt>
      <trkpt lat="43.6132" lon="6.96927">
        <ele>112</ele>
        <time>2010-01-01T02:32:18Z</time>
      </trkpt>
      <trkpt lat="43.61313" lon="6.96925">
        <ele>112</ele>
        <time>2010-01-01T02:32:21Z</time>
      </trkpt>
      <trkpt lat="43.61295" lon="6.96908">
        <ele>113</ele>
        <time>2010-01-01T02:32:29Z</time>
      </trkpt>
      <trkpt lat="43.61279" lon="6.96889">
        <ele>113</ele>
        <time>2010-01-01T02:32:38Z</time>
      </trkpt>
      <trkpt lat="43.61264" lon="6.96871">
        <ele>115</ele>
        <time>2010-01-01T02:32:46Z</time>
      </trkpt>
      <trkpt lat="43.61246" lon="6.96851">
        <ele>116</ele>
        <time>2010-01-01T02:32:55Z</time>
      </trkpt>
      <trkpt lat="43.61236" lon="6.96833">
        <ele>117</ele>
        <time>2010-01-01T02:33:02Z</time>
      </trkpt>
      <trkpt lat="43.61235" lon="6.96804">
        <ele>117</ele>
        <time>2010-01-01T02:33:10Z</time>
      </trkpt>
      <trkpt lat="43.61236" lon="6.96796">
        <ele>116</ele>
        <time>2010-01-01T02:33:12Z</time>
      </trkpt>
      <trkpt lat="43.61232" lon="6.96765">
        <ele>116</ele>
        <time>2010-01-01T02:33:22Z</time>
      </trkpt>
      <trkpt lat="43.61222" lon="6.96743">
        <ele>116</ele>
        <time>2010-01-01T02:33:29Z</time>
      </trkpt>
      <trkpt lat="43.61207" lon="6.96728">
        <ele>116</ele>
        <time>2010-01-01T02:33:37Z</time>
      </trkpt>
      <trkpt lat="43.61184" lon="6.96721">
        <ele>116</ele>
        <time>2010-01-01T02:33:46Z</time>
      </trkpt>
      <trkpt lat="43.61166" lon="6.96726">
        <ele>117</ele>
        <time>2010-01-01T02:33:53Z</time>
      </trkpt>
      <trkpt lat="43.6115" lon="6.96738">
        <ele>117</ele>
        <time>2010-01-01T02:34:01Z</time>
      </trkpt>
      <trkpt lat="43.61128" lon="6.9673">
        <ele>118</ele>
        <time>2010-01-01T02:34:10Z</time>
      </trkpt>
      <trkpt lat="43.61123" lon="6.96725">
        <ele>119</ele>
        <time>2010-01-01T02:34:12Z</time>
      </trkpt>
      <trkpt lat="43.61108" lon="6.9671">
        <ele>120</ele>
        <time>2010-01-01T02:34:19Z</time>
      </trkpt>
      <trkpt lat="43.6109" lon="6.96692">
        <ele>122</ele>
        <time>2010-01-01T02:34:28Z</time>
      </trkpt>
      <trkpt lat="43.61074" lon="6.96675">
        <ele>123</ele>
        <time>2010-01-01T02:34:37Z</time>
      </trkpt>
      <trkpt lat="43.61057" lon="6.96658">
        <ele>124</ele>
        <time>2010-01-01T02:34:45Z</time>
      </trkpt>
      <trkpt lat="43.6104" lon="6.9664">
        <ele>125</ele>
        <time>2010-01-01T02:34:53Z</time>
      </trkpt>
      <trkpt lat="43.61022" lon="6.96622">
        <ele>126</ele>
        <time>2010-01-01T02:35:02Z</time>
      </trkpt>
      <trkpt lat="43.61003" lon="6.96602">
        <ele>126</ele>
        <time>2010-01-01T02:35:12Z</time>
      </trkpt>
      <trkpt lat="43.60987" lon="6.96587">
        <ele>126</ele>
        <time>2010-01-01T02:35:20Z</time>
      </trkpt>
      <trkpt lat="43.60971" lon="6.96571">
        <ele>125</ele>
        <time>2010-01-01T02:35:27Z</time>
      </trkpt>
      <trkpt lat="43.60956" lon="6.96555">
        <ele>125</ele>
        <time>2010-01-01T02:35:35Z</time>
      </trkpt>
      <trkpt lat="43.6094" lon="6.96541">
        <ele>125</ele>
        <time>2010-01-01T02:35:43Z</time>
      </trkpt>
      <trkpt lat="43.60925" lon="6.96525">
        <ele>125</ele>
        <time>2010-01-01T02:35:50Z</time>
      </trkpt>
      <trkpt lat="43.60911" lon="6.96509">
        <ele>124</ele>
        <time>2010-01-01T02:35:58Z</time>
      </trkpt>
      <trkpt lat="43.60895" lon="6.96494">
        <ele>123</ele>
        <time>2010-01-01T02:36:05Z</time>
      </trkpt>
      <trkpt lat="43.6088" lon="6.96478">
        <ele>123</ele>
        <time>2010-01-01T02:36:13Z</time>
      </trkpt>
      <trkpt lat="43.60865" lon="6.96463">
        <ele>123</ele>
        <time>2010-01-01T02:36:20Z</time>
      </trkpt>
      <trkpt lat="43.6085" lon="6.96448">
        <ele>123</ele>
        <time>2010-01-01T02:36:28Z</time>
      </trkpt>
      <trkpt lat="43.60835" lon="6.9643">
        <ele>122</ele>
        <time>2010-01-01T02:36:35Z</time>
      </trkpt>
      <trkpt lat="43.60821" lon="6.96415">
        <ele>122</ele>
        <time>2010-01-01T02:36:43Z</time>
      </trkpt>
      <trkpt lat="43.60803" lon="6.96396">
        <ele>122</ele>
        <time>2010-01-01T02:36:52Z</time>
      </trkpt>
      <trkpt lat="43.60784" lon="6.96378">
        <ele>122</ele>
        <time>2010-01-01T02:37:01Z</time>
      </trkpt>
      <trkpt lat="43.60764" lon="6.96359">
        <ele>123</ele>
        <time>2010-01-01T02:37:11Z</time>
      </trkpt>
      <trkpt lat="43.60745" lon="6.96341">
        <ele>124</ele>
        <time>2010-01-01T02:37:20Z</time>
      </trkpt>
      <trkpt lat="43.60728" lon="6.96325">
        <ele>124</ele>
        <time>2010-01-01T02:37:28Z</time>
      </trkpt>
      <trkpt lat="43.60718" lon="6.96312">
        <ele>125</ele>
        <time>2010-01-01T02:37:34Z</time>
      </trkpt>
      <trkpt lat="43.60708" lon="6.96301">
        <ele>126</ele>
        <time>2010-01-01T02:37:39Z</time>
      </trkpt>
      <trkpt lat="43.60692" lon="6.96285">
        <ele>127</ele>
        <time>2010-01-01T02:37:47Z</time>
      </trkpt>
      <trkpt lat="43.6068" lon="6.96267">
        <ele>128</ele>
        <time>2010-01-01T02:37:54Z</time>
      </trkpt>
      <trkpt lat="43.6068" lon="6.96264">
        <ele>128</ele>
        <time>2010-01-01T02:37:55Z</time>
      </trkpt>
      <trkpt lat="43.60676" lon="6.9624">
        <ele>128</ele>
        <time>2010-01-01T02:38:02Z</time>
      </trkpt>
      <trkpt lat="43.60673" lon="6.96207">
        <ele>128</ele>
        <time>2010-01-01T02:38:11Z</time>
      </trkpt>
      <trkpt lat="43.6067" lon="6.96179">
        <ele>128</ele>
        <time>2010-01-01T02:38:19Z</time>
      </trkpt>
      <trkpt lat="43.60667" lon="6.96154">
        <ele>128</ele>
        <time>2010-01-01T02:38:27Z</time>
      </trkpt>
      <trkpt lat="43.60661" lon="6.96133">
        <ele>127</ele>
        <time>2010-01-01T02:38:34Z</time>
      </trkpt>
      <trkpt lat="43.60652" lon="6.96107">
        <ele>127</ele>
        <time>2010-01-01T02:38:42Z</time>
      </trkpt>
      <trkpt lat="43.60643" lon="6.96083">
        <ele>127</ele>
        <time>2010-01-01T02:38:50Z</time>
      </trkpt>
      <trkpt lat="43.60634" lon="6.9606">
        <ele>127</ele>
        <time>2010-01-01T02:38:57Z</time>
      </trkpt>
      <trkpt lat="43.60624" lon="6.96038">
        <ele>127</ele>
        <time>2010-01-01T02:39:05Z</time>
      </trkpt>
      <trkpt lat="43.60609" lon="6.96013">
        <ele>128</ele>
        <time>2010-01-01T02:39:14Z</time>
      </trkpt>
      <trkpt lat="43.60595" lon="6.95987">
        <ele>128</ele>
        <time>2010-01-01T02:39:23Z</time>
      </trkpt>
      <trkpt lat="43.60582" lon="6.95964">
        <ele>129</ele>
        <time>2010-01-01T02:39:32Z</time>
      </trkpt>
      <trkpt lat="43.6057" lon="6.9594">
        <ele>130</ele>
        <time>2010-01-01T02:39:41Z</time>
      </trkpt>
      <trkpt lat="43.60559" lon="6.95916">
        <ele>130</ele>
        <time>2010-01-01T02:39:49Z</time>
      </trkpt>
      <trkpt lat="43.60552" lon="6.959">
        <ele>131</ele>
        <time>2010-01-01T02:39:54Z</time>
      </trkpt>
      <trkpt lat="43.60556" lon="6.95875">
        <ele>131</ele>
        <time>2010-01-01T02:40:01Z</time>
      </trkpt>
      <trkpt lat="43.60557" lon="6.95869">
        <ele>132</ele>
        <time>2010-01-01T02:40:04Z</time>
      </trkpt>
      <trkpt lat="43.6057" lon="6.95841">
        <ele>131</ele>
        <time>2010-01-01T02:40:13Z</time>
      </trkpt>
      <trkpt lat="43.60581" lon="6.9582">
        <ele>131</ele>
        <time>2010-01-01T02:40:21Z</time>
      </trkpt>
      <trkpt lat="43.6059" lon="6.95796">
        <ele>132</ele>
        <time>2010-01-01T02:40:28Z</time>
      </trkpt>
      <trkpt lat="43.60601" lon="6.95775">
        <ele>131</ele>
        <time>2010-01-01T02:40:36Z</time>
      </trkpt>
      <trkpt lat="43.60614" lon="6.95754">
        <ele>131</ele>
        <time>2010-01-01T02:40:44Z</time>
      </trkpt>
      <trkpt lat="43.60627" lon="6.95729">
        <ele>131</ele>
        <time>2010-01-01T02:40:53Z</time>
      </trkpt>
      <trkpt lat="43.6064" lon="6.95705">
        <ele>131</ele>
        <time>2010-01-01T02:41:02Z</time>
      </trkpt>
      <trkpt lat="43.60654" lon="6.95681">
        <ele>131</ele>
        <time>2010-01-01T02:41:11Z</time>
      </trkpt>
      <trkpt lat="43.60667" lon="6.95657">
        <ele>130</ele>
        <time>2010-01-01T02:41:19Z</time>
      </trkpt>
      <trkpt lat="43.60677" lon="6.95633">
        <ele>130</ele>
        <time>2010-01-01T02:41:27Z</time>
      </trkpt>
      <trkpt lat="43.60686" lon="6.95613">
        <ele>130</ele>
        <time>2010-01-01T02:41:34Z</time>
      </trkpt>
      <trkpt lat="43.6069" lon="6.95589">
        <ele>130</ele>
        <time>2010-01-01T02:41:41Z</time>
      </trkpt>
      <trkpt lat="43.60674" lon="6.95584">
        <ele>131</ele>
        <time>2010-01-01T02:41:48Z</time>
      </trkpt>
      <trkpt lat="43.60654" lon="6.95578">
        <ele>131</ele>
        <time>2010-01-01T02:41:56Z</time>
      </trkpt>
      <trkpt lat="43.60635" lon="6.9557">
        <ele>131</ele>
        <time>2010-01-01T02:42:04Z</time>
      </trkpt>
      <trkpt lat="43.60614" lon="6.95564">
        <ele>132</ele>
        <time>2010-01-01T02:42:12Z</time>
      </trkpt>
      <trkpt lat="43.60594" lon="6.95557">
        <ele>132</ele>
        <time>2010-01-01T02:42:21Z</time>
      </trkpt>
      <trkpt lat="43.60575" lon="6.95549">
        <ele>132</ele>
        <time>2010-01-01T02:42:29Z</time>
      </trkpt>
      <trkpt lat="43.60557" lon="6.95538">
        <ele>132</ele>
        <time>2010-01-01T02:42:37Z</time>
      </trkpt>
      <trkpt lat="43.60537" lon="6.95523">
        <ele>132</ele>
        <time>2010-01-01T02:42:46Z</time>
      </trkpt>
      <trkpt lat="43.60516" lon="6.95503">
        <ele>131</ele>
        <time>2010-01-01T02:42:56Z</time>
      </trkpt>
      <trkpt lat="43.60494" lon="6.95483">
        <ele>131</ele>
        <time>2010-01-01T02:43:06Z</time>
      </trkpt>
      <trkpt lat="43.60475" lon="6.95464">
        <ele>131</ele>
        <time>2010-01-01T02:43:16Z</time>
      </trkpt>
      <trkpt lat="43.60457" lon="6.95446">
        <ele>131</ele>
        <time>2010-01-01T02:43:24Z</time>
      </trkpt>
      <trkpt lat="43.60438" lon="6.95429">
        <ele>130</ele>
        <time>2010-01-01T02:43:34Z</time>
      </trkpt>
      <trkpt lat="43.60417" lon="6.95411">
        <ele>130</ele>
        <time>2010-01-01T02:43:44Z</time>
      </trkpt>
      <trkpt lat="43.60396" lon="6.95393">
        <ele>130</ele>
        <time>2010-01-01T02:43:53Z</time>
      </trkpt>
      <trkpt lat="43.60376" lon="6.95378">
        <ele>129</ele>
        <time>2010-01-01T02:44:02Z</time>
      </trkpt>
      <trkpt lat="43.60358" lon="6.95363">
        <ele>129</ele>
        <time>2010-01-01T02:44:11Z</time>
      </trkpt>
      <trkpt lat="43.60338" lon="6.95347">
        <ele>129</ele>
        <time>2010-01-01T02:44:20Z</time>
      </trkpt>
      <trkpt lat="43.6032" lon="6.95331">
        <ele>129</ele>
        <time>2010-01-01T02:44:29Z</time>
      </trkpt>
      <trkpt lat="43.60302" lon="6.95317">
        <ele>129</ele>
        <time>2010-01-01T02:44:37Z</time>
      </trkpt>
      <trkpt lat="43.60286" lon="6.95299">
        <ele>129</ele>
        <time>2010-01-01T02:44:45Z</time>
      </trkpt>
      <trkpt lat="43.60272" lon="6.95278">
        <ele>129</ele>
        <time>2010-01-01T02:44:54Z</time>
      </trkpt>
      <trkpt lat="43.6026" lon="6.95255">
        <ele>129</ele>
        <time>2010-01-01T02:45:02Z</time>
      </trkpt>
      <trkpt lat="43.60248" lon="6.95232">
        <ele>129</ele>
        <time>2010-01-01T02:45:10Z</time>
      </trkpt>
      <trkpt lat="43.60236" lon="6.95209">
        <ele>129</ele>
        <time>2010-01-01T02:45:18Z</time>
      </trkpt>
      <trkpt lat="43.60225" lon="6.95186">
        <ele>129</ele>
        <time>2010-01-01T02:45:26Z</time>
      </trkpt>
      <trkpt lat="43.60214" lon="6.95164">
        <ele>129</ele>
        <time>2010-01-01T02:45:34Z</time>
      </trkpt>
      <trkpt lat="43.60204" lon="6.95143">
        <ele>129</ele>
        <time>2010-01-01T02:45:41Z</time>
      </trkpt>
      <trkpt lat="43.6019" lon="6.95118">
        <ele>129</ele>
        <time>2010-01-01T02:45:51Z</time>
      </trkpt>
      <trkpt lat="43.60187" lon="6.95111">
        <ele>130</ele>
        <time>2010-01-01T02:45:53Z</time>
      </trkpt>
      <trkpt lat="43.60198" lon="6.95089">
        <ele>131</ele>
        <time>2010-01-01T02:46:00Z</time>
      </trkpt>
    </trkseg>
  </trk>
</gpx>